PWSweather.com
Personal Weather Stations
Station Observations
KMILAPEE3
Lapeer Michigan, Lapeer, MI 48446

Lapeer MichiganLapeer, MI 48446

Lat: 43.057, Lon: -83.362

Elevation: 897

Station Type: Oregon Scientific WMR-968

Latest ConditionsUpdated 10:35:13 PM EST Thursday, Feb 11, 2016
Currently Today's Max Today's Min Today's Average
Temperature 7.0°F-13.9°C 21.6°F-5.8°C 2.8°F-16.2°C 10.2°F-12.1°C
Dew Point -8.5°F-22.5°C 5.9°F-14.5°C -12.5°F-24.7°C -2.4°F-19.1°C
Winds 6.6 mph SW10.6 kmh SW 16.0 mph WNW25.7 kmh WNW - 7.3 mph 11.7 kmh
Wind Gusts 10.4 mph16.7 kmh 24.6 mph39.6 kmh - -
Humidity 48% 64% 46% 56%
Pressure 29.21 in989.2 mb 29.23 in989.8 mb 29.03 in983.1 mb -
Hour Temp Dew Point Humidity Winds Wind Gusts Pressure Precip Precip Rate Daily Precip Total
10:35 PM 7.0°F-13.9°C -8.5°F-22.5°C 48% 6.6 mph SW10.6 kmh SW 10.4 mph16.7 kmh 29.21 in989.2 mb 0.00 in0.0 mm 0.00 in0.0 mm 0.00 in0.0 mm
10:34 PM 7.0°F-13.9°C -8.5°F-22.5°C 48% 6.2 mph SW10.0 kmh SW 10.4 mph16.7 kmh 29.21 in989.2 mb 0.00 in0.0 mm 0.00 in0.0 mm 0.00 in0.0 mm
10:33 PM 7.0°F-13.9°C -8.5°F-22.5°C 48% 6.2 mph SW10.0 kmh SW 10.4 mph16.7 kmh 29.21 in989.2 mb 0.00 in0.0 mm 0.00 in0.0 mm 0.00 in0.0 mm
10:32 PM 7.0°F-13.9°C -8.5°F-22.5°C 48% 5.8 mph SW9.3 kmh SW 9.1 mph14.6 kmh 29.21 in989.2 mb 0.00 in0.0 mm 0.00 in0.0 mm 0.00 in0.0 mm
10:31 PM 7.0°F-13.9°C -8.5°F-22.5°C 48% 5.6 mph SW9.0 kmh SW 9.1 mph14.6 kmh 29.21 in989.2 mb 0.00 in0.0 mm 0.00 in0.0 mm 0.00 in0.0 mm
10:30 PM 7.0°F-13.9°C -8.5°F-22.5°C 48% 5.5 mph SW8.9 kmh SW 9.1 mph14.6 kmh 29.21 in989.2 mb 0.00 in0.0 mm 0.00 in0.0 mm 0.00 in0.0 mm
10:29 PM 6.8°F-14.0°C -8.7°F-22.6°C 48% 5.3 mph SW8.5 kmh SW 9.1 mph14.6 kmh 29.21 in989.2 mb 0.00 in0.0 mm 0.00 in0.0 mm 0.00 in0.0 mm
10:28 PM 6.8°F-14.0°C -8.7°F-22.6°C 48% 4.9 mph SW7.9 kmh SW 9.1 mph14.6 kmh 29.21 in989.2 mb 0.00 in0.0 mm 0.00 in0.0 mm 0.00 in0.0 mm
10:27 PM 6.8°F-14.0°C -8.7°F-22.6°C 48% 4.9 mph SW7.9 kmh SW 9.1 mph14.6 kmh 29.21 in989.2 mb 0.00 in0.0 mm 0.00 in0.0 mm 0.00 in0.0 mm
10:26 PM 6.6°F-14.1°C -8.9°F-22.7°C 48% 5.0 mph SW8.0 kmh SW 9.1 mph14.6 kmh 29.21 in989.2 mb 0.00 in0.0 mm 0.00 in0.0 mm 0.00 in0.0 mm
10:25 PM 6.4°F-14.2°C -9.1°F-22.8°C 48% 5.5 mph SW8.9 kmh SW 9.1 mph14.6 kmh 29.21 in989.2 mb 0.00 in0.0 mm 0.00 in0.0 mm 0.00 in0.0 mm
10:24 PM 6.4°F-14.2°C -9.1°F-22.8°C 48% 5.8 mph SW9.3 kmh SW 9.1 mph14.6 kmh 29.21 in989.2 mb 0.00 in0.0 mm 0.00 in0.0 mm 0.00 in0.0 mm
10:23 PM 6.4°F-14.2°C -9.1°F-22.8°C 48% 5.7 mph SW9.2 kmh SW 9.1 mph14.6 kmh 29.21 in989.2 mb 0.00 in0.0 mm 0.00 in0.0 mm 0.00 in0.0 mm
10:22 PM 6.3°F-14.3°C -9.2°F-22.9°C 48% 6.1 mph SW9.8 kmh SW 9.1 mph14.6 kmh 29.21 in989.2 mb 0.00 in0.0 mm 0.00 in0.0 mm 0.00 in0.0 mm
10:21 PM 6.3°F-14.3°C -9.2°F-22.9°C 48% 6.4 mph SW10.3 kmh SW 9.1 mph14.6 kmh 29.21 in989.2 mb 0.00 in0.0 mm 0.00 in0.0 mm 0.00 in0.0 mm
10:20 PM 6.3°F-14.3°C -9.2°F-22.9°C 48% 6.3 mph SW10.1 kmh SW 9.1 mph14.6 kmh 29.21 in989.2 mb 0.00 in0.0 mm 0.00 in0.0 mm 0.00 in0.0 mm
10:19 PM 6.3°F-14.3°C -9.2°F-22.9°C 48% 6.0 mph SW9.7 kmh SW 9.1 mph14.6 kmh 29.21 in989.2 mb 0.00 in0.0 mm 0.00 in0.0 mm 0.00 in0.0 mm
10:18 PM 6.1°F-14.4°C -9.4°F-23.0°C 48% 5.7 mph SW9.2 kmh SW 9.1 mph14.6 kmh 29.21 in989.2 mb 0.00 in0.0 mm 0.00 in0.0 mm 0.00 in0.0 mm
10:17 PM 6.1°F-14.4°C -9.4°F-23.0°C 48% 5.6 mph SW9.0 kmh SW 9.1 mph14.6 kmh 29.21 in989.2 mb 0.00 in0.0 mm 0.00 in0.0 mm 0.00 in0.0 mm
10:15 PM 5.9°F-14.5°C -9.5°F-23.1°C 48% 6.2 mph SW10.0 kmh SW 9.1 mph14.6 kmh 29.21 in989.2 mb 0.00 in0.0 mm 0.00 in0.0 mm 0.00 in0.0 mm
10:14 PM 5.7°F-14.6°C -9.7°F-23.2°C 48% 6.2 mph SW10.0 kmh SW 9.1 mph14.6 kmh 29.21 in989.2 mb 0.00 in0.0 mm 0.00 in0.0 mm 0.00 in0.0 mm
10:13 PM 5.7°F-14.6°C -9.7°F-23.2°C 48% 6.0 mph SW9.7 kmh SW 9.1 mph14.6 kmh 29.21 in989.2 mb 0.00 in0.0 mm 0.00 in0.0 mm 0.00 in0.0 mm
10:12 PM 5.5°F-14.7°C -9.9°F-23.3°C 48% 5.9 mph SW9.5 kmh SW 8.4 mph13.5 kmh 29.21 in989.2 mb 0.00 in0.0 mm 0.00 in0.0 mm 0.00 in0.0 mm
10:11 PM 5.5°F-14.7°C -9.9°F-23.3°C 48% 5.8 mph SW9.3 kmh SW 8.4 mph13.5 kmh 29.21 in989.2 mb 0.00 in0.0 mm 0.00 in0.0 mm 0.00 in0.0 mm
10:10 PM 5.4°F-14.8°C -10.0°F-23.3°C 48% 5.9 mph SW9.5 kmh SW 8.4 mph13.5 kmh 29.21 in989.2 mb 0.00 in0.0 mm 0.00 in0.0 mm 0.00 in0.0 mm
10:09 PM 5.4°F-14.8°C -10.0°F-23.3°C 48% 5.8 mph SW9.3 kmh SW 7.8 mph12.6 kmh 29.21 in989.2 mb 0.00 in0.0 mm 0.00 in0.0 mm 0.00 in0.0 mm
10:08 PM 5.2°F-14.9°C -10.2°F-23.4°C 48% 5.5 mph SW8.9 kmh SW 7.8 mph12.6 kmh 29.21 in989.2 mb 0.00 in0.0 mm 0.00 in0.0 mm 0.00 in0.0 mm
10:07 PM 5.2°F-14.9°C -10.2°F-23.4°C 48% 5.6 mph SW9.0 kmh SW 7.8 mph12.6 kmh 29.21 in989.2 mb 0.00 in0.0 mm 0.00 in0.0 mm 0.00 in0.0 mm
10:06 PM 5.0°F-15.0°C -10.4°F-23.6°C 48% 5.7 mph SW9.2 kmh SW 7.8 mph12.6 kmh 29.21 in989.2 mb 0.00 in0.0 mm 0.00 in0.0 mm 0.00 in0.0 mm
10:05 PM 5.0°F-15.0°C -10.4°F-23.6°C 48% 5.5 mph SW8.9 kmh SW 7.8 mph12.6 kmh 29.21 in989.2 mb 0.00 in0.0 mm 0.00 in0.0 mm 0.00 in0.0 mm
10:04 PM 5.0°F-15.0°C -10.4°F-23.6°C 48% 4.9 mph SW7.9 kmh SW 7.1 mph11.4 kmh 29.21 in989.2 mb 0.00 in0.0 mm 0.00 in0.0 mm 0.00 in0.0 mm
10:03 PM 5.0°F-15.0°C -10.4°F-23.6°C 48% 4.6 mph SW7.4 kmh SW 7.1 mph11.4 kmh 29.21 in989.2 mb 0.00 in0.0 mm 0.00 in0.0 mm 0.00 in0.0 mm
10:02 PM 4.8°F-15.1°C -10.6°F-23.7°C 48% 4.9 mph SW7.9 kmh SW 7.8 mph12.6 kmh 29.21 in989.2 mb 0.00 in0.0 mm 0.00 in0.0 mm 0.00 in0.0 mm
10:01 PM 4.8°F-15.1°C -10.6°F-23.7°C 48% 4.8 mph SW7.7 kmh SW 7.8 mph12.6 kmh 29.21 in989.2 mb 0.00 in0.0 mm 0.00 in0.0 mm 0.00 in0.0 mm
10:00 PM 4.8°F-15.1°C -10.6°F-23.7°C 48% 4.5 mph SW7.2 kmh SW 7.8 mph12.6 kmh 29.21 in989.2 mb 0.00 in0.0 mm 0.00 in0.0 mm 0.00 in0.0 mm
09:59 PM 4.6°F-15.2°C -10.8°F-23.8°C 48% 4.5 mph SW7.2 kmh SW 7.8 mph12.6 kmh 29.21 in989.2 mb 0.00 in0.0 mm 0.00 in0.0 mm 0.00 in0.0 mm
09:58 PM 4.5°F-15.3°C -10.8°F-23.8°C 48% 5.0 mph SW8.0 kmh SW 7.8 mph12.6 kmh 29.21 in989.2 mb 0.00 in0.0 mm 0.00 in0.0 mm 0.00 in0.0 mm
09:57 PM 4.5°F-15.3°C -10.8°F-23.8°C 48% 4.9 mph SW7.9 kmh SW 7.8 mph12.6 kmh 29.21 in989.2 mb 0.00 in0.0 mm 0.00 in0.0 mm 0.00 in0.0 mm
09:56 PM 4.3°F-15.4°C -11.0°F-23.9°C 48% 4.7 mph SW7.6 kmh SW 7.8 mph12.6 kmh 29.21 in989.2 mb 0.00 in0.0 mm 0.00 in0.0 mm 0.00 in0.0 mm
09:55 PM 4.1°F-15.5°C -11.2°F-24.0°C 48% 5.2 mph SW8.4 kmh SW 7.8 mph12.6 kmh 29.21 in989.2 mb 0.00 in0.0 mm 0.00 in0.0 mm 0.00 in0.0 mm
09:54 PM 4.1°F-15.5°C -11.2°F-24.0°C 48% 5.9 mph SW9.5 kmh SW 7.8 mph12.6 kmh 29.21 in989.2 mb 0.00 in0.0 mm 0.00 in0.0 mm 0.00 in0.0 mm
09:53 PM 3.9°F-15.6°C -11.4°F-24.1°C 48% 6.1 mph SW9.8 kmh SW 8.4 mph13.5 kmh 29.21 in989.2 mb 0.00 in0.0 mm 0.00 in0.0 mm 0.00 in0.0 mm
09:52 PM 3.9°F-15.6°C -11.4°F-24.1°C 48% 5.6 mph SW9.0 kmh SW 8.4 mph13.5 kmh 29.21 in989.2 mb 0.00 in0.0 mm 0.00 in0.0 mm 0.00 in0.0 mm
09:51 PM 3.9°F-15.6°C -11.4°F-24.1°C 48% 5.2 mph SW8.4 kmh SW 8.4 mph13.5 kmh 29.21 in989.2 mb 0.00 in0.0 mm 0.00 in0.0 mm 0.00 in0.0 mm
09:50 PM 3.9°F-15.6°C -11.4°F-24.1°C 48% 5.4 mph SW8.7 kmh SW 8.4 mph13.5 kmh 29.21 in989.2 mb 0.00 in0.0 mm 0.00 in0.0 mm 0.00 in0.0 mm
09:49 PM 3.9°F-15.6°C -11.4°F-24.1°C 48% 5.5 mph SW8.9 kmh SW 8.4 mph13.5 kmh 29.21 in989.2 mb 0.00 in0.0 mm 0.00 in0.0 mm 0.00 in0.0 mm
09:48 PM 3.9°F-15.6°C -11.4°F-24.1°C 48% 5.5 mph SW8.9 kmh SW 8.4 mph13.5 kmh 29.21 in989.2 mb 0.00 in0.0 mm 0.00 in0.0 mm 0.00 in0.0 mm
09:47 PM 3.9°F-15.6°C -11.4°F-24.1°C 48% 5.4 mph SW8.7 kmh SW 8.4 mph13.5 kmh 29.21 in989.2 mb 0.00 in0.0 mm 0.00 in0.0 mm 0.00 in0.0 mm
09:46 PM 3.9°F-15.6°C -11.4°F-24.1°C 48% 5.4 mph SW8.7 kmh SW 8.4 mph13.5 kmh 29.21 in989.2 mb 0.00 in0.0 mm 0.00 in0.0 mm 0.00 in0.0 mm
09:45 PM 3.9°F-15.6°C -11.4°F-24.1°C 48% 5.8 mph SW9.3 kmh SW 8.4 mph13.5 kmh 29.21 in989.2 mb 0.00 in0.0 mm 0.00 in0.0 mm 0.00 in0.0 mm
09:44 PM 3.9°F-15.6°C -11.4°F-24.1°C 48% 6.0 mph SW9.7 kmh SW 8.4 mph13.5 kmh 29.21 in989.2 mb 0.00 in0.0 mm 0.00 in0.0 mm 0.00 in0.0 mm
09:43 PM 3.7°F-15.7°C -11.6°F-24.2°C 48% 5.6 mph SW9.0 kmh SW 8.4 mph13.5 kmh 29.21 in989.2 mb 0.00 in0.0 mm 0.00 in0.0 mm 0.00 in0.0 mm
09:42 PM 3.7°F-15.7°C -11.6°F-24.2°C 48% 5.1 mph SW8.2 kmh SW 8.4 mph13.5 kmh 29.21 in989.2 mb 0.00 in0.0 mm 0.00 in0.0 mm 0.00 in0.0 mm
09:41 PM 3.6°F-15.8°C -11.7°F-24.3°C 48% 5.3 mph SW8.5 kmh SW 8.4 mph13.5 kmh 29.21 in989.2 mb 0.00 in0.0 mm 0.00 in0.0 mm 0.00 in0.0 mm
09:40 PM 3.4°F-15.9°C -11.9°F-24.4°C 48% 5.8 mph SW9.3 kmh SW 8.4 mph13.5 kmh 29.21 in989.2 mb 0.00 in0.0 mm 0.00 in0.0 mm 0.00 in0.0 mm
09:39 PM 3.4°F-15.9°C -11.9°F-24.4°C 48% 5.9 mph SW9.5 kmh SW 8.4 mph13.5 kmh 29.21 in989.2 mb 0.00 in0.0 mm 0.00 in0.0 mm 0.00 in0.0 mm
09:38 PM 3.2°F-16.0°C -12.1°F-24.5°C 48% 5.9 mph SW9.5 kmh SW 7.8 mph12.6 kmh 29.21 in989.2 mb 0.00 in0.0 mm 0.00 in0.0 mm 0.00 in0.0 mm
09:37 PM 3.2°F-16.0°C -12.1°F-24.5°C 48% 6.0 mph SW9.7 kmh SW 7.8 mph12.6 kmh 29.21 in989.2 mb 0.00 in0.0 mm 0.00 in0.0 mm 0.00 in0.0 mm
09:36 PM 3.2°F-16.0°C -12.1°F-24.5°C 48% 6.2 mph SW10.0 kmh SW 7.8 mph12.6 kmh 29.21 in989.2 mb 0.00 in0.0 mm 0.00 in0.0 mm 0.00 in0.0 mm
09:35 PM 3.0°F-16.1°C -12.3°F-24.6°C 48% 6.1 mph SW9.8 kmh SW 7.8 mph12.6 kmh 29.21 in989.2 mb 0.00 in0.0 mm 0.00 in0.0 mm 0.00 in0.0 mm
09:34 PM 2.8°F-16.2°C -12.4°F-24.7°C 48% 5.3 mph SW8.5 kmh SW 7.8 mph12.6 kmh 29.21 in989.2 mb 0.00 in0.0 mm 0.00 in0.0 mm 0.00 in0.0 mm
09:33 PM 2.8°F-16.2°C -12.4°F-24.7°C 48% 4.8 mph SW7.7 kmh SW 7.8 mph12.6 kmh 29.21 in989.2 mb 0.00 in0.0 mm 0.00 in0.0 mm 0.00 in0.0 mm
09:32 PM 2.8°F-16.2°C -12.4°F-24.7°C 48% 4.9 mph SW7.9 kmh SW 7.8 mph12.6 kmh 29.21 in989.2 mb 0.00 in0.0 mm 0.00 in0.0 mm 0.00 in0.0 mm
09:31 PM 2.8°F-16.2°C -12.4°F-24.7°C 48% 5.3 mph SW8.5 kmh SW 7.8 mph12.6 kmh 29.21 in989.2 mb 0.00 in0.0 mm 0.00 in0.0 mm 0.00 in0.0 mm
09:30 PM 2.8°F-16.2°C -12.4°F-24.7°C 48% 5.4 mph SW8.7 kmh SW 7.8 mph12.6 kmh 29.21 in989.2 mb 0.00 in0.0 mm 0.00 in0.0 mm 0.00 in0.0 mm
09:29 PM 2.8°F-16.2°C -12.4°F-24.7°C 48% 5.1 mph SW8.2 kmh SW 7.8 mph12.6 kmh 29.21 in989.2 mb 0.00 in0.0 mm 0.00 in0.0 mm 0.00 in0.0 mm
09:28 PM 3.0°F-16.1°C -12.3°F-24.6°C 48% 5.2 mph SW8.4 kmh SW 7.8 mph12.6 kmh 29.21 in989.2 mb 0.00 in0.0 mm 0.00 in0.0 mm 0.00 in0.0 mm
09:27 PM 3.2°F-16.0°C -12.1°F-24.5°C 48% 5.3 mph SW8.5 kmh SW 7.8 mph12.6 kmh 29.21 in989.2 mb 0.00 in0.0 mm 0.00 in0.0 mm 0.00 in0.0 mm
09:26 PM 3.2°F-16.0°C -12.1°F-24.5°C 48% 5.6 mph SW9.0 kmh SW 7.8 mph12.6 kmh 29.21 in989.2 mb 0.00 in0.0 mm 0.00 in0.0 mm 0.00 in0.0 mm
09:25 PM 3.2°F-16.0°C -12.1°F-24.5°C 48% 5.5 mph SW8.9 kmh SW 7.8 mph12.6 kmh 29.21 in989.2 mb 0.00 in0.0 mm 0.00 in0.0 mm 0.00 in0.0 mm
09:24 PM 3.2°F-16.0°C -12.1°F-24.5°C 48% 5.2 mph SW8.4 kmh SW 7.8 mph12.6 kmh 29.21 in989.2 mb 0.00 in0.0 mm 0.00 in0.0 mm 0.00 in0.0 mm
09:23 PM 3.4°F-15.9°C -11.9°F-24.4°C 48% 4.7 mph SW7.6 kmh SW 7.8 mph12.6 kmh 29.23 in989.8 mb 0.00 in0.0 mm 0.00 in0.0 mm 0.00 in0.0 mm
09:22 PM 3.4°F-15.9°C -11.9°F-24.4°C 48% 5.1 mph SW8.2 kmh SW 7.1 mph11.4 kmh 29.23 in989.8 mb 0.00 in0.0 mm 0.00 in0.0 mm 0.00 in0.0 mm
09:21 PM 3.4°F-15.9°C -11.9°F-24.4°C 48% 5.2 mph SW8.4 kmh SW 7.1 mph11.4 kmh 29.23 in989.8 mb 0.00 in0.0 mm 0.00 in0.0 mm 0.00 in0.0 mm
09:20 PM 3.4°F-15.9°C -11.9°F-24.4°C 48% 5.1 mph SW8.2 kmh SW 7.1 mph11.4 kmh 29.23 in989.8 mb 0.00 in0.0 mm 0.00 in0.0 mm 0.00 in0.0 mm
09:19 PM 3.4°F-15.9°C -11.9°F-24.4°C 48% 4.8 mph SW7.7 kmh SW 7.1 mph11.4 kmh 29.23 in989.8 mb 0.00 in0.0 mm 0.00 in0.0 mm 0.00 in0.0 mm
09:18 PM 3.4°F-15.9°C -11.9°F-24.4°C 48% 4.5 mph SW7.2 kmh SW 7.1 mph11.4 kmh 29.23 in989.8 mb 0.00 in0.0 mm 0.00 in0.0 mm 0.00 in0.0 mm
09:17 PM 3.6°F-15.8°C -11.7°F-24.3°C 48% 4.5 mph SW7.2 kmh SW 5.8 mph9.3 kmh 29.23 in989.8 mb 0.00 in0.0 mm 0.00 in0.0 mm 0.00 in0.0 mm
09:16 PM 3.6°F-15.8°C -11.7°F-24.3°C 48% 4.7 mph SW7.6 kmh SW 5.8 mph9.3 kmh 29.23 in989.8 mb 0.00 in0.0 mm 0.00 in0.0 mm 0.00 in0.0 mm
09:15 PM 3.6°F-15.8°C -11.7°F-24.3°C 48% 4.5 mph SW7.2 kmh SW 5.8 mph9.3 kmh 29.23 in989.8 mb 0.00 in0.0 mm 0.00 in0.0 mm 0.00 in0.0 mm
09:14 PM 3.6°F-15.8°C -11.7°F-24.3°C 48% 4.3 mph SSW6.9 kmh SSW 6.5 mph10.5 kmh 29.23 in989.8 mb 0.00 in0.0 mm 0.00 in0.0 mm 0.00 in0.0 mm
09:13 PM 3.6°F-15.8°C -11.7°F-24.3°C 48% 4.5 mph SSW7.2 kmh SSW 6.5 mph10.5 kmh 29.23 in989.8 mb 0.00 in0.0 mm 0.00 in0.0 mm 0.00 in0.0 mm
09:11 PM 3.4°F-15.9°C -11.9°F-24.4°C 48% 4.4 mph SSW7.1 kmh SSW 6.5 mph10.5 kmh 29.23 in989.8 mb 0.00 in0.0 mm 0.00 in0.0 mm 0.00 in0.0 mm
09:10 PM 3.4°F-15.9°C -11.9°F-24.4°C 48% 4.3 mph SSW6.9 kmh SSW 6.5 mph10.5 kmh 29.23 in989.8 mb 0.00 in0.0 mm 0.00 in0.0 mm 0.00 in0.0 mm
09:09 PM 3.4°F-15.9°C -11.9°F-24.4°C 48% 4.3 mph SSW6.9 kmh SSW 6.5 mph10.5 kmh 29.23 in989.8 mb 0.00 in0.0 mm 0.00 in0.0 mm 0.00 in0.0 mm
09:08 PM 3.4°F-15.9°C -11.9°F-24.4°C 48% 4.4 mph SSW7.1 kmh SSW 6.5 mph10.5 kmh 29.23 in989.8 mb 0.00 in0.0 mm 0.00 in0.0 mm 0.00 in0.0 mm
09:07 PM 3.4°F-15.9°C -11.9°F-24.4°C 48% 4.7 mph SSW7.6 kmh SSW 7.8 mph12.6 kmh 29.23 in989.8 mb 0.00 in0.0 mm 0.00 in0.0 mm 0.00 in0.0 mm
09:06 PM 3.4°F-15.9°C -11.9°F-24.4°C 48% 4.8 mph SSW7.7 kmh SSW 7.8 mph12.6 kmh 29.23 in989.8 mb 0.00 in0.0 mm 0.00 in0.0 mm 0.00 in0.0 mm
09:05 PM 3.4°F-15.9°C -11.9°F-24.4°C 48% 4.6 mph SSW7.4 kmh SSW 7.8 mph12.6 kmh 29.23 in989.8 mb 0.00 in0.0 mm 0.00 in0.0 mm 0.00 in0.0 mm
09:04 PM 3.4°F-15.9°C -11.9°F-24.4°C 48% 4.5 mph SSW7.2 kmh SSW 7.8 mph12.6 kmh 29.23 in989.8 mb 0.00 in0.0 mm 0.00 in0.0 mm 0.00 in0.0 mm
09:03 PM 3.4°F-15.9°C -11.9°F-24.4°C 48% 4.3 mph SSW6.9 kmh SSW 7.8 mph12.6 kmh 29.23 in989.8 mb 0.00 in0.0 mm 0.00 in0.0 mm 0.00 in0.0 mm
09:02 PM 3.4°F-15.9°C -11.9°F-24.4°C 48% 4.1 mph SSW6.6 kmh SSW 7.8 mph12.6 kmh 29.23 in989.8 mb 0.00 in0.0 mm 0.00 in0.0 mm 0.00 in0.0 mm
09:01 PM 3.4°F-15.9°C -11.9°F-24.4°C 48% 4.4 mph SSW7.1 kmh SSW 7.8 mph12.6 kmh 29.23 in989.8 mb 0.00 in0.0 mm 0.00 in0.0 mm 0.00 in0.0 mm
09:00 PM 3.6°F-15.8°C -11.7°F-24.3°C 48% 4.7 mph SSW7.6 kmh SSW 7.8 mph12.6 kmh 29.23 in989.8 mb 0.00 in0.0 mm 0.00 in0.0 mm 0.00 in0.0 mm
08:59 PM 3.6°F-15.8°C -11.7°F-24.3°C 48% 5.4 mph SSW8.7 kmh SSW 7.8 mph12.6 kmh 29.23 in989.8 mb 0.00 in0.0 mm 0.00 in0.0 mm 0.00 in0.0 mm
08:58 PM 3.6°F-15.8°C -11.7°F-24.3°C 48% 5.2 mph SSW8.4 kmh SSW 7.8 mph12.6 kmh 29.23 in989.8 mb 0.00 in0.0 mm 0.00 in0.0 mm 0.00 in0.0 mm
08:57 PM 3.6°F-15.8°C -11.8°F-24.3°C 48% 4.4 mph SSW7.1 kmh SSW 7.8 mph12.6 kmh 29.23 in989.8 mb 0.00 in0.0 mm 0.00 in0.0 mm 0.00 in0.0 mm
08:56 PM 3.6°F-15.8°C -11.8°F-24.3°C 48% 4.5 mph SSW7.2 kmh SSW 5.8 mph9.3 kmh 29.23 in989.8 mb 0.00 in0.0 mm 0.00 in0.0 mm 0.00 in0.0 mm
08:55 PM 3.7°F-15.7°C -11.7°F-24.3°C 48% 4.4 mph SSW7.1 kmh SSW 5.8 mph9.3 kmh 29.23 in989.8 mb 0.00 in0.0 mm 0.00 in0.0 mm 0.00 in0.0 mm
08:54 PM 3.7°F-15.7°C -11.7°F-24.3°C 48% 4.3 mph SSW6.9 kmh SSW 5.8 mph9.3 kmh 29.23 in989.8 mb 0.00 in0.0 mm 0.00 in0.0 mm 0.00 in0.0 mm
08:53 PM 3.7°F-15.7°C -11.7°F-24.3°C 48% 4.4 mph SSW7.1 kmh SSW 5.8 mph9.3 kmh 29.23 in989.8 mb 0.00 in0.0 mm 0.00 in0.0 mm 0.00 in0.0 mm
08:52 PM 3.7°F-15.7°C -11.7°F-24.3°C 48% 4.6 mph SSW7.4 kmh SSW 5.8 mph9.3 kmh 29.23 in989.8 mb 0.00 in0.0 mm 0.00 in0.0 mm 0.00 in0.0 mm
08:51 PM 3.7°F-15.7°C -11.7°F-24.3°C 48% 4.6 mph SSW7.4 kmh SSW 5.8 mph9.3 kmh 29.23 in989.8 mb 0.00 in0.0 mm 0.00 in0.0 mm 0.00 in0.0 mm
08:50 PM 3.7°F-15.7°C -11.7°F-24.3°C 48% 3.9 mph SW6.3 kmh SW 5.8 mph9.3 kmh 29.23 in989.8 mb 0.00 in0.0 mm 0.00 in0.0 mm 0.00 in0.0 mm
08:49 PM 3.7°F-15.7°C -11.7°F-24.3°C 48% 3.8 mph SW6.1 kmh SW 7.1 mph11.4 kmh 29.23 in989.8 mb 0.00 in0.0 mm 0.00 in0.0 mm 0.00 in0.0 mm
08:48 PM 3.7°F-15.7°C -11.7°F-24.3°C 48% 4.0 mph SW6.4 kmh SW 7.1 mph11.4 kmh 29.23 in989.8 mb 0.00 in0.0 mm 0.00 in0.0 mm 0.00 in0.0 mm
08:47 PM 3.7°F-15.7°C -11.7°F-24.3°C 48% 3.9 mph SW6.3 kmh SW 7.1 mph11.4 kmh 29.23 in989.8 mb 0.00 in0.0 mm 0.00 in0.0 mm 0.00 in0.0 mm
08:46 PM 3.9°F-15.6°C -11.5°F-24.2°C 48% 3.9 mph SW6.3 kmh SW 7.1 mph11.4 kmh 29.23 in989.8 mb 0.00 in0.0 mm 0.00 in0.0 mm 0.00 in0.0 mm
08:45 PM 3.9°F-15.6°C -11.5°F-24.2°C 48% 4.1 mph SW6.6 kmh SW 7.1 mph11.4 kmh 29.23 in989.8 mb 0.00 in0.0 mm 0.00 in0.0 mm 0.00 in0.0 mm
08:44 PM 3.9°F-15.6°C -11.5°F-24.2°C 48% 4.3 mph SW6.9 kmh SW 7.1 mph11.4 kmh 29.23 in989.8 mb 0.00 in0.0 mm 0.00 in0.0 mm 0.00 in0.0 mm
08:43 PM 4.1°F-15.5°C -11.3°F-24.1°C 48% 4.4 mph SW7.1 kmh SW 7.1 mph11.4 kmh 29.23 in989.8 mb 0.00 in0.0 mm 0.00 in0.0 mm 0.00 in0.0 mm
08:42 PM 4.1°F-15.5°C -11.3°F-24.1°C 48% 4.7 mph SW7.6 kmh SW 7.1 mph11.4 kmh 29.23 in989.8 mb 0.00 in0.0 mm 0.00 in0.0 mm 0.00 in0.0 mm
08:41 PM 4.1°F-15.5°C -11.3°F-24.1°C 48% 5.1 mph SW8.2 kmh SW 7.1 mph11.4 kmh 29.23 in989.8 mb 0.00 in0.0 mm 0.00 in0.0 mm 0.00 in0.0 mm
08:40 PM 4.1°F-15.5°C -11.3°F-24.1°C 48% 5.2 mph SW8.4 kmh SW 7.1 mph11.4 kmh 29.23 in989.8 mb 0.00 in0.0 mm 0.00 in0.0 mm 0.00 in0.0 mm
08:39 PM 4.1°F-15.5°C -11.3°F-24.1°C 48% 5.1 mph SW8.2 kmh SW 7.1 mph11.4 kmh 29.23 in989.8 mb 0.00 in0.0 mm 0.00 in0.0 mm 0.00 in0.0 mm
08:38 PM 4.1°F-15.5°C -11.3°F-24.1°C 48% 4.8 mph SW7.7 kmh SW 7.1 mph11.4 kmh 29.23 in989.8 mb 0.00 in0.0 mm 0.00 in0.0 mm 0.00 in0.0 mm
08:37 PM 4.1°F-15.5°C -11.3°F-24.1°C 48% 4.4 mph SW7.1 kmh SW 7.1 mph11.4 kmh 29.23 in989.8 mb 0.00 in0.0 mm 0.00 in0.0 mm 0.00 in0.0 mm
08:36 PM 4.1°F-15.5°C -11.3°F-24.1°C 48% 4.3 mph SW6.9 kmh SW 7.1 mph11.4 kmh 29.23 in989.8 mb 0.00 in0.0 mm 0.00 in0.0 mm 0.00 in0.0 mm
08:35 PM 4.1°F-15.5°C -11.3°F-24.1°C 48% 4.5 mph SW7.2 kmh SW 7.1 mph11.4 kmh 29.23 in989.8 mb 0.00 in0.0 mm 0.00 in0.0 mm 0.00 in0.0 mm
08:34 PM 4.1°F-15.5°C -11.3°F-24.1°C 48% 5.0 mph SW8.0 kmh SW 7.1 mph11.4 kmh 29.23 in989.8 mb 0.00 in0.0 mm 0.00 in0.0 mm 0.00 in0.0 mm
08:33 PM 4.1°F-15.5°C -11.3°F-24.1°C 48% 5.0 mph SW8.0 kmh SW 7.1 mph11.4 kmh 29.23 in989.8 mb 0.00 in0.0 mm 0.00 in0.0 mm 0.00 in0.0 mm
08:32 PM 4.1°F-15.5°C -11.3°F-24.1°C 48% 4.6 mph SW7.4 kmh SW 5.8 mph9.3 kmh 29.23 in989.8 mb 0.00 in0.0 mm 0.00 in0.0 mm 0.00 in0.0 mm
08:31 PM 4.1°F-15.5°C -11.3°F-24.1°C 48% 4.6 mph SW7.4 kmh SW 8.4 mph13.5 kmh 29.23 in989.8 mb 0.00 in0.0 mm 0.00 in0.0 mm 0.00 in0.0 mm
08:30 PM 4.1°F-15.5°C -11.3°F-24.1°C 48% 4.6 mph SW7.4 kmh SW 8.4 mph13.5 kmh 29.23 in989.8 mb 0.00 in0.0 mm 0.00 in0.0 mm 0.00 in0.0 mm
08:29 PM 4.1°F-15.5°C -11.3°F-24.1°C 48% 4.5 mph SW7.2 kmh SW 8.4 mph13.5 kmh 29.23 in989.8 mb 0.00 in0.0 mm 0.00 in0.0 mm 0.00 in0.0 mm
08:28 PM 4.1°F-15.5°C -11.3°F-24.1°C 48% 4.4 mph SW7.1 kmh SW 8.4 mph13.5 kmh 29.23 in989.8 mb 0.00 in0.0 mm 0.00 in0.0 mm 0.00 in0.0 mm
08:27 PM 4.1°F-15.5°C -11.3°F-24.1°C 48% 4.3 mph SW6.9 kmh SW 8.4 mph13.5 kmh 29.23 in989.8 mb 0.00 in0.0 mm 0.00 in0.0 mm 0.00 in0.0 mm
08:26 PM 4.1°F-15.5°C -11.3°F-24.1°C 48% 4.7 mph SW7.6 kmh SW 8.4 mph13.5 kmh 29.23 in989.8 mb 0.00 in0.0 mm 0.00 in0.0 mm 0.00 in0.0 mm
08:25 PM 4.1°F-15.5°C -11.3°F-24.1°C 48% 4.9 mph SW7.9 kmh SW 8.4 mph13.5 kmh 29.23 in989.8 mb 0.00 in0.0 mm 0.00 in0.0 mm 0.00 in0.0 mm
08:24 PM 4.1°F-15.5°C -11.3°F-24.1°C 48% 5.1 mph SW8.2 kmh SW 8.4 mph13.5 kmh 29.23 in989.8 mb 0.00 in0.0 mm 0.00 in0.0 mm 0.00 in0.0 mm
08:23 PM 4.1°F-15.5°C -11.3°F-24.1°C 48% 5.2 mph SW8.4 kmh SW 8.4 mph13.5 kmh 29.23 in989.8 mb 0.00 in0.0 mm 0.00 in0.0 mm 0.00 in0.0 mm
08:22 PM 4.1°F-15.5°C -11.3°F-24.1°C 48% 5.3 mph SW8.5 kmh SW 8.4 mph13.5 kmh 29.23 in989.8 mb 0.00 in0.0 mm 0.00 in0.0 mm 0.00 in0.0 mm
08:21 PM 4.1°F-15.5°C -11.3°F-24.1°C 48% 5.2 mph SW8.4 kmh SW 5.8 mph9.3 kmh 29.23 in989.8 mb 0.00 in0.0 mm 0.00 in0.0 mm 0.00 in0.0 mm
08:20 PM 4.3°F-15.4°C -11.2°F-24.0°C 48% 5.1 mph SW8.2 kmh SW 5.8 mph9.3 kmh 29.23 in989.8 mb 0.00 in0.0 mm 0.00 in0.0 mm 0.00 in0.0 mm
08:19 PM 4.3°F-15.4°C -11.2°F-24.0°C 48% 4.9 mph SW7.9 kmh SW 5.8 mph9.3 kmh 29.23 in989.8 mb 0.00 in0.0 mm 0.00 in0.0 mm 0.00 in0.0 mm
08:18 PM 4.5°F-15.3°C -11.0°F-23.9°C 48% 4.8 mph SW7.7 kmh SW 5.8 mph9.3 kmh 29.23 in989.8 mb 0.00 in0.0 mm 0.00 in0.0 mm 0.00 in0.0 mm
08:17 PM 4.5°F-15.3°C -11.0°F-23.9°C 48% 4.3 mph SW6.9 kmh SW 5.8 mph9.3 kmh 29.23 in989.8 mb 0.00 in0.0 mm 0.00 in0.0 mm 0.00 in0.0 mm
08:16 PM 4.6°F-15.2°C -10.9°F-23.8°C 48% 4.0 mph SW6.4 kmh SW 5.8 mph9.3 kmh 29.23 in989.8 mb 0.00 in0.0 mm 0.00 in0.0 mm 0.00 in0.0 mm
08:15 PM 4.6°F-15.2°C -10.9°F-23.8°C 48% 4.1 mph SW6.6 kmh SW 5.8 mph9.3 kmh 29.23 in989.8 mb 0.00 in0.0 mm 0.00 in0.0 mm 0.00 in0.0 mm
08:14 PM 4.8°F-15.1°C -10.7°F-23.7°C 48% 4.1 mph SW6.6 kmh SW 5.8 mph9.3 kmh 29.23 in989.8 mb 0.00 in0.0 mm 0.00 in0.0 mm 0.00 in0.0 mm
08:13 PM 4.8°F-15.1°C -10.7°F-23.7°C 48% 3.9 mph SW6.3 kmh SW 5.8 mph9.3 kmh 29.23 in989.8 mb 0.00 in0.0 mm 0.00 in0.0 mm 0.00 in0.0 mm
08:12 PM 5.0°F-15.0°C -10.5°F-23.6°C 48% 4.0 mph SW6.4 kmh SW 5.8 mph9.3 kmh 29.23 in989.8 mb 0.00 in0.0 mm 0.00 in0.0 mm 0.00 in0.0 mm
08:11 PM 5.0°F-15.0°C -10.5°F-23.6°C 48% 4.0 mph SW6.4 kmh SW 5.8 mph9.3 kmh 29.23 in989.8 mb 0.00 in0.0 mm 0.00 in0.0 mm 0.00 in0.0 mm
08:10 PM 5.0°F-15.0°C -10.5°F-23.6°C 48% 4.1 mph SW6.6 kmh SW 5.8 mph9.3 kmh 29.23 in989.8 mb 0.00 in0.0 mm 0.00 in0.0 mm 0.00 in0.0 mm
08:09 PM 5.0°F-15.0°C -10.5°F-23.6°C 48% 4.0 mph SW6.4 kmh SW 5.8 mph9.3 kmh 29.23 in989.8 mb 0.00 in0.0 mm 0.00 in0.0 mm 0.00 in0.0 mm
08:08 PM 5.0°F-15.0°C -10.5°F-23.6°C 48% 3.5 mph SW5.6 kmh SW 5.8 mph9.3 kmh 29.23 in989.8 mb 0.00 in0.0 mm 0.00 in0.0 mm 0.00 in0.0 mm
08:07 PM 5.0°F-15.0°C -10.5°F-23.6°C 48% 3.3 mph SW5.3 kmh SW 5.8 mph9.3 kmh 29.23 in989.8 mb 0.00 in0.0 mm 0.00 in0.0 mm 0.00 in0.0 mm
08:06 PM 5.0°F-15.0°C -10.5°F-23.6°C 48% 3.9 mph SW6.3 kmh SW 5.8 mph9.3 kmh 29.23 in989.8 mb 0.00 in0.0 mm 0.00 in0.0 mm 0.00 in0.0 mm
08:05 PM 5.2°F-14.9°C -10.4°F-23.6°C 48% 3.9 mph SW6.3 kmh SW 5.8 mph9.3 kmh 29.23 in989.8 mb 0.00 in0.0 mm 0.00 in0.0 mm 0.00 in0.0 mm
08:04 PM 5.2°F-14.9°C -10.4°F-23.6°C 48% 3.7 mph SW6.0 kmh SW 5.8 mph9.3 kmh 29.23 in989.8 mb 0.00 in0.0 mm 0.00 in0.0 mm 0.00 in0.0 mm
08:03 PM 5.2°F-14.9°C -10.4°F-23.6°C 48% 3.7 mph SW6.0 kmh SW 5.2 mph8.4 kmh 29.23 in989.8 mb 0.00 in0.0 mm 0.00 in0.0 mm 0.00 in0.0 mm
08:02 PM 5.2°F-14.9°C -10.4°F-23.6°C 48% Calm Calm 5.2 mph8.4 kmh 29.23 in989.8 mb 0.00 in0.0 mm 0.00 in0.0 mm 0.00 in0.0 mm
08:01 PM 5.4°F-14.8°C -10.2°F-23.4°C 48% 3.0 mph W4.8 kmh W 5.2 mph8.4 kmh 29.23 in989.8 mb 0.00 in0.0 mm 0.00 in0.0 mm 0.00 in0.0 mm
08:00 PM 5.4°F-14.8°C -10.2°F-23.4°C 48% 3.0 mph W4.8 kmh W 5.2 mph8.4 kmh 29.23 in989.8 mb 0.00 in0.0 mm 0.00 in0.0 mm 0.00 in0.0 mm
07:59 PM 5.4°F-14.8°C -10.2°F-23.4°C 48% 3.0 mph W4.8 kmh W 5.2 mph8.4 kmh 29.23 in989.8 mb 0.00 in0.0 mm 0.00 in0.0 mm 0.00 in0.0 mm
07:58 PM 5.4°F-14.8°C -10.2°F-23.4°C 48% 3.0 mph W4.8 kmh W 5.2 mph8.4 kmh 29.23 in989.8 mb 0.00 in0.0 mm 0.00 in0.0 mm 0.00 in0.0 mm
07:57 PM 5.4°F-14.8°C -10.2°F-23.4°C 48% 3.0 mph W4.8 kmh W 5.2 mph8.4 kmh 29.23 in989.8 mb 0.00 in0.0 mm 0.00 in0.0 mm 0.00 in0.0 mm
07:56 PM 5.4°F-14.8°C -10.2°F-23.4°C 48% 3.0 mph W4.8 kmh W 5.2 mph8.4 kmh 29.23 in989.8 mb 0.00 in0.0 mm 0.00 in0.0 mm 0.00 in0.0 mm
07:55 PM 5.5°F-14.7°C -10.1°F-23.4°C 48% 3.0 mph W4.8 kmh W 4.5 mph7.2 kmh 29.23 in989.8 mb 0.00 in0.0 mm 0.00 in0.0 mm 0.00 in0.0 mm
07:54 PM 5.5°F-14.7°C -10.1°F-23.4°C 48% Calm Calm 4.5 mph7.2 kmh 29.23 in989.8 mb 0.00 in0.0 mm 0.00 in0.0 mm 0.00 in0.0 mm
07:53 PM 5.5°F-14.7°C -10.1°F-23.4°C 48% Calm Calm 3.9 mph6.3 kmh 29.23 in989.8 mb 0.00 in0.0 mm 0.00 in0.0 mm 0.00 in0.0 mm
07:52 PM 5.5°F-14.7°C -10.1°F-23.4°C 48% Calm Calm 4.5 mph7.2 kmh 29.23 in989.8 mb 0.00 in0.0 mm 0.00 in0.0 mm 0.00 in0.0 mm
07:51 PM 5.5°F-14.7°C -10.1°F-23.4°C 48% Calm Calm 4.5 mph7.2 kmh 29.23 in989.8 mb 0.00 in0.0 mm 0.00 in0.0 mm 0.00 in0.0 mm
07:50 PM 5.7°F-14.6°C -9.9°F-23.3°C 48% Calm Calm 5.2 mph8.4 kmh 29.23 in989.8 mb 0.00 in0.0 mm 0.00 in0.0 mm 0.00 in0.0 mm
07:49 PM 5.9°F-14.5°C -9.7°F-23.2°C 48% Calm Calm 5.2 mph8.4 kmh 29.23 in989.8 mb 0.00 in0.0 mm 0.00 in0.0 mm 0.00 in0.0 mm
07:48 PM 5.9°F-14.5°C -9.7°F-23.2°C 48% Calm Calm 5.2 mph8.4 kmh 29.23 in989.8 mb 0.00 in0.0 mm 0.00 in0.0 mm 0.00 in0.0 mm
07:47 PM 5.9°F-14.5°C -9.7°F-23.2°C 48% Calm Calm 5.2 mph8.4 kmh 29.23 in989.8 mb 0.00 in0.0 mm 0.00 in0.0 mm 0.00 in0.0 mm
07:46 PM 5.9°F-14.5°C -9.7°F-23.2°C 48% 3.0 mph W4.8 kmh W 5.2 mph8.4 kmh 29.23 in989.8 mb 0.00 in0.0 mm 0.00 in0.0 mm 0.00 in0.0 mm
07:45 PM 6.1°F-14.4°C -9.6°F-23.1°C 48% 3.1 mph W5.0 kmh W 5.2 mph8.4 kmh 29.23 in989.8 mb 0.00 in0.0 mm 0.00 in0.0 mm 0.00 in0.0 mm
07:44 PM 6.1°F-14.4°C -9.6°F-23.1°C 48% 3.6 mph W5.8 kmh W 5.2 mph8.4 kmh 29.23 in989.8 mb 0.00 in0.0 mm 0.00 in0.0 mm 0.00 in0.0 mm
07:43 PM 6.1°F-14.4°C -9.6°F-23.1°C 48% 3.7 mph W6.0 kmh W 5.2 mph8.4 kmh 29.23 in989.8 mb 0.00 in0.0 mm 0.00 in0.0 mm 0.00 in0.0 mm
07:42 PM 6.1°F-14.4°C -9.6°F-23.1°C 48% 3.7 mph W6.0 kmh W 5.2 mph8.4 kmh 29.23 in989.8 mb 0.00 in0.0 mm 0.00 in0.0 mm 0.00 in0.0 mm
07:41 PM 6.1°F-14.4°C -9.6°F-23.1°C 48% 3.6 mph W5.8 kmh W 5.2 mph8.4 kmh 29.23 in989.8 mb 0.00 in0.0 mm 0.00 in0.0 mm 0.00 in0.0 mm
07:40 PM 6.1°F-14.4°C -9.6°F-23.1°C 48% 3.3 mph W5.3 kmh W 5.2 mph8.4 kmh 29.23 in989.8 mb 0.00 in0.0 mm 0.00 in0.0 mm 0.00 in0.0 mm
07:39 PM 6.1°F-14.4°C -9.6°F-23.1°C 48% 3.0 mph W4.8 kmh W 5.2 mph8.4 kmh 29.23 in989.8 mb 0.00 in0.0 mm 0.00 in0.0 mm 0.00 in0.0 mm
07:37 PM 6.1°F-14.4°C -9.6°F-23.1°C 48% Calm Calm 5.2 mph8.4 kmh 29.23 in989.8 mb 0.00 in0.0 mm 0.00 in0.0 mm 0.00 in0.0 mm
07:36 PM 6.1°F-14.4°C -9.6°F-23.1°C 48% Calm Calm 3.9 mph6.3 kmh 29.23 in989.8 mb 0.00 in0.0 mm 0.00 in0.0 mm 0.00 in0.0 mm
07:35 PM 6.1°F-14.4°C -9.6°F-23.1°C 48% Calm Calm 3.9 mph6.3 kmh 29.23 in989.8 mb 0.00 in0.0 mm 0.00 in0.0 mm 0.00 in0.0 mm
07:34 PM 6.1°F-14.4°C -9.6°F-23.1°C 48% Calm Calm 3.9 mph6.3 kmh 29.23 in989.8 mb 0.00 in0.0 mm 0.00 in0.0 mm 0.00 in0.0 mm
07:33 PM 6.1°F-14.4°C -9.6°F-23.1°C 48% Calm Calm 3.9 mph6.3 kmh 29.23 in989.8 mb 0.00 in0.0 mm 0.00 in0.0 mm 0.00 in0.0 mm
07:32 PM 6.1°F-14.4°C -9.6°F-23.1°C 48% Calm Calm 3.2 mph5.1 kmh 29.23 in989.8 mb 0.00 in0.0 mm 0.00 in0.0 mm 0.00 in0.0 mm
07:31 PM 6.1°F-14.4°C -9.6°F-23.1°C 48% Calm Calm 3.2 mph5.1 kmh 29.23 in989.8 mb 0.00 in0.0 mm 0.00 in0.0 mm 0.00 in0.0 mm
07:30 PM 6.1°F-14.4°C -9.6°F-23.1°C 48% Calm Calm 3.2 mph5.1 kmh 29.23 in989.8 mb 0.00 in0.0 mm 0.00 in0.0 mm 0.00 in0.0 mm
07:29 PM 6.1°F-14.4°C -9.6°F-23.1°C 48% Calm Calm 3.2 mph5.1 kmh 29.23 in989.8 mb 0.00 in0.0 mm 0.00 in0.0 mm 0.00 in0.0 mm
07:28 PM 6.1°F-14.4°C -9.6°F-23.1°C 48% Calm Calm 3.2 mph5.1 kmh 29.23 in989.8 mb 0.00 in0.0 mm 0.00 in0.0 mm 0.00 in0.0 mm
07:26 PM 6.3°F-14.3°C -9.4°F-23.0°C 48% Calm Calm -- 29.23 in989.8 mb 0.00 in0.0 mm 0.00 in0.0 mm 0.00 in0.0 mm
07:25 PM 6.3°F-14.3°C -9.4°F-23.0°C 48% Calm Calm -- 29.23 in989.8 mb 0.00 in0.0 mm 0.00 in0.0 mm 0.00 in0.0 mm
07:24 PM 6.3°F-14.3°C -9.4°F-23.0°C 48% Calm Calm -- 29.23 in989.8 mb 0.00 in0.0 mm 0.00 in0.0 mm 0.00 in0.0 mm
07:23 PM 6.3°F-14.3°C -9.4°F-23.0°C 48% Calm Calm -- 29.23 in989.8 mb 0.00 in0.0 mm 0.00 in0.0 mm 0.00 in0.0 mm
07:22 PM 6.3°F-14.3°C -9.4°F-23.0°C 48% Calm Calm -- 29.23 in989.8 mb 0.00 in0.0 mm 0.00 in0.0 mm 0.00 in0.0 mm
07:21 PM 6.3°F-14.3°C -9.4°F-23.0°C 48% Calm Calm -- 29.23 in989.8 mb 0.00 in0.0 mm 0.00 in0.0 mm 0.00 in0.0 mm
07:20 PM 6.3°F-14.3°C -9.4°F-23.0°C 48% Calm Calm -- 29.23 in989.8 mb 0.00 in0.0 mm 0.00 in0.0 mm 0.00 in0.0 mm
07:19 PM 6.3°F-14.3°C -9.4°F-23.0°C 48% Calm Calm -- 29.23 in989.8 mb 0.00 in0.0 mm 0.00 in0.0 mm 0.00 in0.0 mm
07:18 PM 6.4°F-14.2°C -9.3°F-22.9°C 48% Calm Calm -- 29.23 in989.8 mb 0.00 in0.0 mm 0.00 in0.0 mm 0.00 in0.0 mm
07:17 PM 6.4°F-14.2°C -9.3°F-22.9°C 48% Calm Calm -- 29.23 in989.8 mb 0.00 in0.0 mm 0.00 in0.0 mm 0.00 in0.0 mm
07:16 PM 6.4°F-14.2°C -9.3°F-22.9°C 48% Calm Calm -- 29.23 in989.8 mb 0.00 in0.0 mm 0.00 in0.0 mm 0.00 in0.0 mm
07:15 PM 6.4°F-14.2°C -9.3°F-22.9°C 48% Calm Calm -- 29.23 in989.8 mb 0.00 in0.0 mm 0.00 in0.0 mm 0.00 in0.0 mm
07:14 PM 6.4°F-14.2°C -9.3°F-22.9°C 48% Calm Calm -- 29.23 in989.8 mb 0.00 in0.0 mm 0.00 in0.0 mm 0.00 in0.0 mm
07:13 PM 6.4°F-14.2°C -9.3°F-22.9°C 48% Calm Calm -- 29.23 in989.8 mb 0.00 in0.0 mm 0.00 in0.0 mm 0.00 in0.0 mm
07:12 PM 6.4°F-14.2°C -9.3°F-22.9°C 48% Calm Calm -- 29.23 in989.8 mb 0.00 in0.0 mm 0.00 in0.0 mm 0.00 in0.0 mm
07:11 PM 6.4°F-14.2°C -9.3°F-22.9°C 48% Calm Calm -- 29.23 in989.8 mb 0.00 in0.0 mm 0.00 in0.0 mm 0.00 in0.0 mm
07:10 PM 6.4°F-14.2°C -9.4°F-23.0°C 48% Calm Calm -- 29.23 in989.8 mb 0.00 in0.0 mm 0.00 in0.0 mm 0.00 in0.0 mm
07:09 PM 6.4°F-14.2°C -9.4°F-23.0°C 48% Calm Calm -- 29.23 in989.8 mb 0.00 in0.0 mm 0.00 in0.0 mm 0.00 in0.0 mm
07:08 PM 6.4°F-14.2°C -9.4°F-23.0°C 48% Calm Calm -- 29.23 in989.8 mb 0.00 in0.0 mm 0.00 in0.0 mm 0.00 in0.0 mm
07:07 PM 6.4°F-14.2°C -9.4°F-23.0°C 48% Calm Calm -- 29.23 in989.8 mb 0.00 in0.0 mm 0.00 in0.0 mm 0.00 in0.0 mm
07:06 PM 6.4°F-14.2°C -9.4°F-23.0°C 48% Calm Calm -- 29.23 in989.8 mb 0.00 in0.0 mm 0.00 in0.0 mm 0.00 in0.0 mm
07:05 PM 6.6°F-14.1°C -9.2°F-22.9°C 48% Calm Calm -- 29.23 in989.8 mb 0.00 in0.0 mm 0.00 in0.0 mm 0.00 in0.0 mm
07:04 PM 6.6°F-14.1°C -9.2°F-22.9°C 48% Calm Calm -- 29.23 in989.8 mb 0.00 in0.0 mm 0.00 in0.0 mm 0.00 in0.0 mm
07:03 PM 6.6°F-14.1°C -9.2°F-22.9°C 48% Calm Calm -- 29.23 in989.8 mb 0.00 in0.0 mm 0.00 in0.0 mm 0.00 in0.0 mm
07:02 PM 6.8°F-14.0°C -9.0°F-22.8°C 48% Calm Calm -- 29.23 in989.8 mb 0.00 in0.0 mm 0.00 in0.0 mm 0.00 in0.0 mm
07:01 PM 6.8°F-14.0°C -9.0°F-22.8°C 48% Calm Calm -- 29.23 in989.8 mb 0.00 in0.0 mm 0.00 in0.0 mm 0.00 in0.0 mm
07:00 PM 6.8°F-14.0°C -9.0°F-22.8°C 48% Calm Calm -- 29.23 in989.8 mb 0.00 in0.0 mm 0.00 in0.0 mm 0.00 in0.0 mm
06:59 PM 7.0°F-13.9°C -8.8°F-22.7°C 48% Calm Calm -- 29.23 in989.8 mb 0.00 in0.0 mm 0.00 in0.0 mm 0.00 in0.0 mm
06:58 PM 7.0°F-13.9°C -8.8°F-22.7°C 48% Calm Calm -- 29.23 in989.8 mb 0.00 in0.0 mm 0.00 in0.0 mm 0.00 in0.0 mm
06:57 PM 7.2°F-13.8°C -8.6°F-22.6°C 48% Calm Calm -- 29.23 in989.8 mb 0.00 in0.0 mm 0.00 in0.0 mm 0.00 in0.0 mm
06:56 PM 7.2°F-13.8°C -8.6°F-22.6°C 48% Calm Calm -- 29.23 in989.8 mb 0.00 in0.0 mm 0.00 in0.0 mm 0.00 in0.0 mm
06:55 PM 7.2°F-13.8°C -8.6°F-22.6°C 48% Calm Calm -- 29.23 in989.8 mb 0.00 in0.0 mm 0.00 in0.0 mm 0.00 in0.0 mm
06:54 PM 7.5°F-13.6°C -8.4°F-22.4°C 48% Calm Calm -- 29.23 in989.8 mb 0.00 in0.0 mm 0.00 in0.0 mm 0.00 in0.0 mm
06:53 PM 7.5°F-13.6°C -8.4°F-22.4°C 48% Calm Calm -- 29.23 in989.8 mb 0.00 in0.0 mm 0.00 in0.0 mm 0.00 in0.0 mm
06:52 PM 7.5°F-13.6°C -8.4°F-22.4°C 48% Calm Calm -- 29.23 in989.8 mb 0.00 in0.0 mm 0.00 in0.0 mm 0.00 in0.0 mm
06:51 PM 7.7°F-13.5°C -8.2°F-22.3°C 48% Calm Calm -- 29.23 in989.8 mb 0.00 in0.0 mm 0.00 in0.0 mm 0.00 in0.0 mm
06:50 PM 7.7°F-13.5°C -8.2°F-22.3°C 48% Calm Calm -- 29.23 in989.8 mb 0.00 in0.0 mm 0.00 in0.0 mm 0.00 in0.0 mm
06:49 PM 7.7°F-13.5°C -8.2°F-22.3°C 48% Calm Calm -- 29.23 in989.8 mb 0.00 in0.0 mm 0.00 in0.0 mm 0.00 in0.0 mm
06:48 PM 7.9°F-13.4°C -8.0°F-22.2°C 48% Calm Calm 3.0 mph4.8 kmh 29.23 in989.8 mb 0.00 in0.0 mm 0.00 in0.0 mm 0.00 in0.0 mm
06:47 PM 7.9°F-13.4°C -8.0°F-22.2°C 48% Calm Calm 3.9 mph6.3 kmh 29.23 in989.8 mb 0.00 in0.0 mm 0.00 in0.0 mm 0.00 in0.0 mm
06:46 PM 7.9°F-13.4°C -8.0°F-22.2°C 48% Calm Calm 3.9 mph6.3 kmh 29.23 in989.8 mb 0.00 in0.0 mm 0.00 in0.0 mm 0.00 in0.0 mm
06:45 PM 8.1°F-13.3°C -7.8°F-22.1°C 48% Calm Calm 4.5 mph7.2 kmh 29.23 in989.8 mb 0.00 in0.0 mm 0.00 in0.0 mm 0.00 in0.0 mm
06:44 PM 8.1°F-13.3°C -7.8°F-22.1°C 48% Calm Calm 4.5 mph7.2 kmh 29.23 in989.8 mb 0.00 in0.0 mm 0.00 in0.0 mm 0.00 in0.0 mm
06:43 PM 8.2°F-13.2°C -7.7°F-22.1°C 48% Calm Calm 4.5 mph7.2 kmh 29.23 in989.8 mb 0.00 in0.0 mm 0.00 in0.0 mm 0.00 in0.0 mm
06:42 PM 8.4°F-13.1°C -7.6°F-22.0°C 48% Calm Calm 4.5 mph7.2 kmh 29.23 in989.8 mb 0.00 in0.0 mm 0.00 in0.0 mm 0.00 in0.0 mm
06:41 PM 8.4°F-13.1°C -7.6°F-22.0°C 48% Calm Calm 4.5 mph7.2 kmh 29.23 in989.8 mb 0.00 in0.0 mm 0.00 in0.0 mm 0.00 in0.0 mm
06:40 PM 8.6°F-13.0°C -7.4°F-21.9°C 48% 3.0 mph W4.8 kmh W 4.5 mph7.2 kmh 29.23 in989.8 mb 0.00 in0.0 mm 0.00 in0.0 mm 0.00 in0.0 mm
06:39 PM 8.6°F-13.0°C -7.4°F-21.9°C 48% 3.3 mph W5.3 kmh W 4.5 mph7.2 kmh 29.23 in989.8 mb 0.00 in0.0 mm 0.00 in0.0 mm 0.00 in0.0 mm
06:38 PM 8.8°F-12.9°C -7.2°F-21.8°C 48% 3.5 mph W5.6 kmh W 4.5 mph7.2 kmh 29.23 in989.8 mb 0.00 in0.0 mm 0.00 in0.0 mm 0.00 in0.0 mm
06:37 PM 8.8°F-12.9°C -7.2°F-21.8°C 48% 3.7 mph W6.0 kmh W 4.5 mph7.2 kmh 29.23 in989.8 mb 0.00 in0.0 mm 0.00 in0.0 mm 0.00 in0.0 mm
06:36 PM 9.0°F-12.8°C -7.0°F-21.7°C 48% Calm Calm 4.5 mph7.2 kmh 29.23 in989.8 mb 0.00 in0.0 mm 0.00 in0.0 mm 0.00 in0.0 mm
06:35 PM 9.0°F-12.8°C -7.0°F-21.7°C 48% Calm Calm -- 29.23 in989.8 mb 0.00 in0.0 mm 0.00 in0.0 mm 0.00 in0.0 mm
06:34 PM 9.1°F-12.7°C -6.9°F-21.6°C 48% Calm Calm -- 29.23 in989.8 mb 0.00 in0.0 mm 0.00 in0.0 mm 0.00 in0.0 mm
06:33 PM 9.3°F-12.6°C -6.8°F-21.6°C 48% Calm Calm -- 29.23 in989.8 mb 0.00 in0.0 mm 0.00 in0.0 mm 0.00 in0.0 mm
06:32 PM 9.3°F-12.6°C -6.8°F-21.6°C 48% Calm Calm -- 29.23 in989.8 mb 0.00 in0.0 mm 0.00 in0.0 mm 0.00 in0.0 mm
06:31 PM 9.3°F-12.6°C -6.8°F-21.6°C 48% Calm Calm -- 29.23 in989.8 mb 0.00 in0.0 mm 0.00 in0.0 mm 0.00 in0.0 mm
06:30 PM 9.5°F-12.5°C -6.6°F-21.4°C 48% Calm Calm -- 29.23 in989.8 mb 0.00 in0.0 mm 0.00 in0.0 mm 0.00 in0.0 mm
06:29 PM 9.5°F-12.5°C -6.6°F-21.4°C 48% Calm Calm -- 29.23 in989.8 mb 0.00 in0.0 mm 0.00 in0.0 mm 0.00 in0.0 mm
06:28 PM 9.7°F-12.4°C -6.4°F-21.3°C 48% Calm Calm -- 29.23 in989.8 mb 0.00 in0.0 mm 0.00 in0.0 mm 0.00 in0.0 mm
06:27 PM 9.9°F-12.3°C -6.2°F-21.2°C 48% Calm Calm -- 29.23 in989.8 mb 0.00 in0.0 mm 0.00 in0.0 mm 0.00 in0.0 mm
06:26 PM 9.9°F-12.3°C -6.2°F-21.2°C 48% Calm Calm -- 29.23 in989.8 mb 0.00 in0.0 mm 0.00 in0.0 mm 0.00 in0.0 mm
06:25 PM 10.0°F-12.2°C -6.1°F-21.2°C 47% Calm Calm -- 29.23 in989.8 mb 0.00 in0.0 mm 0.00 in0.0 mm 0.00 in0.0 mm
06:24 PM 10.2°F-12.1°C -5.9°F-21.1°C 47% Calm Calm -- 29.23 in989.8 mb 0.00 in0.0 mm 0.00 in0.0 mm 0.00 in0.0 mm
06:23 PM 10.2°F-12.1°C -5.9°F-21.1°C 47% Calm Calm -- 29.23 in989.8 mb 0.00 in0.0 mm 0.00 in0.0 mm 0.00 in0.0 mm
06:22 PM 10.2°F-12.1°C -5.9°F-21.1°C 47% Calm Calm -- 29.23 in989.8 mb 0.00 in0.0 mm 0.00 in0.0 mm 0.00 in0.0 mm
06:21 PM 10.4°F-12.0°C -5.8°F-21.0°C 47% Calm Calm -- 29.23 in989.8 mb 0.00 in0.0 mm 0.00 in0.0 mm 0.00 in0.0 mm
06:20 PM 10.4°F-12.0°C -5.8°F-21.0°C 47% Calm Calm -- 29.23 in989.8 mb 0.00 in0.0 mm 0.00 in0.0 mm 0.00 in0.0 mm
06:19 PM 10.6°F-11.9°C -5.6°F-20.9°C 47% Calm Calm -- 29.23 in989.8 mb 0.00 in0.0 mm 0.00 in0.0 mm 0.00 in0.0 mm
06:18 PM 10.8°F-11.8°C -5.4°F-20.8°C 47% Calm Calm -- 29.23 in989.8 mb 0.00 in0.0 mm 0.00 in0.0 mm 0.00 in0.0 mm
06:17 PM 10.8°F-11.8°C -5.4°F-20.8°C 47% Calm Calm -- 29.23 in989.8 mb 0.00 in0.0 mm 0.00 in0.0 mm 0.00 in0.0 mm
06:16 PM 10.9°F-11.7°C -5.3°F-20.7°C 47% Calm Calm -- 29.23 in989.8 mb 0.00 in0.0 mm 0.00 in0.0 mm 0.00 in0.0 mm
06:15 PM 10.9°F-11.7°C -5.3°F-20.7°C 47% Calm Calm -- 29.23 in989.8 mb 0.00 in0.0 mm 0.00 in0.0 mm 0.00 in0.0 mm
06:14 PM 10.9°F-11.7°C -5.3°F-20.7°C 47% Calm Calm -- 29.23 in989.8 mb 0.00 in0.0 mm 0.00 in0.0 mm 0.00 in0.0 mm
06:13 PM 11.1°F-11.6°C -5.1°F-20.6°C 47% Calm Calm -- 29.23 in989.8 mb 0.00 in0.0 mm 0.00 in0.0 mm 0.00 in0.0 mm
06:12 PM 11.1°F-11.6°C -5.1°F-20.6°C 47% Calm Calm -- 29.23 in989.8 mb 0.00 in0.0 mm 0.00 in0.0 mm 0.00 in0.0 mm
06:11 PM 11.3°F-11.5°C -5.0°F-20.6°C 47% Calm Calm -- 29.23 in989.8 mb 0.00 in0.0 mm 0.00 in0.0 mm 0.00 in0.0 mm
06:10 PM 11.3°F-11.5°C -5.0°F-20.6°C 47% Calm Calm -- 29.23 in989.8 mb 0.00 in0.0 mm 0.00 in0.0 mm 0.00 in0.0 mm
06:09 PM 11.7°F-11.3°C -4.6°F-20.3°C 47% Calm Calm -- 29.23 in989.8 mb 0.00 in0.0 mm 0.00 in0.0 mm 0.00 in0.0 mm
06:08 PM 11.7°F-11.3°C -4.6°F-20.3°C 47% Calm Calm -- 29.23 in989.8 mb 0.00 in0.0 mm 0.00 in0.0 mm 0.00 in0.0 mm
06:07 PM 11.8°F-11.2°C -4.5°F-20.3°C 47% Calm Calm -- 29.23 in989.8 mb 0.00 in0.0 mm 0.00 in0.0 mm 0.00 in0.0 mm
06:06 PM 11.8°F-11.2°C -4.5°F-20.3°C 47% Calm Calm -- 29.23 in989.8 mb 0.00 in0.0 mm 0.00 in0.0 mm 0.00 in0.0 mm
06:05 PM 12.0°F-11.1°C -4.3°F-20.2°C 47% Calm Calm -- 29.23 in989.8 mb 0.00 in0.0 mm 0.00 in0.0 mm 0.00 in0.0 mm
06:04 PM 12.2°F-11.0°C -4.1°F-20.1°C 47% Calm Calm -- 29.23 in989.8 mb 0.00 in0.0 mm 0.00 in0.0 mm 0.00 in0.0 mm
06:03 PM 12.2°F-11.0°C -4.1°F-20.1°C 47% Calm Calm -- 29.23 in989.8 mb 0.00 in0.0 mm 0.00 in0.0 mm 0.00 in0.0 mm
06:02 PM 12.4°F-10.9°C -4.0°F-20.0°C 47% Calm Calm -- 29.23 in989.8 mb 0.00 in0.0 mm 0.00 in0.0 mm 0.00 in0.0 mm
06:01 PM 12.6°F-10.8°C -3.8°F-19.9°C 47% Calm Calm -- 29.23 in989.8 mb 0.00 in0.0 mm 0.00 in0.0 mm 0.00 in0.0 mm
06:00 PM 12.6°F-10.8°C -3.8°F-19.9°C 47% Calm Calm -- 29.23 in989.8 mb 0.00 in0.0 mm 0.00 in0.0 mm 0.00 in0.0 mm
05:59 PM 12.7°F-10.7°C -3.7°F-19.8°C 47% Calm Calm -- 29.23 in989.8 mb 0.00 in0.0 mm 0.00 in0.0 mm 0.00 in0.0 mm
05:58 PM 12.9°F-10.6°C -3.5°F-19.7°C 47% Calm Calm -- 29.23 in989.8 mb 0.00 in0.0 mm 0.00 in0.0 mm 0.00 in0.0 mm
05:57 PM 12.9°F-10.6°C -3.5°F-19.7°C 47% Calm Calm -- 29.23 in989.8 mb 0.00 in0.0 mm 0.00 in0.0 mm 0.00 in0.0 mm
05:56 PM 13.3°F-10.4°C -3.2°F-19.6°C 47% Calm Calm -- 29.23 in989.8 mb 0.00 in0.0 mm 0.00 in0.0 mm 0.00 in0.0 mm
05:55 PM 13.3°F-10.4°C -3.2°F-19.6°C 47% Calm Calm -- 29.23 in989.8 mb 0.00 in0.0 mm 0.00 in0.0 mm 0.00 in0.0 mm
05:54 PM 13.5°F-10.3°C -3.0°F-19.4°C 47% Calm Calm -- 29.23 in989.8 mb 0.00 in0.0 mm 0.00 in0.0 mm 0.00 in0.0 mm
05:53 PM 13.6°F-10.2°C -2.9°F-19.4°C 47% Calm Calm 3.2 mph5.1 kmh 29.23 in989.8 mb 0.00 in0.0 mm 0.00 in0.0 mm 0.00 in0.0 mm
05:52 PM 13.8°F-10.1°C -2.7°F-19.3°C 47% Calm Calm 3.2 mph5.1 kmh 29.23 in989.8 mb 0.00 in0.0 mm 0.00 in0.0 mm 0.00 in0.0 mm
05:51 PM 13.8°F-10.1°C -2.7°F-19.3°C 47% Calm Calm 3.9 mph6.3 kmh 29.23 in989.8 mb 0.00 in0.0 mm 0.00 in0.0 mm 0.00 in0.0 mm
05:50 PM 14.2°F-9.9°C -2.3°F-19.1°C 47% Calm Calm 3.9 mph6.3 kmh 29.23 in989.8 mb 0.00 in0.0 mm 0.00 in0.0 mm 0.00 in0.0 mm
05:49 PM 14.2°F-9.9°C -2.3°F-19.1°C 47% Calm Calm 3.9 mph6.3 kmh 29.23 in989.8 mb 0.00 in0.0 mm 0.00 in0.0 mm 0.00 in0.0 mm
05:48 PM 14.4°F-9.8°C -2.2°F-19.0°C 47% Calm Calm 3.9 mph6.3 kmh 29.23 in989.8 mb 0.00 in0.0 mm 0.00 in0.0 mm 0.00 in0.0 mm
05:47 PM 14.5°F-9.7°C -2.1°F-18.9°C 47% Calm Calm 3.9 mph6.3 kmh 29.23 in989.8 mb 0.00 in0.0 mm 0.00 in0.0 mm 0.00 in0.0 mm
05:46 PM 14.5°F-9.7°C -2.1°F-18.9°C 47% Calm Calm 3.9 mph6.3 kmh 29.23 in989.8 mb 0.00 in0.0 mm 0.00 in0.0 mm 0.00 in0.0 mm
05:45 PM 14.9°F-9.5°C -1.7°F-18.7°C 47% Calm Calm 3.9 mph6.3 kmh 29.23 in989.8 mb 0.00 in0.0 mm 0.00 in0.0 mm 0.00 in0.0 mm
05:44 PM 14.9°F-9.5°C -1.7°F-18.7°C 47% Calm Calm 3.9 mph6.3 kmh 29.23 in989.8 mb 0.00 in0.0 mm 0.00 in0.0 mm 0.00 in0.0 mm
05:43 PM 15.1°F-9.4°C -1.0°F-18.3°C 48% Calm Calm 3.9 mph6.3 kmh 29.23 in989.8 mb 0.00 in0.0 mm 0.00 in0.0 mm 0.00 in0.0 mm
05:42 PM 15.3°F-9.3°C -0.8°F-18.2°C 48% Calm Calm 4.9 mph7.9 kmh 29.23 in989.8 mb 0.00 in0.0 mm 0.00 in0.0 mm 0.00 in0.0 mm
05:41 PM 15.3°F-9.3°C -0.8°F-18.2°C 48% Calm Calm 5.2 mph8.4 kmh 29.23 in989.8 mb 0.00 in0.0 mm 0.00 in0.0 mm 0.00 in0.0 mm
05:40 PM 15.4°F-9.2°C -0.7°F-18.2°C 48% Calm Calm 5.8 mph9.3 kmh 29.23 in989.8 mb 0.00 in0.0 mm 0.00 in0.0 mm 0.00 in0.0 mm
05:39 PM 15.6°F-9.1°C -0.5°F-18.1°C 48% Calm Calm 5.8 mph9.3 kmh 29.23 in989.8 mb 0.00 in0.0 mm 0.00 in0.0 mm 0.00 in0.0 mm
05:38 PM 15.8°F-9.0°C -0.4°F-18.0°C 48% Calm Calm 5.8 mph9.3 kmh 29.23 in989.8 mb 0.00 in0.0 mm 0.00 in0.0 mm 0.00 in0.0 mm
05:37 PM 15.8°F-9.0°C -0.4°F-18.0°C 48% Calm Calm 5.8 mph9.3 kmh 29.23 in989.8 mb 0.00 in0.0 mm 0.00 in0.0 mm 0.00 in0.0 mm
05:36 PM 16.0°F-8.9°C -0.2°F-17.9°C 48% Calm Calm 5.8 mph9.3 kmh 29.23 in989.8 mb 0.00 in0.0 mm 0.00 in0.0 mm 0.00 in0.0 mm
05:35 PM 16.0°F-8.9°C -0.2°F-17.9°C 48% 3.0 mph W4.8 kmh W 5.8 mph9.3 kmh 29.23 in989.8 mb 0.00 in0.0 mm 0.00 in0.0 mm 0.00 in0.0 mm
05:34 PM 16.0°F-8.9°C -0.2°F-17.9°C 48% 3.7 mph W6.0 kmh W 5.8 mph9.3 kmh 29.23 in989.8 mb 0.00 in0.0 mm 0.00 in0.0 mm 0.00 in0.0 mm
05:33 PM 16.0°F-8.9°C -0.2°F-17.9°C 48% 4.1 mph W6.6 kmh W 5.8 mph9.3 kmh 29.23 in989.8 mb 0.00 in0.0 mm 0.00 in0.0 mm 0.00 in0.0 mm
05:32 PM 16.0°F-8.9°C -0.2°F-17.9°C 48% 4.5 mph W7.2 kmh W 5.8 mph9.3 kmh 29.23 in989.8 mb 0.00 in0.0 mm 0.00 in0.0 mm 0.00 in0.0 mm
05:30 PM 16.0°F-8.9°C -0.2°F-17.9°C 48% 3.4 mph W5.5 kmh W 5.8 mph9.3 kmh 29.23 in989.8 mb 0.00 in0.0 mm 0.00 in0.0 mm 0.00 in0.0 mm
05:29 PM 15.8°F-9.0°C -0.4°F-18.0°C 48% 3.7 mph W6.0 kmh W 5.8 mph9.3 kmh 29.23 in989.8 mb 0.00 in0.0 mm 0.00 in0.0 mm 0.00 in0.0 mm
05:28 PM 15.8°F-9.0°C -0.4°F-18.0°C 48% 3.7 mph W6.0 kmh W 5.8 mph9.3 kmh 29.23 in989.8 mb 0.00 in0.0 mm 0.00 in0.0 mm 0.00 in0.0 mm
05:27 PM 15.8°F-9.0°C -0.4°F-18.0°C 48% 3.9 mph W6.3 kmh W 5.8 mph9.3 kmh 29.23 in989.8 mb 0.00 in0.0 mm 0.00 in0.0 mm 0.00 in0.0 mm
05:26 PM 15.6°F-9.1°C -0.6°F-18.1°C 48% 4.2 mph W6.8 kmh W 5.8 mph9.3 kmh 29.23 in989.8 mb 0.00 in0.0 mm 0.00 in0.0 mm 0.00 in0.0 mm
05:25 PM 15.4°F-9.2°C -1.3°F-18.5°C 47% 4.6 mph W7.4 kmh W 5.8 mph9.3 kmh 29.23 in989.8 mb 0.00 in0.0 mm 0.00 in0.0 mm 0.00 in0.0 mm
05:24 PM 15.4°F-9.2°C -1.3°F-18.5°C 47% 4.0 mph W6.4 kmh W 5.8 mph9.3 kmh 29.23 in989.8 mb 0.00 in0.0 mm 0.00 in0.0 mm 0.00 in0.0 mm
05:23 PM 15.4°F-9.2°C -1.3°F-18.5°C 47% 3.4 mph W5.5 kmh W 5.8 mph9.3 kmh 29.23 in989.8 mb 0.00 in0.0 mm 0.00 in0.0 mm 0.00 in0.0 mm
05:22 PM 15.4°F-9.2°C -1.3°F-18.5°C 47% 3.6 mph W5.8 kmh W 5.8 mph9.3 kmh 29.23 in989.8 mb 0.00 in0.0 mm 0.00 in0.0 mm 0.00 in0.0 mm
05:21 PM 15.4°F-9.2°C -1.3°F-18.5°C 47% 3.9 mph W6.3 kmh W 5.8 mph9.3 kmh 29.23 in989.8 mb 0.00 in0.0 mm 0.00 in0.0 mm 0.00 in0.0 mm
05:20 PM 15.6°F-9.1°C -1.1°F-18.4°C 47% 3.6 mph W5.8 kmh W 5.8 mph9.3 kmh 29.23 in989.8 mb 0.00 in0.0 mm 0.00 in0.0 mm 0.00 in0.0 mm
05:19 PM 15.8°F-9.0°C -0.9°F-18.3°C 47% 3.6 mph W5.8 kmh W 5.8 mph9.3 kmh 29.23 in989.8 mb 0.00 in0.0 mm 0.00 in0.0 mm 0.00 in0.0 mm
05:18 PM 15.8°F-9.0°C -0.9°F-18.3°C 47% 4.3 mph W6.9 kmh W 5.8 mph9.3 kmh 29.23 in989.8 mb 0.00 in0.0 mm 0.00 in0.0 mm 0.00 in0.0 mm
05:17 PM 16.0°F-8.9°C -0.8°F-18.2°C 47% 4.4 mph W7.1 kmh W 7.1 mph11.4 kmh 29.23 in989.8 mb 0.00 in0.0 mm 0.00 in0.0 mm 0.00 in0.0 mm
05:16 PM 16.0°F-8.9°C -0.8°F-18.2°C 47% 3.9 mph W6.3 kmh W 7.1 mph11.4 kmh 29.23 in989.8 mb 0.00 in0.0 mm 0.00 in0.0 mm 0.00 in0.0 mm
05:15 PM 16.2°F-8.8°C -0.6°F-18.1°C 47% 3.3 mph W5.3 kmh W 10.4 mph16.7 kmh 29.23 in989.8 mb 0.00 in0.0 mm 0.00 in0.0 mm 0.00 in0.0 mm
05:14 PM 16.2°F-8.8°C -0.6°F-18.1°C 47% 3.6 mph W5.8 kmh W 10.4 mph16.7 kmh 29.23 in989.8 mb 0.00 in0.0 mm 0.00 in0.0 mm 0.00 in0.0 mm
05:13 PM 16.3°F-8.7°C -0.5°F-18.1°C 47% 3.2 mph W5.1 kmh W 10.4 mph16.7 kmh 29.23 in989.8 mb 0.00 in0.0 mm 0.00 in0.0 mm 0.00 in0.0 mm
05:12 PM 16.5°F-8.6°C -0.3°F-17.9°C 47% 3.3 mph W5.3 kmh W 10.4 mph16.7 kmh 29.23 in989.8 mb 0.00 in0.0 mm 0.00 in0.0 mm 0.00 in0.0 mm
05:11 PM 16.5°F-8.6°C -0.3°F-17.9°C 47% 3.7 mph W6.0 kmh W 10.4 mph16.7 kmh 29.23 in989.8 mb 0.00 in0.0 mm 0.00 in0.0 mm 0.00 in0.0 mm
05:10 PM 16.5°F-8.6°C -0.3°F-17.9°C 47% 3.7 mph W6.0 kmh W 10.4 mph16.7 kmh 29.23 in989.8 mb 0.00 in0.0 mm 0.00 in0.0 mm 0.00 in0.0 mm
05:09 PM 16.7°F-8.5°C -0.1°F-17.8°C 47% 4.3 mph WSW6.9 kmh WSW 10.4 mph16.7 kmh 29.23 in989.8 mb 0.00 in0.0 mm 0.00 in0.0 mm 0.00 in0.0 mm
05:08 PM 16.7°F-8.5°C -0.1°F-17.8°C 47% 5.6 mph WSW9.0 kmh WSW 10.4 mph16.7 kmh 29.23 in989.8 mb 0.00 in0.0 mm 0.00 in0.0 mm 0.00 in0.0 mm
05:07 PM 16.9°F-8.4°C 0.0°F-17.8°C 47% 5.9 mph W9.5 kmh W 10.4 mph16.7 kmh 29.23 in989.8 mb 0.00 in0.0 mm 0.00 in0.0 mm 0.00 in0.0 mm
05:06 PM 17.1°F-8.3°C 0.2°F-17.7°C 47% 5.3 mph W8.5 kmh W 10.4 mph16.7 kmh 29.23 in989.8 mb 0.00 in0.0 mm 0.00 in0.0 mm 0.00 in0.0 mm
05:05 PM 17.4°F-8.1°C 0.5°F-17.5°C 47% 4.9 mph W7.9 kmh W 9.1 mph14.6 kmh 29.23 in989.8 mb 0.00 in0.0 mm 0.00 in0.0 mm 0.00 in0.0 mm
05:04 PM 17.4°F-8.1°C 0.5°F-17.5°C 47% 5.2 mph W8.4 kmh W 9.1 mph14.6 kmh 29.23 in989.8 mb 0.00 in0.0 mm 0.00 in0.0 mm 0.00 in0.0 mm
05:03 PM 17.4°F-8.1°C 0.5°F-17.5°C 47% 5.5 mph W8.9 kmh W 9.1 mph14.6 kmh 29.23 in989.8 mb 0.00 in0.0 mm 0.00 in0.0 mm 0.00 in0.0 mm
05:02 PM 17.6°F-8.0°C 0.7°F-17.4°C 47% 5.8 mph WSW9.3 kmh WSW 9.1 mph14.6 kmh 29.23 in989.8 mb 0.00 in0.0 mm 0.00 in0.0 mm 0.00 in0.0 mm
05:01 PM 17.8°F-7.9°C 0.9°F-17.3°C 47% 6.1 mph W9.8 kmh W 9.2 mph14.8 kmh 29.23 in989.8 mb 0.00 in0.0 mm 0.00 in0.0 mm 0.00 in0.0 mm
05:00 PM 18.0°F-7.8°C 1.0°F-17.2°C 47% 5.6 mph W9.0 kmh W 11.0 mph17.7 kmh 29.23 in989.8 mb 0.00 in0.0 mm 0.00 in0.0 mm 0.00 in0.0 mm
04:59 PM 18.0°F-7.8°C 1.0°F-17.2°C 47% 4.9 mph WSW7.9 kmh WSW 12.6 mph20.3 kmh 29.23 in989.8 mb 0.00 in0.0 mm 0.00 in0.0 mm 0.00 in0.0 mm
04:58 PM 18.1°F-7.7°C 1.1°F-17.2°C 47% 5.1 mph WSW8.2 kmh WSW 12.6 mph20.3 kmh 29.23 in989.8 mb 0.00 in0.0 mm 0.00 in0.0 mm 0.00 in0.0 mm
04:57 PM 18.3°F-7.6°C 1.3°F-17.1°C 47% 5.5 mph WSW8.9 kmh WSW 12.6 mph20.3 kmh 29.23 in989.8 mb 0.00 in0.0 mm 0.00 in0.0 mm 0.00 in0.0 mm
04:56 PM 18.3°F-7.6°C 1.3°F-17.1°C 47% 6.0 mph W9.7 kmh W 12.6 mph20.3 kmh 29.23 in989.8 mb 0.00 in0.0 mm 0.00 in0.0 mm 0.00 in0.0 mm
04:55 PM 18.5°F-7.5°C 1.5°F-16.9°C 47% 5.3 mph W8.5 kmh W 12.6 mph20.3 kmh 29.23 in989.8 mb 0.00 in0.0 mm 0.00 in0.0 mm 0.00 in0.0 mm
04:54 PM 18.5°F-7.5°C 1.5°F-16.9°C 47% 4.3 mph W6.9 kmh W 13.3 mph21.4 kmh 29.23 in989.8 mb 0.00 in0.0 mm 0.00 in0.0 mm 0.00 in0.0 mm
04:53 PM 18.5°F-7.5°C 1.5°F-16.9°C 47% 5.6 mph W9.0 kmh W 13.3 mph21.4 kmh 29.23 in989.8 mb 0.00 in0.0 mm 0.00 in0.0 mm 0.00 in0.0 mm
04:52 PM 18.7°F-7.4°C 1.1°F-17.2°C 46% 7.7 mph W12.4 kmh W 13.3 mph21.4 kmh 29.23 in989.8 mb 0.00 in0.0 mm 0.00 in0.0 mm 0.00 in0.0 mm
04:51 PM 18.7°F-7.4°C 1.7°F-16.8°C 47% 8.5 mph WNW13.7 kmh WNW 13.3 mph21.4 kmh 29.23 in989.8 mb 0.00 in0.0 mm 0.00 in0.0 mm 0.00 in0.0 mm
04:50 PM 19.0°F-7.2°C 2.0°F-16.7°C 47% 6.9 mph WNW11.1 kmh WNW 13.3 mph21.4 kmh 29.23 in989.8 mb 0.00 in0.0 mm 0.00 in0.0 mm 0.00 in0.0 mm
04:49 PM 19.4°F-7.0°C 2.4°F-16.4°C 47% 6.8 mph WNW10.9 kmh WNW 13.3 mph21.4 kmh 29.23 in989.8 mb 0.00 in0.0 mm 0.00 in0.0 mm 0.00 in0.0 mm
04:48 PM 19.6°F-6.9°C 2.0°F-16.7°C 46% 8.8 mph W14.2 kmh W 13.3 mph21.4 kmh 29.23 in989.8 mb 0.00 in0.0 mm 0.00 in0.0 mm 0.00 in0.0 mm
04:47 PM 19.8°F-6.8°C 2.2°F-16.6°C 46% 10.2 mph W16.4 kmh W 13.3 mph21.4 kmh 29.23 in989.8 mb 0.00 in0.0 mm 0.00 in0.0 mm 0.00 in0.0 mm
04:46 PM 19.9°F-6.7°C 2.3°F-16.5°C 46% 10.5 mph WNW16.9 kmh WNW 13.3 mph21.4 kmh 29.23 in989.8 mb 0.00 in0.0 mm 0.00 in0.0 mm 0.00 in0.0 mm
04:45 PM 19.9°F-6.7°C 2.8°F-16.2°C 47% 9.9 mph WNW15.9 kmh WNW 13.3 mph21.4 kmh 29.23 in989.8 mb 0.00 in0.0 mm 0.00 in0.0 mm 0.00 in0.0 mm
04:44 PM 20.1°F-6.6°C 3.0°F-16.1°C 47% 9.5 mph NW15.3 kmh NW 12.6 mph20.3 kmh 29.23 in989.8 mb 0.00 in0.0 mm 0.00 in0.0 mm 0.00 in0.0 mm
04:43 PM 20.3°F-6.5°C 3.2°F-16.0°C 47% 8.9 mph WNW14.3 kmh WNW 12.6 mph20.3 kmh 29.23 in989.8 mb 0.00 in0.0 mm 0.00 in0.0 mm 0.00 in0.0 mm
04:42 PM 20.1°F-6.6°C 3.6°F-15.8°C 48% 8.0 mph NW12.9 kmh NW 12.6 mph20.3 kmh 29.23 in989.8 mb 0.00 in0.0 mm 0.00 in0.0 mm 0.00 in0.0 mm
04:41 PM 20.3°F-6.5°C 3.8°F-15.7°C 48% 8.3 mph NW13.4 kmh NW 12.0 mph19.3 kmh 29.23 in989.8 mb 0.00 in0.0 mm 0.00 in0.0 mm 0.00 in0.0 mm
04:40 PM 20.3°F-6.5°C 3.8°F-15.7°C 48% 8.8 mph NW14.2 kmh NW 12.0 mph19.3 kmh 29.23 in989.8 mb 0.00 in0.0 mm 0.00 in0.0 mm 0.00 in0.0 mm
04:39 PM 20.1°F-6.6°C 3.6°F-15.8°C 48% 8.7 mph NW14.0 kmh NW 12.0 mph19.3 kmh 29.23 in989.8 mb 0.00 in0.0 mm 0.00 in0.0 mm 0.00 in0.0 mm
04:38 PM 20.1°F-6.6°C 3.6°F-15.8°C 48% 8.1 mph WNW13.0 kmh WNW 12.0 mph19.3 kmh 29.23 in989.8 mb 0.00 in0.0 mm 0.00 in0.0 mm 0.00 in0.0 mm
04:37 PM 20.1°F-6.6°C 4.1°F-15.5°C 50% 7.9 mph WNW12.7 kmh WNW 12.0 mph19.3 kmh 29.23 in989.8 mb 0.00 in0.0 mm 0.00 in0.0 mm 0.00 in0.0 mm
04:36 PM 20.1°F-6.6°C 4.1°F-15.5°C 50% 7.6 mph WNW12.2 kmh WNW 12.6 mph20.3 kmh 29.23 in989.8 mb 0.00 in0.0 mm 0.00 in0.0 mm 0.00 in0.0 mm
04:35 PM 20.1°F-6.6°C 4.1°F-15.5°C 50% 8.0 mph WNW12.9 kmh WNW 12.6 mph20.3 kmh 29.23 in989.8 mb 0.00 in0.0 mm 0.00 in0.0 mm 0.00 in0.0 mm
04:34 PM 19.9°F-6.7°C 3.9°F-15.6°C 50% 8.0 mph WNW12.9 kmh WNW 12.6 mph20.3 kmh 29.23 in989.8 mb 0.00 in0.0 mm 0.00 in0.0 mm 0.00 in0.0 mm
04:33 PM 19.9°F-6.7°C 3.9°F-15.6°C 50% 7.8 mph NW12.6 kmh NW 12.6 mph20.3 kmh 29.23 in989.8 mb 0.00 in0.0 mm 0.00 in0.0 mm 0.00 in0.0 mm
04:32 PM 19.9°F-6.7°C 3.9°F-15.6°C 50% 8.9 mph NW14.3 kmh NW 12.6 mph20.3 kmh 29.23 in989.8 mb 0.00 in0.0 mm 0.00 in0.0 mm 0.00 in0.0 mm
04:31 PM 19.9°F-6.7°C 3.9°F-15.6°C 50% 8.6 mph NW13.8 kmh NW 12.6 mph20.3 kmh 29.23 in989.8 mb 0.00 in0.0 mm 0.00 in0.0 mm 0.00 in0.0 mm
04:30 PM 19.9°F-6.7°C 3.9°F-15.6°C 50% 7.2 mph NW11.6 kmh NW 12.6 mph20.3 kmh 29.23 in989.8 mb 0.00 in0.0 mm 0.00 in0.0 mm 0.00 in0.0 mm
04:29 PM 19.9°F-6.7°C 3.9°F-15.6°C 50% 7.0 mph WNW11.3 kmh WNW 12.6 mph20.3 kmh 29.23 in989.8 mb 0.00 in0.0 mm 0.00 in0.0 mm 0.00 in0.0 mm
04:28 PM 19.8°F-6.8°C 3.9°F-15.6°C 50% 7.8 mph WNW12.6 kmh WNW 12.6 mph20.3 kmh 29.23 in989.8 mb 0.00 in0.0 mm 0.00 in0.0 mm 0.00 in0.0 mm
04:27 PM 19.8°F-6.8°C 3.9°F-15.6°C 50% 7.4 mph WNW11.9 kmh WNW 12.6 mph20.3 kmh 29.23 in989.8 mb 0.00 in0.0 mm 0.00 in0.0 mm 0.00 in0.0 mm
04:26 PM 19.4°F-7.0°C 4.0°F-15.6°C 51% 7.2 mph WNW11.6 kmh WNW 12.6 mph20.3 kmh 29.23 in989.8 mb 0.00 in0.0 mm 0.00 in0.0 mm 0.00 in0.0 mm
04:25 PM 19.2°F-7.1°C 3.8°F-15.7°C 51% 7.7 mph NW12.4 kmh NW 12.0 mph19.3 kmh 29.23 in989.8 mb 0.00 in0.0 mm 0.00 in0.0 mm 0.00 in0.0 mm
04:24 PM 19.0°F-7.2°C 3.1°F-16.1°C 50% 7.3 mph NW11.7 kmh NW 12.0 mph19.3 kmh 29.23 in989.8 mb 0.00 in0.0 mm 0.00 in0.0 mm 0.00 in0.0 mm
04:23 PM 18.7°F-7.4°C 2.9°F-16.2°C 50% 5.4 mph WNW8.7 kmh WNW 12.0 mph19.3 kmh 29.23 in989.8 mb 0.00 in0.0 mm 0.00 in0.0 mm 0.00 in0.0 mm
04:22 PM 18.7°F-7.4°C 2.9°F-16.2°C 50% 4.1 mph WNW6.6 kmh WNW 11.0 mph17.7 kmh 29.23 in989.8 mb 0.00 in0.0 mm 0.00 in0.0 mm 0.00 in0.0 mm
04:21 PM 18.5°F-7.5°C 2.7°F-16.3°C 50% 4.3 mph NW6.9 kmh NW 11.0 mph17.7 kmh 29.23 in989.8 mb 0.00 in0.0 mm 0.00 in0.0 mm 0.00 in0.0 mm
04:20 PM 18.5°F-7.5°C 2.7°F-16.3°C 50% 4.8 mph NW7.7 kmh NW 11.0 mph17.7 kmh 29.23 in989.8 mb 0.00 in0.0 mm 0.00 in0.0 mm 0.00 in0.0 mm
04:19 PM 18.5°F-7.5°C 2.7°F-16.3°C 50% 5.6 mph NW9.0 kmh NW 11.0 mph17.7 kmh 29.23 in989.8 mb 0.00 in0.0 mm 0.00 in0.0 mm 0.00 in0.0 mm
04:18 PM 18.5°F-7.5°C 2.7°F-16.3°C 50% 6.0 mph WNW9.7 kmh WNW 11.0 mph17.7 kmh 29.23 in989.8 mb 0.00 in0.0 mm 0.00 in0.0 mm 0.00 in0.0 mm
04:17 PM 18.5°F-7.5°C 2.7°F-16.3°C 50% 6.3 mph WNW10.1 kmh WNW 11.0 mph17.7 kmh 29.23 in989.8 mb 0.00 in0.0 mm 0.00 in0.0 mm 0.00 in0.0 mm
04:16 PM 18.5°F-7.5°C 2.7°F-16.3°C 50% 6.9 mph WNW11.1 kmh WNW 11.0 mph17.7 kmh 29.23 in989.8 mb 0.00 in0.0 mm 0.00 in0.0 mm 0.00 in0.0 mm
04:15 PM 18.5°F-7.5°C 2.7°F-16.3°C 50% 7.6 mph WNW12.2 kmh WNW 11.0 mph17.7 kmh 29.23 in989.8 mb 0.00 in0.0 mm 0.00 in0.0 mm 0.00 in0.0 mm
04:14 PM 18.3°F-7.6°C 2.5°F-16.4°C 50% 8.0 mph WNW12.9 kmh WNW 12.0 mph19.3 kmh 29.23 in989.8 mb 0.00 in0.0 mm 0.00 in0.0 mm 0.00 in0.0 mm
04:13 PM 17.8°F-7.9°C 1.5°F-16.9°C 48% 8.2 mph WNW13.2 kmh WNW 12.6 mph20.3 kmh 29.23 in989.8 mb 0.00 in0.0 mm 0.00 in0.0 mm 0.00 in0.0 mm
04:12 PM 17.6°F-8.0°C 1.3°F-17.1°C 48% 8.2 mph WNW13.2 kmh WNW 12.6 mph20.3 kmh 29.23 in989.8 mb 0.00 in0.0 mm 0.00 in0.0 mm 0.00 in0.0 mm
04:11 PM 17.2°F-8.2°C 1.0°F-17.2°C 48% 7.4 mph WNW11.9 kmh WNW 12.6 mph20.3 kmh 29.23 in989.8 mb 0.00 in0.0 mm 0.00 in0.0 mm 0.00 in0.0 mm
04:10 PM 16.9°F-8.4°C 0.7°F-17.4°C 48% 6.4 mph WNW10.3 kmh WNW 12.6 mph20.3 kmh 29.23 in989.8 mb 0.00 in0.0 mm 0.00 in0.0 mm 0.00 in0.0 mm
04:09 PM 16.7°F-8.5°C 0.5°F-17.5°C 48% 6.4 mph WNW10.3 kmh WNW 12.6 mph20.3 kmh 29.23 in989.8 mb 0.00 in0.0 mm 0.00 in0.0 mm 0.00 in0.0 mm
04:08 PM 16.5°F-8.6°C -0.2°F-17.9°C 47% 7.7 mph NW12.4 kmh NW 12.6 mph20.3 kmh 29.23 in989.8 mb 0.00 in0.0 mm 0.00 in0.0 mm 0.00 in0.0 mm
04:06 PM 16.7°F-8.5°C 0.0°F-17.8°C 47% 8.9 mph WNW14.3 kmh WNW 12.6 mph20.3 kmh 29.23 in989.8 mb 0.00 in0.0 mm 0.00 in0.0 mm 0.00 in0.0 mm
04:05 PM 16.7°F-8.5°C 0.0°F-17.8°C 47% 8.7 mph WNW14.0 kmh WNW 12.6 mph20.3 kmh 29.23 in989.8 mb 0.00 in0.0 mm 0.00 in0.0 mm 0.00 in0.0 mm
04:04 PM 16.9°F-8.4°C 0.7°F-17.4°C 49% 7.0 mph WNW11.3 kmh WNW 12.6 mph20.3 kmh 29.23 in989.8 mb 0.00 in0.0 mm 0.00 in0.0 mm 0.00 in0.0 mm
04:03 PM 16.9°F-8.4°C 0.7°F-17.4°C 49% 6.1 mph WNW9.8 kmh WNW 12.0 mph19.3 kmh 29.23 in989.8 mb 0.00 in0.0 mm 0.00 in0.0 mm 0.00 in0.0 mm
04:02 PM 16.9°F-8.4°C 0.7°F-17.4°C 49% 6.1 mph WNW9.8 kmh WNW 12.0 mph19.3 kmh 29.23 in989.8 mb 0.00 in0.0 mm 0.00 in0.0 mm 0.00 in0.0 mm
04:01 PM 16.9°F-8.4°C 0.7°F-17.4°C 49% 6.6 mph WNW10.6 kmh WNW 12.0 mph19.3 kmh 29.23 in989.8 mb 0.00 in0.0 mm 0.00 in0.0 mm 0.00 in0.0 mm
04:00 PM 16.9°F-8.4°C 0.7°F-17.4°C 49% 7.6 mph WNW12.2 kmh WNW 12.0 mph19.3 kmh 29.23 in989.8 mb 0.00 in0.0 mm 0.00 in0.0 mm 0.00 in0.0 mm
03:59 PM 16.9°F-8.4°C 0.7°F-17.4°C 49% 8.6 mph WNW13.8 kmh WNW 12.0 mph19.3 kmh 29.23 in989.8 mb 0.00 in0.0 mm 0.00 in0.0 mm 0.00 in0.0 mm
03:58 PM 17.1°F-8.3°C 0.4°F-17.6°C 47% 8.8 mph WNW14.2 kmh WNW 12.0 mph19.3 kmh 29.23 in989.8 mb 0.00 in0.0 mm 0.00 in0.0 mm 0.00 in0.0 mm
03:57 PM 17.1°F-8.3°C 0.9°F-17.3°C 49% 8.6 mph WNW13.8 kmh WNW 12.0 mph19.3 kmh 29.23 in989.8 mb 0.00 in0.0 mm 0.00 in0.0 mm 0.00 in0.0 mm
03:56 PM 17.2°F-8.2°C 0.5°F-17.5°C 47% 8.7 mph WNW14.0 kmh WNW 12.0 mph19.3 kmh 29.23 in989.8 mb 0.00 in0.0 mm 0.00 in0.0 mm 0.00 in0.0 mm
03:55 PM 17.4°F-8.1°C 1.2°F-17.1°C 49% 8.0 mph WNW12.9 kmh WNW 12.0 mph19.3 kmh 29.23 in989.8 mb 0.00 in0.0 mm 0.00 in0.0 mm 0.00 in0.0 mm
03:54 PM 17.4°F-8.1°C 1.2°F-17.1°C 49% 6.7 mph WNW10.8 kmh WNW 12.0 mph19.3 kmh 29.23 in989.8 mb 0.00 in0.0 mm 0.00 in0.0 mm 0.00 in0.0 mm
03:53 PM 17.6°F-8.0°C 1.4°F-17.0°C 49% 6.8 mph WSW10.9 kmh WSW 11.7 mph18.8 kmh 29.23 in989.8 mb 0.00 in0.0 mm 0.00 in0.0 mm 0.00 in0.0 mm
03:52 PM 17.8°F-7.9°C 1.0°F-17.2°C 47% 7.6 mph WSW12.2 kmh WSW 11.7 mph18.8 kmh 29.23 in989.8 mb 0.00 in0.0 mm 0.00 in0.0 mm 0.00 in0.0 mm
03:51 PM 17.8°F-7.9°C 1.0°F-17.2°C 47% 7.9 mph WSW12.7 kmh WSW 12.0 mph19.3 kmh 29.23 in989.8 mb 0.00 in0.0 mm 0.00 in0.0 mm 0.00 in0.0 mm
03:50 PM 17.8°F-7.9°C 1.0°F-17.2°C 47% 7.8 mph WSW12.6 kmh WSW 13.3 mph21.4 kmh 29.23 in989.8 mb 0.00 in0.0 mm 0.00 in0.0 mm 0.00 in0.0 mm
03:49 PM 18.0°F-7.8°C 1.2°F-17.1°C 47% 8.0 mph WSW12.9 kmh WSW 15.2 mph24.5 kmh 29.23 in989.8 mb 0.00 in0.0 mm 0.00 in0.0 mm 0.00 in0.0 mm
03:48 PM 18.1°F-7.7°C 1.3°F-17.1°C 47% 8.4 mph WSW13.5 kmh WSW 15.2 mph24.5 kmh 29.23 in989.8 mb 0.00 in0.0 mm 0.00 in0.0 mm 0.00 in0.0 mm
03:47 PM 18.3°F-7.6°C 1.5°F-16.9°C 47% 9.1 mph WSW14.6 kmh WSW 15.2 mph24.5 kmh 29.23 in989.8 mb 0.00 in0.0 mm 0.00 in0.0 mm 0.00 in0.0 mm
03:46 PM 18.3°F-7.6°C 1.5°F-16.9°C 47% 7.8 mph W12.6 kmh W 15.2 mph24.5 kmh 29.23 in989.8 mb 0.00 in0.0 mm 0.00 in0.0 mm 0.00 in0.0 mm
03:45 PM 18.5°F-7.5°C 1.7°F-16.8°C 47% 7.4 mph WSW11.9 kmh WSW 15.2 mph24.5 kmh 29.23 in989.8 mb 0.00 in0.0 mm 0.00 in0.0 mm 0.00 in0.0 mm
03:44 PM 18.7°F-7.4°C 1.9°F-16.7°C 47% 8.7 mph W14.0 kmh W 15.2 mph24.5 kmh 29.23 in989.8 mb 0.00 in0.0 mm 0.00 in0.0 mm 0.00 in0.0 mm
03:43 PM 19.0°F-7.2°C 2.1°F-16.6°C 47% 10.2 mph WSW16.4 kmh WSW 15.2 mph24.5 kmh 29.23 in989.8 mb 0.00 in0.0 mm 0.00 in0.0 mm 0.00 in0.0 mm
03:42 PM 19.0°F-7.2°C 2.1°F-16.6°C 47% 10.3 mph WSW16.6 kmh WSW 15.2 mph24.5 kmh 29.23 in989.8 mb 0.00 in0.0 mm 0.00 in0.0 mm 0.00 in0.0 mm
03:41 PM 19.2°F-7.1°C 2.3°F-16.5°C 47% 10.2 mph WSW16.4 kmh WSW 15.2 mph24.5 kmh 29.23 in989.8 mb 0.00 in0.0 mm 0.00 in0.0 mm 0.00 in0.0 mm
03:40 PM 19.4°F-7.0°C 3.1°F-16.1°C 49% 10.2 mph W16.4 kmh W 15.9 mph25.6 kmh 29.23 in989.8 mb 0.00 in0.0 mm 0.00 in0.0 mm 0.00 in0.0 mm
03:39 PM 19.6°F-6.9°C 2.7°F-16.3°C 47% 10.4 mph W16.7 kmh W 17.8 mph28.6 kmh 29.21 in989.2 mb 0.00 in0.0 mm 0.00 in0.0 mm 0.00 in0.0 mm
03:38 PM 19.4°F-7.0°C 3.1°F-16.1°C 49% 9.5 mph WSW15.3 kmh WSW 17.8 mph28.6 kmh 29.21 in989.2 mb 0.00 in0.0 mm 0.00 in0.0 mm 0.00 in0.0 mm
03:37 PM 19.4°F-7.0°C 3.1°F-16.1°C 49% 8.3 mph W13.4 kmh W 17.8 mph28.6 kmh 29.21 in989.2 mb 0.00 in0.0 mm 0.00 in0.0 mm 0.00 in0.0 mm
03:36 PM 19.4°F-7.0°C 3.1°F-16.1°C 49% 7.7 mph W12.4 kmh W 17.8 mph28.6 kmh 29.21 in989.2 mb 0.00 in0.0 mm 0.00 in0.0 mm 0.00 in0.0 mm
03:35 PM 19.2°F-7.1°C 2.3°F-16.5°C 47% 9.1 mph W14.6 kmh W 17.8 mph28.6 kmh 29.21 in989.2 mb 0.00 in0.0 mm 0.00 in0.0 mm 0.00 in0.0 mm
03:34 PM 19.2°F-7.1°C 2.3°F-16.5°C 47% 10.4 mph W16.7 kmh W 17.8 mph28.6 kmh 29.21 in989.2 mb 0.00 in0.0 mm 0.00 in0.0 mm 0.00 in0.0 mm
03:33 PM 19.2°F-7.1°C 2.3°F-16.5°C 47% 11.8 mph W19.0 kmh W 17.8 mph28.6 kmh 29.21 in989.2 mb 0.00 in0.0 mm 0.00 in0.0 mm 0.00 in0.0 mm
03:32 PM 19.6°F-6.9°C 2.7°F-16.3°C 47% 12.8 mph W20.6 kmh W 17.8 mph28.6 kmh 29.21 in989.2 mb 0.00 in0.0 mm 0.00 in0.0 mm 0.00 in0.0 mm
03:31 PM 19.6°F-6.9°C 2.7°F-16.3°C 47% 12.2 mph W19.6 kmh W 17.8 mph28.6 kmh 29.21 in989.2 mb 0.00 in0.0 mm 0.00 in0.0 mm 0.00 in0.0 mm
03:30 PM 19.9°F-6.7°C 3.5°F-15.8°C 49% 10.2 mph WNW16.4 kmh WNW 17.8 mph28.6 kmh 29.21 in989.2 mb 0.00 in0.0 mm 0.00 in0.0 mm 0.00 in0.0 mm
03:29 PM 19.9°F-6.7°C 3.5°F-15.8°C 49% 10.1 mph NW16.3 kmh NW 15.9 mph25.6 kmh 29.21 in989.2 mb 0.00 in0.0 mm 0.00 in0.0 mm 0.00 in0.0 mm
03:28 PM 20.1°F-6.6°C 3.7°F-15.7°C 49% 9.9 mph NW15.9 kmh NW 15.2 mph24.5 kmh 29.21 in989.2 mb 0.00 in0.0 mm 0.00 in0.0 mm 0.00 in0.0 mm
03:27 PM 20.3°F-6.5°C 4.5°F-15.3°C 50% 10.1 mph NW16.3 kmh NW 15.2 mph24.5 kmh 29.21 in989.2 mb 0.00 in0.0 mm 0.00 in0.0 mm 0.00 in0.0 mm
03:26 PM 20.3°F-6.5°C 4.5°F-15.3°C 50% 10.1 mph NW16.3 kmh NW 15.2 mph24.5 kmh 29.21 in989.2 mb 0.00 in0.0 mm 0.00 in0.0 mm 0.00 in0.0 mm
03:25 PM 20.3°F-6.5°C 4.5°F-15.3°C 50% 9.6 mph NW15.4 kmh NW 15.2 mph24.5 kmh 29.21 in989.2 mb 0.00 in0.0 mm 0.00 in0.0 mm 0.00 in0.0 mm
03:24 PM 19.9°F-6.7°C 3.6°F-15.8°C 49% 9.4 mph NW15.1 kmh NW 15.2 mph24.5 kmh 29.21 in989.2 mb 0.00 in0.0 mm 0.00 in0.0 mm 0.00 in0.0 mm
03:23 PM 19.8°F-6.8°C 3.5°F-15.8°C 49% 9.5 mph NW15.3 kmh NW 15.9 mph25.6 kmh 29.21 in989.2 mb 0.00 in0.0 mm 0.00 in0.0 mm 0.00 in0.0 mm
03:22 PM 19.4°F-7.0°C 3.1°F-16.1°C 49% 10.0 mph NW16.1 kmh NW 19.1 mph30.7 kmh 29.21 in989.2 mb 0.00 in0.0 mm 0.00 in0.0 mm 0.00 in0.0 mm
03:21 PM 19.2°F-7.1°C 2.9°F-16.2°C 49% 10.6 mph NW17.1 kmh NW 19.1 mph30.7 kmh 29.21 in989.2 mb 0.00 in0.0 mm 0.00 in0.0 mm 0.00 in0.0 mm
03:20 PM 19.2°F-7.1°C 2.9°F-16.2°C 49% 11.7 mph NW18.8 kmh NW 19.1 mph30.7 kmh 29.21 in989.2 mb 0.00 in0.0 mm 0.00 in0.0 mm 0.00 in0.0 mm
03:19 PM 19.2°F-7.1°C 2.9°F-16.2°C 49% 11.5 mph WNW18.5 kmh WNW 19.1 mph30.7 kmh 29.21 in989.2 mb 0.00 in0.0 mm 0.00 in0.0 mm 0.00 in0.0 mm
03:18 PM 19.2°F-7.1°C 2.9°F-16.2°C 49% 9.7 mph WNW15.6 kmh WNW 19.1 mph30.7 kmh 29.21 in989.2 mb 0.00 in0.0 mm 0.00 in0.0 mm 0.00 in0.0 mm
03:17 PM 19.2°F-7.1°C 2.9°F-16.2°C 49% 8.8 mph NW14.2 kmh NW 19.1 mph30.7 kmh 29.21 in989.2 mb 0.00 in0.0 mm 0.00 in0.0 mm 0.00 in0.0 mm
03:16 PM 19.4°F-7.0°C 3.1°F-16.1°C 49% 10.1 mph NW16.3 kmh NW 19.1 mph30.7 kmh 29.21 in989.2 mb 0.00 in0.0 mm 0.00 in0.0 mm 0.00 in0.0 mm
03:15 PM 19.6°F-6.9°C 2.7°F-16.3°C 48% 12.4 mph WNW20.0 kmh WNW 19.1 mph30.7 kmh 29.21 in989.2 mb 0.00 in0.0 mm 0.00 in0.0 mm 0.00 in0.0 mm
03:14 PM 19.9°F-6.7°C 3.6°F-15.8°C 49% 13.4 mph WNW21.6 kmh WNW 19.1 mph30.7 kmh 29.21 in989.2 mb 0.00 in0.0 mm 0.00 in0.0 mm 0.00 in0.0 mm
03:13 PM 20.1°F-6.6°C 3.8°F-15.7°C 49% 12.5 mph NW20.1 kmh NW 19.1 mph30.7 kmh 29.21 in989.2 mb 0.00 in0.0 mm 0.00 in0.0 mm 0.00 in0.0 mm
03:12 PM 20.1°F-6.6°C 3.8°F-15.7°C 49% 11.2 mph NW18.0 kmh NW 17.3 mph27.8 kmh 29.21 in989.2 mb 0.00 in0.0 mm 0.00 in0.0 mm 0.00 in0.0 mm
03:11 PM 20.3°F-6.5°C 3.9°F-15.6°C 49% 9.6 mph NW15.4 kmh NW 15.9 mph25.6 kmh 29.21 in989.2 mb 0.00 in0.0 mm 0.00 in0.0 mm 0.00 in0.0 mm
03:10 PM 20.3°F-6.5°C 4.0°F-15.6°C 49% 9.9 mph NW15.9 kmh NW 15.9 mph25.6 kmh 29.21 in989.2 mb 0.00 in0.0 mm 0.00 in0.0 mm 0.00 in0.0 mm
03:09 PM 20.7°F-6.3°C 4.3°F-15.4°C 49% 10.5 mph NW16.9 kmh NW 15.9 mph25.6 kmh 29.21 in989.2 mb 0.00 in0.0 mm 0.00 in0.0 mm 0.00 in0.0 mm
03:08 PM 20.7°F-6.3°C 4.9°F-15.1°C 50% 9.3 mph NW15.0 kmh NW 14.6 mph23.5 kmh 29.21 in989.2 mb 0.00 in0.0 mm 0.00 in0.0 mm 0.00 in0.0 mm
03:07 PM 21.2°F-6.0°C 5.3°F-14.8°C 50% 8.1 mph WNW13.0 kmh WNW 12.6 mph20.3 kmh 29.21 in989.2 mb 0.00 in0.0 mm 0.00 in0.0 mm 0.00 in0.0 mm
03:06 PM 21.2°F-6.0°C 5.3°F-14.8°C 50% 7.7 mph WNW12.4 kmh WNW 12.6 mph20.3 kmh 29.21 in989.2 mb 0.00 in0.0 mm 0.00 in0.0 mm 0.00 in0.0 mm
03:05 PM 21.4°F-5.9°C 5.5°F-14.7°C 50% 7.6 mph WNW12.2 kmh WNW 12.6 mph20.3 kmh 29.21 in989.2 mb 0.00 in0.0 mm 0.00 in0.0 mm 0.00 in0.0 mm
03:04 PM 21.6°F-5.8°C 5.7°F-14.6°C 50% 8.5 mph W13.7 kmh W 12.6 mph20.3 kmh 29.21 in989.2 mb 0.00 in0.0 mm 0.00 in0.0 mm 0.00 in0.0 mm
03:03 PM 21.6°F-5.8°C 5.7°F-14.6°C 50% 10.1 mph W16.3 kmh W 15.9 mph25.6 kmh 29.21 in989.2 mb 0.00 in0.0 mm 0.00 in0.0 mm 0.00 in0.0 mm
03:02 PM 21.6°F-5.8°C 5.7°F-14.6°C 50% 9.7 mph WSW15.6 kmh WSW 17.8 mph28.6 kmh 29.21 in989.2 mb 0.00 in0.0 mm 0.00 in0.0 mm 0.00 in0.0 mm
03:01 PM 21.4°F-5.9°C 5.5°F-14.7°C 50% 7.6 mph WSW12.2 kmh WSW 17.8 mph28.6 kmh 29.21 in989.2 mb 0.00 in0.0 mm 0.00 in0.0 mm 0.00 in0.0 mm
03:00 PM 21.2°F-6.0°C 5.9°F-14.5°C 51% 6.9 mph WSW11.1 kmh WSW 17.8 mph28.6 kmh 29.21 in989.2 mb 0.00 in0.0 mm 0.00 in0.0 mm 0.00 in0.0 mm
02:59 PM 21.2°F-6.0°C 5.9°F-14.5°C 51% 7.3 mph W11.7 kmh W 22.3 mph35.9 kmh 29.21 in989.2 mb 0.00 in0.0 mm 0.00 in0.0 mm 0.00 in0.0 mm
02:58 PM 21.2°F-6.0°C 5.9°F-14.5°C 51% 8.5 mph W13.7 kmh W 22.3 mph35.9 kmh 29.21 in989.2 mb 0.00 in0.0 mm 0.00 in0.0 mm 0.00 in0.0 mm
02:57 PM 21.0°F-6.1°C 5.2°F-14.9°C 50% 9.7 mph W15.6 kmh W 22.3 mph35.9 kmh 29.21 in989.2 mb 0.00 in0.0 mm 0.00 in0.0 mm 0.00 in0.0 mm
02:56 PM 20.8°F-6.2°C 5.0°F-15.0°C 50% 10.9 mph W17.5 kmh W 22.3 mph35.9 kmh 29.21 in989.2 mb 0.00 in0.0 mm 0.00 in0.0 mm 0.00 in0.0 mm
02:55 PM 20.7°F-6.3°C 4.9°F-15.1°C 50% 12.0 mph W19.3 kmh W 22.3 mph35.9 kmh 29.21 in989.2 mb 0.00 in0.0 mm 0.00 in0.0 mm 0.00 in0.0 mm
02:54 PM 20.5°F-6.4°C 4.7°F-15.2°C 50% 12.1 mph W19.5 kmh W 22.3 mph35.9 kmh 29.21 in989.2 mb 0.00 in0.0 mm 0.00 in0.0 mm 0.00 in0.0 mm
02:49 PM 20.3°F-6.5°C 4.5°F-15.3°C 50% 13.2 mph WNW21.2 kmh WNW 19.1 mph30.7 kmh 29.21 in989.2 mb 0.00 in0.0 mm 0.00 in0.0 mm 0.00 in0.0 mm
02:48 PM 20.3°F-6.5°C 4.5°F-15.3°C 50% 13.3 mph WNW21.4 kmh WNW 19.1 mph30.7 kmh 29.21 in989.2 mb 0.00 in0.0 mm 0.00 in0.0 mm 0.00 in0.0 mm
02:47 PM 20.1°F-6.6°C 4.3°F-15.4°C 50% 12.6 mph W20.3 kmh W 19.1 mph30.7 kmh 29.21 in989.2 mb 0.00 in0.0 mm 0.00 in0.0 mm 0.00 in0.0 mm
02:46 PM 20.3°F-6.5°C 5.1°F-14.9°C 51% 11.3 mph W18.2 kmh W 19.7 mph31.7 kmh 29.21 in989.2 mb 0.00 in0.0 mm 0.00 in0.0 mm 0.00 in0.0 mm
02:45 PM 20.1°F-6.6°C 4.9°F-15.1°C 51% 11.3 mph W18.2 kmh W 19.7 mph31.7 kmh 29.21 in989.2 mb 0.00 in0.0 mm 0.00 in0.0 mm 0.00 in0.0 mm
02:44 PM 19.9°F-6.7°C 4.7°F-15.2°C 51% 11.3 mph WNW18.2 kmh WNW 19.7 mph31.7 kmh 29.21 in989.2 mb 0.00 in0.0 mm 0.00 in0.0 mm 0.00 in0.0 mm
02:43 PM 19.9°F-6.7°C 4.7°F-15.2°C 51% 11.0 mph W17.7 kmh W 19.7 mph31.7 kmh 29.21 in989.2 mb 0.00 in0.0 mm 0.00 in0.0 mm 0.00 in0.0 mm
02:42 PM 19.9°F-6.7°C 4.7°F-15.2°C 51% 10.4 mph W16.7 kmh W 19.7 mph31.7 kmh 29.21 in989.2 mb 0.00 in0.0 mm 0.00 in0.0 mm 0.00 in0.0 mm
02:41 PM 19.8°F-6.8°C 4.6°F-15.2°C 51% 10.3 mph W16.6 kmh W 19.7 mph31.7 kmh 29.21 in989.2 mb 0.00 in0.0 mm 0.00 in0.0 mm 0.00 in0.0 mm
02:40 PM 19.6°F-6.9°C 4.4°F-15.3°C 51% 11.5 mph W18.5 kmh W 19.7 mph31.7 kmh 29.21 in989.2 mb 0.00 in0.0 mm 0.00 in0.0 mm 0.00 in0.0 mm
02:39 PM 19.6°F-6.9°C 4.4°F-15.3°C 51% 13.5 mph W21.7 kmh W 19.7 mph31.7 kmh 29.21 in989.2 mb 0.00 in0.0 mm 0.00 in0.0 mm 0.00 in0.0 mm
02:38 PM 19.6°F-6.9°C 4.4°F-15.3°C 51% 14.5 mph WNW23.3 kmh WNW 19.7 mph31.7 kmh 29.21 in989.2 mb 0.00 in0.0 mm 0.00 in0.0 mm 0.00 in0.0 mm
02:37 PM 19.8°F-6.8°C 4.6°F-15.2°C 51% 13.0 mph W20.9 kmh W 19.7 mph31.7 kmh 29.21 in989.2 mb 0.00 in0.0 mm 0.00 in0.0 mm 0.00 in0.0 mm
02:36 PM 19.9°F-6.7°C 4.7°F-15.2°C 51% 10.1 mph W16.3 kmh W 15.9 mph25.6 kmh 29.21 in989.2 mb 0.00 in0.0 mm 0.00 in0.0 mm 0.00 in0.0 mm
02:35 PM 20.1°F-6.6°C 4.9°F-15.1°C 51% 7.7 mph W12.4 kmh W 14.6 mph23.5 kmh 29.21 in989.2 mb 0.00 in0.0 mm 0.00 in0.0 mm 0.00 in0.0 mm
02:34 PM 20.1°F-6.6°C 4.9°F-15.1°C 51% 6.6 mph W10.6 kmh W 14.6 mph23.5 kmh 29.21 in989.2 mb 0.00 in0.0 mm 0.00 in0.0 mm 0.00 in0.0 mm
02:33 PM 20.1°F-6.6°C 4.9°F-15.1°C 51% 6.9 mph W11.1 kmh W 14.6 mph23.5 kmh 29.21 in989.2 mb 0.00 in0.0 mm 0.00 in0.0 mm 0.00 in0.0 mm
02:32 PM 19.9°F-6.7°C 4.7°F-15.2°C 51% 6.9 mph WNW11.1 kmh WNW 14.6 mph23.5 kmh 29.21 in989.2 mb 0.00 in0.0 mm 0.00 in0.0 mm 0.00 in0.0 mm
02:31 PM 19.9°F-6.7°C 4.7°F-15.2°C 51% 7.0 mph WNW11.3 kmh WNW 14.6 mph23.5 kmh 29.21 in989.2 mb 0.00 in0.0 mm 0.00 in0.0 mm 0.00 in0.0 mm
02:30 PM 19.8°F-6.8°C 4.6°F-15.2°C 51% 8.2 mph WNW13.2 kmh WNW 14.6 mph23.5 kmh 29.21 in989.2 mb 0.00 in0.0 mm 0.00 in0.0 mm 0.00 in0.0 mm
02:29 PM 19.4°F-7.0°C 4.2°F-15.4°C 51% 7.8 mph NW12.6 kmh NW 15.2 mph24.5 kmh 29.21 in989.2 mb 0.00 in0.0 mm 0.00 in0.0 mm 0.00 in0.0 mm
02:28 PM 19.2°F-7.1°C 4.1°F-15.5°C 51% 7.4 mph NW11.9 kmh NW 15.2 mph24.5 kmh 29.21 in989.2 mb 0.00 in0.0 mm 0.00 in0.0 mm 0.00 in0.0 mm
02:27 PM 18.9°F-7.3°C 3.8°F-15.7°C 51% 8.3 mph WNW13.4 kmh WNW 15.2 mph24.5 kmh 29.21 in989.2 mb 0.00 in0.0 mm 0.00 in0.0 mm 0.00 in0.0 mm
02:26 PM 18.7°F-7.4°C 3.1°F-16.1°C 50% 10.3 mph WNW16.6 kmh WNW 15.2 mph24.5 kmh 29.21 in989.2 mb 0.00 in0.0 mm 0.00 in0.0 mm 0.00 in0.0 mm
02:25 PM 18.7°F-7.4°C 3.1°F-16.1°C 50% 10.6 mph W17.1 kmh W 16.4 mph26.4 kmh 29.21 in989.2 mb 0.00 in0.0 mm 0.00 in0.0 mm 0.00 in0.0 mm
02:24 PM 18.7°F-7.4°C 3.1°F-16.1°C 50% 10.5 mph W16.9 kmh W 17.8 mph28.6 kmh 29.21 in989.2 mb 0.00 in0.0 mm 0.00 in0.0 mm 0.00 in0.0 mm
02:23 PM 18.7°F-7.4°C 3.1°F-16.1°C 50% 9.9 mph WNW15.9 kmh WNW 19.1 mph30.7 kmh 29.21 in989.2 mb 0.00 in0.0 mm 0.00 in0.0 mm 0.00 in0.0 mm
02:22 PM 19.2°F-7.1°C 3.5°F-15.8°C 50% 9.9 mph NW15.9 kmh NW 22.3 mph35.9 kmh 29.21 in989.2 mb 0.00 in0.0 mm 0.00 in0.0 mm 0.00 in0.0 mm
02:21 PM 19.4°F-7.0°C 3.7°F-15.7°C 50% 9.9 mph NW15.9 kmh NW 22.3 mph35.9 kmh 29.21 in989.2 mb 0.00 in0.0 mm 0.00 in0.0 mm 0.00 in0.0 mm
02:20 PM 19.8°F-6.8°C 4.1°F-15.5°C 50% 10.0 mph NW16.1 kmh NW 22.3 mph35.9 kmh 29.21 in989.2 mb 0.00 in0.0 mm 0.00 in0.0 mm 0.00 in0.0 mm
02:19 PM 19.9°F-6.7°C 4.2°F-15.4°C 50% 10.7 mph NW17.2 kmh NW 22.3 mph35.9 kmh 29.21 in989.2 mb 0.00 in0.0 mm 0.00 in0.0 mm 0.00 in0.0 mm
02:18 PM 20.1°F-6.6°C 4.4°F-15.3°C 50% 10.3 mph NW16.6 kmh NW 22.3 mph35.9 kmh 29.21 in989.2 mb 0.00 in0.0 mm 0.00 in0.0 mm 0.00 in0.0 mm
02:17 PM 20.1°F-6.6°C 4.4°F-15.3°C 50% 12.1 mph NW19.5 kmh NW 22.3 mph35.9 kmh 29.21 in989.2 mb 0.00 in0.0 mm 0.00 in0.0 mm 0.00 in0.0 mm
02:16 PM 20.1°F-6.6°C 4.4°F-15.3°C 50% 14.7 mph WNW23.7 kmh WNW 22.3 mph35.9 kmh 29.21 in989.2 mb 0.00 in0.0 mm 0.00 in0.0 mm 0.00 in0.0 mm
02:15 PM 19.9°F-6.7°C 4.2°F-15.4°C 50% 15.9 mph WNW25.6 kmh WNW 22.3 mph35.9 kmh 29.21 in989.2 mb 0.00 in0.0 mm 0.00 in0.0 mm 0.00 in0.0 mm
02:14 PM 20.3°F-6.5°C 5.1°F-14.9°C 51% 14.6 mph WNW23.5 kmh WNW 22.3 mph35.9 kmh 29.21 in989.2 mb 0.00 in0.0 mm 0.00 in0.0 mm 0.00 in0.0 mm
02:13 PM 20.3°F-6.5°C 5.1°F-14.9°C 51% 12.8 mph WNW20.6 kmh WNW 22.3 mph35.9 kmh 29.21 in989.2 mb 0.00 in0.0 mm 0.00 in0.0 mm 0.00 in0.0 mm
02:12 PM 20.5°F-6.4°C 5.3°F-14.8°C 51% 11.2 mph WNW18.0 kmh WNW 21.8 mph35.1 kmh 29.21 in989.2 mb 0.00 in0.0 mm 0.00 in0.0 mm 0.00 in0.0 mm
02:11 PM 20.5°F-6.4°C 5.3°F-14.8°C 51% 11.5 mph NW18.5 kmh NW 21.0 mph33.8 kmh 29.21 in989.2 mb 0.00 in0.0 mm 0.00 in0.0 mm 0.00 in0.0 mm
02:10 PM 20.3°F-6.5°C 5.1°F-14.9°C 51% 12.6 mph NW20.3 kmh NW 21.0 mph33.8 kmh 29.21 in989.2 mb 0.00 in0.0 mm 0.00 in0.0 mm 0.00 in0.0 mm
02:09 PM 20.3°F-6.5°C 5.1°F-14.9°C 51% 13.6 mph NW21.9 kmh NW 21.0 mph33.8 kmh 29.21 in989.2 mb 0.00 in0.0 mm 0.00 in0.0 mm 0.00 in0.0 mm
02:08 PM 20.5°F-6.4°C 5.3°F-14.8°C 51% 14.6 mph WNW23.5 kmh WNW 21.0 mph33.8 kmh 29.21 in989.2 mb 0.00 in0.0 mm 0.00 in0.0 mm 0.00 in0.0 mm
02:07 PM 20.7°F-6.3°C 5.5°F-14.7°C 51% 14.5 mph WNW23.3 kmh WNW 21.0 mph33.8 kmh 29.21 in989.2 mb 0.00 in0.0 mm 0.00 in0.0 mm 0.00 in0.0 mm
02:06 PM 20.7°F-6.3°C 5.5°F-14.7°C 51% 14.2 mph WNW22.9 kmh WNW 21.0 mph33.8 kmh 29.21 in989.2 mb 0.00 in0.0 mm 0.00 in0.0 mm 0.00 in0.0 mm
02:05 PM 20.5°F-6.4°C 5.3°F-14.8°C 51% 13.9 mph W22.4 kmh W 21.0 mph33.8 kmh 29.21 in989.2 mb 0.00 in0.0 mm 0.00 in0.0 mm 0.00 in0.0 mm
02:04 PM 20.5°F-6.4°C 5.3°F-14.8°C 51% 11.9 mph WNW19.2 kmh WNW 17.8 mph28.6 kmh 29.21 in989.2 mb 0.00 in0.0 mm 0.00 in0.0 mm 0.00 in0.0 mm
02:03 PM 20.5°F-6.4°C 5.3°F-14.8°C 51% 10.4 mph WNW16.7 kmh WNW 17.8 mph28.6 kmh 29.21 in989.2 mb 0.00 in0.0 mm 0.00 in0.0 mm 0.00 in0.0 mm
02:02 PM 20.3°F-6.5°C 5.1°F-14.9°C 51% 10.3 mph WNW16.6 kmh WNW 17.3 mph27.8 kmh 29.21 in989.2 mb 0.00 in0.0 mm 0.00 in0.0 mm 0.00 in0.0 mm
02:01 PM 20.3°F-6.5°C 5.6°F-14.7°C 53% 10.4 mph WNW16.7 kmh WNW 17.3 mph27.8 kmh 29.21 in989.2 mb 0.00 in0.0 mm 0.00 in0.0 mm 0.00 in0.0 mm
02:00 PM 20.1°F-6.6°C 5.4°F-14.8°C 53% 9.1 mph WNW14.6 kmh WNW 17.3 mph27.8 kmh 29.21 in989.2 mb 0.00 in0.0 mm 0.00 in0.0 mm 0.00 in0.0 mm
01:59 PM 19.9°F-6.7°C 5.3°F-14.8°C 53% 6.4 mph NW10.3 kmh NW 15.7 mph25.3 kmh 29.21 in989.2 mb 0.00 in0.0 mm 0.00 in0.0 mm 0.00 in0.0 mm
01:58 PM 19.8°F-6.8°C 5.2°F-14.9°C 53% 5.8 mph NW9.3 kmh NW 19.1 mph30.7 kmh 29.21 in989.2 mb 0.00 in0.0 mm 0.00 in0.0 mm 0.00 in0.0 mm
01:57 PM 19.2°F-7.1°C 4.6°F-15.2°C 53% 7.4 mph NNW11.9 kmh NNW 19.1 mph30.7 kmh 29.21 in989.2 mb 0.00 in0.0 mm 0.00 in0.0 mm 0.00 in0.0 mm
01:56 PM 19.0°F-7.2°C 4.4°F-15.3°C 53% 7.7 mph NW12.4 kmh NW 19.1 mph30.7 kmh 29.21 in989.2 mb 0.00 in0.0 mm 0.00 in0.0 mm 0.00 in0.0 mm
01:55 PM 18.7°F-7.4°C 4.1°F-15.5°C 53% 7.9 mph NW12.7 kmh NW 19.1 mph30.7 kmh 29.21 in989.2 mb 0.00 in0.0 mm 0.00 in0.0 mm 0.00 in0.0 mm
01:54 PM 18.1°F-7.7°C 3.1°F-16.1°C 51% 8.9 mph NW14.3 kmh NW 19.1 mph30.7 kmh 29.21 in989.2 mb 0.00 in0.0 mm 0.00 in0.0 mm 0.00 in0.0 mm
01:53 PM 18.1°F-7.7°C 3.1°F-16.1°C 51% 9.2 mph NW14.8 kmh NW 19.1 mph30.7 kmh 29.21 in989.2 mb 0.00 in0.0 mm 0.00 in0.0 mm 0.00 in0.0 mm
01:52 PM 17.8°F-7.9°C 2.8°F-16.2°C 51% 9.6 mph NW15.4 kmh NW 19.1 mph30.7 kmh 29.21 in989.2 mb 0.00 in0.0 mm 0.00 in0.0 mm 0.00 in0.0 mm
01:51 PM 17.8°F-7.9°C 2.8°F-16.2°C 51% 11.0 mph WNW17.7 kmh WNW 19.7 mph31.7 kmh 29.21 in989.2 mb 0.00 in0.0 mm 0.00 in0.0 mm 0.00 in0.0 mm
01:50 PM 17.6°F-8.0°C 3.1°F-16.1°C 53% 12.7 mph WNW20.4 kmh WNW 19.7 mph31.7 kmh 29.21 in989.2 mb 0.00 in0.0 mm 0.00 in0.0 mm 0.00 in0.0 mm
01:49 PM 17.6°F-8.0°C 3.1°F-16.1°C 53% 13.6 mph WNW21.9 kmh WNW 19.7 mph31.7 kmh 29.21 in989.2 mb 0.00 in0.0 mm 0.00 in0.0 mm 0.00 in0.0 mm
01:48 PM 17.6°F-8.0°C 3.1°F-16.1°C 53% 13.5 mph WNW21.7 kmh WNW 19.7 mph31.7 kmh 29.21 in989.2 mb 0.00 in0.0 mm 0.00 in0.0 mm 0.00 in0.0 mm
01:47 PM 17.6°F-8.0°C 3.1°F-16.1°C 53% 15.2 mph WNW24.5 kmh WNW 24.6 mph39.6 kmh 29.21 in989.2 mb 0.00 in0.0 mm 0.00 in0.0 mm 0.00 in0.0 mm
01:46 PM 17.8°F-7.9°C 2.8°F-16.2°C 51% 14.1 mph WNW22.7 kmh WNW 24.6 mph39.6 kmh 29.21 in989.2 mb 0.00 in0.0 mm 0.00 in0.0 mm 0.00 in0.0 mm
01:45 PM 18.1°F-7.7°C 3.1°F-16.1°C 51% 13.3 mph WNW21.4 kmh WNW 24.6 mph39.6 kmh 29.21 in989.2 mb 0.00 in0.0 mm 0.00 in0.0 mm 0.00 in0.0 mm
01:44 PM 18.3°F-7.6°C 3.3°F-15.9°C 51% 15.1 mph WNW24.3 kmh WNW 24.6 mph39.6 kmh 29.21 in989.2 mb 0.00 in0.0 mm 0.00 in0.0 mm 0.00 in0.0 mm
01:43 PM 18.3°F-7.6°C 3.3°F-15.9°C 51% 14.8 mph NW23.8 kmh NW 24.6 mph39.6 kmh 29.21 in989.2 mb 0.00 in0.0 mm 0.00 in0.0 mm 0.00 in0.0 mm
01:42 PM 18.3°F-7.6°C 3.3°F-15.9°C 51% 13.7 mph NW22.0 kmh NW 24.6 mph39.6 kmh 29.21 in989.2 mb 0.00 in0.0 mm 0.00 in0.0 mm 0.00 in0.0 mm
01:41 PM 18.7°F-7.4°C 4.2°F-15.4°C 53% 13.9 mph NW22.4 kmh NW 24.6 mph39.6 kmh 29.21 in989.2 mb 0.00 in0.0 mm 0.00 in0.0 mm 0.00 in0.0 mm
01:40 PM 19.4°F-7.0°C 4.8°F-15.1°C 53% 14.2 mph NW22.9 kmh NW 24.6 mph39.6 kmh 29.21 in989.2 mb 0.00 in0.0 mm 0.00 in0.0 mm 0.00 in0.0 mm
01:39 PM 19.6°F-6.9°C 5.0°F-15.0°C 53% 13.1 mph WNW21.1 kmh WNW 24.6 mph39.6 kmh 29.21 in989.2 mb 0.00 in0.0 mm 0.00 in0.0 mm 0.00 in0.0 mm
01:38 PM 19.6°F-6.9°C 5.0°F-15.0°C 53% 10.9 mph WNW17.5 kmh WNW 24.6 mph39.6 kmh 29.21 in989.2 mb 0.00 in0.0 mm 0.00 in0.0 mm 0.00 in0.0 mm
01:37 PM 19.6°F-6.9°C 5.0°F-15.0°C 53% 10.6 mph WNW17.1 kmh WNW 24.6 mph39.6 kmh 29.21 in989.2 mb 0.00 in0.0 mm 0.00 in0.0 mm 0.00 in0.0 mm
01:36 PM 19.6°F-6.9°C 5.0°F-15.0°C 53% 7.4 mph NW11.9 kmh NW 18.6 mph29.9 kmh 29.21 in989.2 mb 0.00 in0.0 mm 0.00 in0.0 mm 0.00 in0.0 mm
01:35 PM 19.6°F-6.9°C 5.0°F-15.0°C 53% 8.6 mph NW13.8 kmh NW 18.6 mph29.9 kmh 29.21 in989.2 mb 0.00 in0.0 mm 0.00 in0.0 mm 0.00 in0.0 mm
01:34 PM 19.4°F-7.0°C 4.8°F-15.1°C 53% 9.9 mph WNW15.9 kmh WNW 18.6 mph29.9 kmh 29.21 in989.2 mb 0.00 in0.0 mm 0.00 in0.0 mm 0.00 in0.0 mm
01:33 PM 19.4°F-7.0°C 4.8°F-15.1°C 53% 11.6 mph WNW18.7 kmh WNW 18.6 mph29.9 kmh 29.21 in989.2 mb 0.00 in0.0 mm 0.00 in0.0 mm 0.00 in0.0 mm
01:32 PM 19.0°F-7.2°C 4.5°F-15.3°C 53% 11.6 mph WNW18.7 kmh WNW 19.1 mph30.7 kmh 29.21 in989.2 mb 0.00 in0.0 mm 0.00 in0.0 mm 0.00 in0.0 mm
01:31 PM 19.0°F-7.2°C 4.5°F-15.3°C 53% 10.3 mph WNW16.6 kmh WNW 19.1 mph30.7 kmh 29.21 in989.2 mb 0.00 in0.0 mm 0.00 in0.0 mm 0.00 in0.0 mm
01:30 PM 18.9°F-7.3°C 4.4°F-15.3°C 53% 8.9 mph WNW14.3 kmh WNW 19.1 mph30.7 kmh 29.21 in989.2 mb 0.00 in0.0 mm 0.00 in0.0 mm 0.00 in0.0 mm
01:29 PM 18.5°F-7.5°C 4.0°F-15.6°C 53% 9.4 mph WNW15.1 kmh WNW 19.7 mph31.7 kmh 29.21 in989.2 mb 0.00 in0.0 mm 0.00 in0.0 mm 0.00 in0.0 mm
01:28 PM 18.3°F-7.6°C 3.8°F-15.7°C 53% 10.9 mph WNW17.5 kmh WNW 19.7 mph31.7 kmh 29.21 in989.2 mb 0.00 in0.0 mm 0.00 in0.0 mm 0.00 in0.0 mm
01:27 PM 18.3°F-7.6°C 3.8°F-15.7°C 53% 11.5 mph WNW18.5 kmh WNW 19.7 mph31.7 kmh 29.21 in989.2 mb 0.00 in0.0 mm 0.00 in0.0 mm 0.00 in0.0 mm
01:26 PM 18.0°F-7.8°C 3.5°F-15.8°C 53% 11.6 mph WNW18.7 kmh WNW 19.7 mph31.7 kmh 29.21 in989.2 mb 0.00 in0.0 mm 0.00 in0.0 mm 0.00 in0.0 mm
01:25 PM 17.8°F-7.9°C 3.3°F-15.9°C 53% 12.0 mph WNW19.3 kmh WNW 19.7 mph31.7 kmh 29.21 in989.2 mb 0.00 in0.0 mm 0.00 in0.0 mm 0.00 in0.0 mm
01:24 PM 17.8°F-7.9°C 3.3°F-15.9°C 53% 12.8 mph WNW20.6 kmh WNW 19.7 mph31.7 kmh 29.21 in989.2 mb 0.00 in0.0 mm 0.00 in0.0 mm 0.00 in0.0 mm
01:23 PM 17.6°F-8.0°C 3.2°F-16.0°C 53% 13.5 mph WNW21.7 kmh WNW 19.7 mph31.7 kmh 29.21 in989.2 mb 0.00 in0.0 mm 0.00 in0.0 mm 0.00 in0.0 mm
01:22 PM 17.6°F-8.0°C 3.2°F-16.0°C 53% 13.8 mph WNW22.2 kmh WNW 19.7 mph31.7 kmh 29.21 in989.2 mb 0.00 in0.0 mm 0.00 in0.0 mm 0.00 in0.0 mm
01:21 PM 17.6°F-8.0°C 3.2°F-16.0°C 53% 13.8 mph WNW22.2 kmh WNW 19.7 mph31.7 kmh 29.21 in989.2 mb 0.00 in0.0 mm 0.00 in0.0 mm 0.00 in0.0 mm
01:20 PM 17.2°F-8.2°C 2.8°F-16.2°C 53% 11.9 mph W19.2 kmh W 19.7 mph31.7 kmh 29.21 in989.2 mb 0.00 in0.0 mm 0.00 in0.0 mm 0.00 in0.0 mm
01:19 PM 17.2°F-8.2°C 2.8°F-16.2°C 53% 10.8 mph W17.4 kmh W 19.7 mph31.7 kmh 29.21 in989.2 mb 0.00 in0.0 mm 0.00 in0.0 mm 0.00 in0.0 mm
01:18 PM 17.1°F-8.3°C 2.7°F-16.3°C 53% 11.3 mph WNW18.2 kmh WNW 19.1 mph30.7 kmh 29.21 in989.2 mb 0.00 in0.0 mm 0.00 in0.0 mm 0.00 in0.0 mm
01:17 PM 17.1°F-8.3°C 2.7°F-16.3°C 53% 11.1 mph WNW17.9 kmh WNW 19.1 mph30.7 kmh 29.21 in989.2 mb 0.00 in0.0 mm 0.00 in0.0 mm 0.00 in0.0 mm
01:16 PM 17.1°F-8.3°C 3.2°F-16.0°C 54% 10.9 mph NW17.5 kmh NW 19.1 mph30.7 kmh 29.21 in989.2 mb 0.00 in0.0 mm 0.00 in0.0 mm 0.00 in0.0 mm
01:15 PM 17.1°F-8.3°C 3.2°F-16.0°C 54% 12.5 mph NW20.1 kmh NW 19.1 mph30.7 kmh 29.21 in989.2 mb 0.00 in0.0 mm 0.00 in0.0 mm 0.00 in0.0 mm
01:14 PM 17.1°F-8.3°C 3.2°F-16.0°C 54% 14.8 mph NW23.8 kmh NW 19.1 mph30.7 kmh 29.21 in989.2 mb 0.00 in0.0 mm 0.00 in0.0 mm 0.00 in0.0 mm
01:13 PM 17.1°F-8.3°C 3.2°F-16.0°C 54% 13.3 mph WNW21.4 kmh WNW 19.1 mph30.7 kmh 29.21 in989.2 mb 0.00 in0.0 mm 0.00 in0.0 mm 0.00 in0.0 mm
01:12 PM 16.9°F-8.4°C 2.5°F-16.4°C 53% 12.5 mph WNW20.1 kmh WNW 19.1 mph30.7 kmh 29.21 in989.2 mb 0.00 in0.0 mm 0.00 in0.0 mm 0.00 in0.0 mm
01:11 PM 16.9°F-8.4°C 2.5°F-16.4°C 53% 12.7 mph WNW20.4 kmh WNW 19.1 mph30.7 kmh 29.21 in989.2 mb 0.00 in0.0 mm 0.00 in0.0 mm 0.00 in0.0 mm
01:10 PM 16.9°F-8.4°C 3.0°F-16.1°C 54% 12.1 mph W19.5 kmh W 19.1 mph30.7 kmh 29.21 in989.2 mb 0.00 in0.0 mm 0.00 in0.0 mm 0.00 in0.0 mm
01:09 PM 16.9°F-8.4°C 2.5°F-16.4°C 53% 13.3 mph WNW21.4 kmh WNW 19.1 mph30.7 kmh 29.21 in989.2 mb 0.00 in0.0 mm 0.00 in0.0 mm 0.00 in0.0 mm
01:08 PM 16.9°F-8.4°C 2.5°F-16.4°C 53% 15.0 mph WNW24.1 kmh WNW 19.1 mph30.7 kmh 29.21 in989.2 mb 0.00 in0.0 mm 0.00 in0.0 mm 0.00 in0.0 mm
01:07 PM 16.5°F-8.6°C 2.6°F-16.3°C 54% 14.6 mph WNW23.5 kmh WNW 19.1 mph30.7 kmh 29.21 in989.2 mb 0.00 in0.0 mm 0.00 in0.0 mm 0.00 in0.0 mm
01:06 PM 16.7°F-8.5°C 2.8°F-16.2°C 54% 12.3 mph WNW19.8 kmh WNW 19.1 mph30.7 kmh 29.21 in989.2 mb 0.00 in0.0 mm 0.00 in0.0 mm 0.00 in0.0 mm
01:05 PM 16.9°F-8.4°C 3.0°F-16.1°C 54% 11.5 mph NW18.5 kmh NW 19.1 mph30.7 kmh 29.21 in989.2 mb 0.00 in0.0 mm 0.00 in0.0 mm 0.00 in0.0 mm
01:04 PM 16.9°F-8.4°C 3.0°F-16.1°C 54% 12.2 mph WNW19.6 kmh WNW 19.1 mph30.7 kmh 29.21 in989.2 mb 0.00 in0.0 mm 0.00 in0.0 mm 0.00 in0.0 mm
01:03 PM 16.7°F-8.5°C 2.8°F-16.2°C 54% 13.2 mph WNW21.2 kmh WNW 19.1 mph30.7 kmh 29.21 in989.2 mb 0.00 in0.0 mm 0.00 in0.0 mm 0.00 in0.0 mm
01:02 PM 16.7°F-8.5°C 2.8°F-16.2°C 54% 14.8 mph WNW23.8 kmh WNW 19.1 mph30.7 kmh 29.21 in989.2 mb 0.00 in0.0 mm 0.00 in0.0 mm 0.00 in0.0 mm
01:01 PM 16.5°F-8.6°C 2.6°F-16.3°C 54% 14.9 mph WNW24.0 kmh WNW 19.1 mph30.7 kmh 29.21 in989.2 mb 0.00 in0.0 mm 0.00 in0.0 mm 0.00 in0.0 mm
01:00 PM 16.7°F-8.5°C 2.8°F-16.2°C 54% 13.2 mph WNW21.2 kmh WNW 19.1 mph30.7 kmh 29.21 in989.2 mb 0.00 in0.0 mm 0.00 in0.0 mm 0.00 in0.0 mm
12:59 PM 16.7°F-8.5°C 3.3°F-15.9°C 55% 13.0 mph NW20.9 kmh NW 18.6 mph29.9 kmh 29.21 in989.2 mb 0.00 in0.0 mm 0.00 in0.0 mm 0.00 in0.0 mm
12:58 PM 16.7°F-8.5°C 3.3°F-15.9°C 55% 11.2 mph NW18.0 kmh NW 18.6 mph29.9 kmh 29.21 in989.2 mb 0.00 in0.0 mm 0.00 in0.0 mm 0.00 in0.0 mm
12:57 PM 16.7°F-8.5°C 3.3°F-15.9°C 55% 8.8 mph NW14.2 kmh NW 17.8 mph28.6 kmh 29.21 in989.2 mb 0.00 in0.0 mm 0.00 in0.0 mm 0.00 in0.0 mm
12:56 PM 16.5°F-8.6°C 3.1°F-16.1°C 55% 8.2 mph NW13.2 kmh NW 15.2 mph24.5 kmh 29.21 in989.2 mb 0.00 in0.0 mm 0.00 in0.0 mm 0.00 in0.0 mm
12:55 PM 16.3°F-8.7°C 2.9°F-16.2°C 55% 7.2 mph NW11.6 kmh NW 15.2 mph24.5 kmh 29.21 in989.2 mb 0.00 in0.0 mm 0.00 in0.0 mm 0.00 in0.0 mm
12:54 PM 16.2°F-8.8°C 2.8°F-16.2°C 55% 7.4 mph NW11.9 kmh NW 15.2 mph24.5 kmh 29.21 in989.2 mb 0.00 in0.0 mm 0.00 in0.0 mm 0.00 in0.0 mm
12:53 PM 16.2°F-8.8°C 2.8°F-16.2°C 55% 8.0 mph NW12.9 kmh NW 15.2 mph24.5 kmh 29.21 in989.2 mb 0.00 in0.0 mm 0.00 in0.0 mm 0.00 in0.0 mm
12:52 PM 16.0°F-8.9°C 2.7°F-16.3°C 55% 8.1 mph NW13.0 kmh NW 15.2 mph24.5 kmh 29.21 in989.2 mb 0.00 in0.0 mm 0.00 in0.0 mm 0.00 in0.0 mm
12:51 PM 15.8°F-9.0°C 2.9°F-16.2°C 56% 8.5 mph NNW13.7 kmh NNW 15.2 mph24.5 kmh 29.21 in989.2 mb 0.00 in0.0 mm 0.00 in0.0 mm 0.00 in0.0 mm
12:50 PM 15.8°F-9.0°C 2.9°F-16.2°C 56% 8.8 mph NW14.2 kmh NW 15.2 mph24.5 kmh 29.21 in989.2 mb 0.00 in0.0 mm 0.00 in0.0 mm 0.00 in0.0 mm
12:49 PM 15.6°F-9.1°C 2.3°F-16.5°C 55% 9.0 mph NW14.5 kmh NW 15.2 mph24.5 kmh 29.21 in989.2 mb 0.00 in0.0 mm 0.00 in0.0 mm 0.00 in0.0 mm
12:48 PM 15.4°F-9.2°C 2.1°F-16.6°C 55% 8.2 mph NW13.2 kmh NW 15.2 mph24.5 kmh 29.21 in989.2 mb 0.00 in0.0 mm 0.00 in0.0 mm 0.00 in0.0 mm
12:47 PM 15.3°F-9.3°C 2.0°F-16.7°C 55% 7.8 mph WNW12.6 kmh WNW 15.2 mph24.5 kmh 29.21 in989.2 mb 0.00 in0.0 mm 0.00 in0.0 mm 0.00 in0.0 mm
12:46 PM 15.3°F-9.3°C 2.0°F-16.7°C 55% 9.2 mph NW14.8 kmh NW 15.2 mph24.5 kmh 29.21 in989.2 mb 0.00 in0.0 mm 0.00 in0.0 mm 0.00 in0.0 mm
12:44 PM 14.9°F-9.5°C 1.6°F-16.9°C 55% 9.5 mph NW15.3 kmh NW 15.2 mph24.5 kmh 29.21 in989.2 mb 0.00 in0.0 mm 0.00 in0.0 mm 0.00 in0.0 mm
12:43 PM 14.5°F-9.7°C 1.3°F-17.1°C 55% 6.3 mph NW10.1 kmh NW 14.6 mph23.5 kmh 29.21 in989.2 mb 0.00 in0.0 mm 0.00 in0.0 mm 0.00 in0.0 mm
12:42 PM 14.4°F-9.8°C 1.2°F-17.1°C 55% 5.9 mph NW9.5 kmh NW 17.8 mph28.6 kmh 29.21 in989.2 mb 0.00 in0.0 mm 0.00 in0.0 mm 0.00 in0.0 mm
12:41 PM 14.4°F-9.8°C 1.2°F-17.1°C 55% 6.8 mph NW10.9 kmh NW 17.8 mph28.6 kmh 29.21 in989.2 mb 0.00 in0.0 mm 0.00 in0.0 mm 0.00 in0.0 mm
12:40 PM 14.2°F-9.9°C 1.0°F-17.2°C 55% 7.4 mph NW11.9 kmh NW 17.8 mph28.6 kmh 29.21 in989.2 mb 0.00 in0.0 mm 0.00 in0.0 mm 0.00 in0.0 mm
12:39 PM 14.2°F-9.9°C 1.0°F-17.2°C 55% 8.0 mph NW12.9 kmh NW 17.8 mph28.6 kmh 29.21 in989.2 mb 0.00 in0.0 mm 0.00 in0.0 mm 0.00 in0.0 mm
12:38 PM 14.2°F-9.9°C 1.0°F-17.2°C 55% 8.4 mph NW13.5 kmh NW 17.8 mph28.6 kmh 29.21 in989.2 mb 0.00 in0.0 mm 0.00 in0.0 mm 0.00 in0.0 mm
12:37 PM 14.4°F-9.8°C 1.2°F-17.1°C 55% 8.8 mph NW14.2 kmh NW 17.8 mph28.6 kmh 29.21 in989.2 mb 0.00 in0.0 mm 0.00 in0.0 mm 0.00 in0.0 mm
12:36 PM 14.4°F-9.8°C 1.2°F-17.1°C 55% 9.1 mph NW14.6 kmh NW 17.8 mph28.6 kmh 29.21 in989.2 mb 0.00 in0.0 mm 0.00 in0.0 mm 0.00 in0.0 mm
12:35 PM 14.4°F-9.8°C 1.2°F-17.1°C 55% 9.2 mph NW14.8 kmh NW 17.8 mph28.6 kmh 29.21 in989.2 mb 0.00 in0.0 mm 0.00 in0.0 mm 0.00 in0.0 mm
12:34 PM 14.4°F-9.8°C 1.2°F-17.1°C 55% 10.1 mph NW16.3 kmh NW 17.8 mph28.6 kmh 29.21 in989.2 mb 0.00 in0.0 mm 0.00 in0.0 mm 0.00 in0.0 mm
12:33 PM 14.4°F-9.8°C 1.2°F-17.1°C 55% 9.7 mph NW15.6 kmh NW 17.8 mph28.6 kmh 29.21 in989.2 mb 0.00 in0.0 mm 0.00 in0.0 mm 0.00 in0.0 mm
12:32 PM 14.4°F-9.8°C 1.2°F-17.1°C 55% 9.3 mph NW15.0 kmh NW 15.9 mph25.6 kmh 29.21 in989.2 mb 0.00 in0.0 mm 0.00 in0.0 mm 0.00 in0.0 mm
12:31 PM 14.4°F-9.8°C 1.2°F-17.1°C 55% 9.7 mph NW15.6 kmh NW 15.9 mph25.6 kmh 29.21 in989.2 mb 0.00 in0.0 mm 0.00 in0.0 mm 0.00 in0.0 mm
12:30 PM 14.4°F-9.8°C 1.2°F-17.1°C 55% 9.0 mph NW14.5 kmh NW 15.9 mph25.6 kmh 29.21 in989.2 mb 0.00 in0.0 mm 0.00 in0.0 mm 0.00 in0.0 mm
12:29 PM 14.4°F-9.8°C 1.2°F-17.1°C 55% 8.3 mph NW13.4 kmh NW 15.9 mph25.6 kmh 29.21 in989.2 mb 0.00 in0.0 mm 0.00 in0.0 mm 0.00 in0.0 mm
12:28 PM 14.4°F-9.8°C 1.2°F-17.1°C 55% 8.7 mph NW14.0 kmh NW 15.9 mph25.6 kmh 29.21 in989.2 mb 0.00 in0.0 mm 0.00 in0.0 mm 0.00 in0.0 mm
12:27 PM 14.4°F-9.8°C 1.2°F-17.1°C 55% 9.2 mph NW14.8 kmh NW 15.9 mph25.6 kmh 29.21 in989.2 mb 0.00 in0.0 mm 0.00 in0.0 mm 0.00 in0.0 mm
12:26 PM 14.2°F-9.9°C 1.0°F-17.2°C 55% 9.4 mph NNW15.1 kmh NNW 15.9 mph25.6 kmh 29.21 in989.2 mb 0.00 in0.0 mm 0.00 in0.0 mm 0.00 in0.0 mm
12:25 PM 14.2°F-9.9°C 1.0°F-17.2°C 55% 9.9 mph NW15.9 kmh NW 15.9 mph25.6 kmh 29.21 in989.2 mb 0.00 in0.0 mm 0.00 in0.0 mm 0.00 in0.0 mm
12:24 PM 14.0°F-10.0°C 1.3°F-17.1°C 56% 9.6 mph NNW15.4 kmh NNW 15.9 mph25.6 kmh 29.23 in989.8 mb 0.00 in0.0 mm 0.00 in0.0 mm 0.00 in0.0 mm
12:23 PM 14.0°F-10.0°C 1.3°F-17.1°C 56% 8.3 mph NNW13.4 kmh NNW 15.9 mph25.6 kmh 29.23 in989.8 mb 0.00 in0.0 mm 0.00 in0.0 mm 0.00 in0.0 mm
12:22 PM 13.8°F-10.1°C 1.1°F-17.2°C 56% 7.9 mph NNW12.7 kmh NNW 14.6 mph23.5 kmh 29.23 in989.8 mb 0.00 in0.0 mm 0.00 in0.0 mm 0.00 in0.0 mm
12:21 PM 13.8°F-10.1°C 1.1°F-17.2°C 56% 9.1 mph NNW14.6 kmh NNW 14.6 mph23.5 kmh 29.23 in989.8 mb 0.00 in0.0 mm 0.00 in0.0 mm 0.00 in0.0 mm
12:20 PM 13.8°F-10.1°C 1.1°F-17.2°C 56% 9.9 mph NNW15.9 kmh NNW 18.6 mph29.9 kmh 29.23 in989.8 mb 0.00 in0.0 mm 0.00 in0.0 mm 0.00 in0.0 mm
12:19 PM 13.8°F-10.1°C 1.1°F-17.2°C 56% 10.4 mph NNW16.7 kmh NNW 18.6 mph29.9 kmh 29.23 in989.8 mb 0.00 in0.0 mm 0.00 in0.0 mm 0.00 in0.0 mm
12:18 PM 13.8°F-10.1°C 1.1°F-17.2°C 56% 9.9 mph NNW15.9 kmh NNW 18.6 mph29.9 kmh 29.23 in989.8 mb 0.00 in0.0 mm 0.00 in0.0 mm 0.00 in0.0 mm
12:17 PM 14.0°F-10.0°C 1.3°F-17.1°C 56% 9.6 mph NNW15.4 kmh NNW 18.6 mph29.9 kmh 29.23 in989.8 mb 0.00 in0.0 mm 0.00 in0.0 mm 0.00 in0.0 mm
12:16 PM 14.0°F-10.0°C 1.3°F-17.1°C 56% 9.4 mph NNW15.1 kmh NNW 18.6 mph29.9 kmh 29.23 in989.8 mb 0.00 in0.0 mm 0.00 in0.0 mm 0.00 in0.0 mm
12:15 PM 14.0°F-10.0°C 1.3°F-17.1°C 56% 9.3 mph NNW15.0 kmh NNW 18.6 mph29.9 kmh 29.23 in989.8 mb 0.00 in0.0 mm 0.00 in0.0 mm 0.00 in0.0 mm
12:14 PM 14.2°F-9.9°C 1.5°F-16.9°C 56% 9.1 mph NNW14.6 kmh NNW 18.6 mph29.9 kmh 29.23 in989.8 mb 0.00 in0.0 mm 0.00 in0.0 mm 0.00 in0.0 mm
12:13 PM 14.2°F-9.9°C 1.5°F-16.9°C 56% 9.1 mph NW14.6 kmh NW 18.6 mph29.9 kmh 29.23 in989.8 mb 0.00 in0.0 mm 0.00 in0.0 mm 0.00 in0.0 mm
12:12 PM 14.2°F-9.9°C 1.5°F-16.9°C 56% 9.3 mph NW15.0 kmh NW 18.6 mph29.9 kmh 29.23 in989.8 mb 0.00 in0.0 mm 0.00 in0.0 mm 0.00 in0.0 mm
12:11 PM 14.0°F-10.0°C 1.3°F-17.1°C 56% 7.5 mph NNW12.1 kmh NNW 18.6 mph29.9 kmh 29.23 in989.8 mb 0.00 in0.0 mm 0.00 in0.0 mm 0.00 in0.0 mm
12:10 PM 14.0°F-10.0°C 1.3°F-17.1°C 56% 5.7 mph NW9.2 kmh NW 18.6 mph29.9 kmh 29.23 in989.8 mb 0.00 in0.0 mm 0.00 in0.0 mm 0.00 in0.0 mm
12:09 PM 13.8°F-10.1°C 1.1°F-17.2°C 56% 6.9 mph NW11.1 kmh NW 14.6 mph23.5 kmh 29.23 in989.8 mb 0.00 in0.0 mm 0.00 in0.0 mm 0.00 in0.0 mm
12:08 PM 13.8°F-10.1°C 1.1°F-17.2°C 56% 7.8 mph NNW12.6 kmh NNW 19.1 mph30.7 kmh 29.21 in989.2 mb 0.00 in0.0 mm 0.00 in0.0 mm 0.00 in0.0 mm
12:07 PM 13.8°F-10.1°C 1.1°F-17.2°C 56% 7.1 mph NNW11.4 kmh NNW 19.1 mph30.7 kmh 29.21 in989.2 mb 0.00 in0.0 mm 0.00 in0.0 mm 0.00 in0.0 mm
12:06 PM 13.6°F-10.2°C 0.9°F-17.3°C 56% 6.1 mph NW9.8 kmh NW 19.1 mph30.7 kmh 29.21 in989.2 mb 0.00 in0.0 mm 0.00 in0.0 mm 0.00 in0.0 mm
12:05 PM 13.6°F-10.2°C 0.9°F-17.3°C 56% 7.7 mph NW12.4 kmh NW 19.1 mph30.7 kmh 29.21 in989.2 mb 0.00 in0.0 mm 0.00 in0.0 mm 0.00 in0.0 mm
12:04 PM 13.6°F-10.2°C 0.9°F-17.3°C 56% 8.9 mph NW14.3 kmh NW 23.1 mph37.2 kmh 29.21 in989.2 mb 0.00 in0.0 mm 0.00 in0.0 mm 0.00 in0.0 mm
12:03 PM 13.6°F-10.2°C 0.9°F-17.3°C 56% 8.9 mph NW14.3 kmh NW 23.1 mph37.2 kmh 29.21 in989.2 mb 0.00 in0.0 mm 0.00 in0.0 mm 0.00 in0.0 mm
12:02 PM 13.6°F-10.2°C 0.9°F-17.3°C 56% 8.7 mph NNW14.0 kmh NNW 23.1 mph37.2 kmh 29.21 in989.2 mb 0.00 in0.0 mm 0.00 in0.0 mm 0.00 in0.0 mm
12:01 PM 13.8°F-10.1°C 1.1°F-17.2°C 56% 9.5 mph NNW15.3 kmh NNW 23.1 mph37.2 kmh 29.21 in989.2 mb 0.00 in0.0 mm 0.00 in0.0 mm 0.00 in0.0 mm
12:00 PM 13.8°F-10.1°C 1.1°F-17.2°C 56% 10.9 mph NNW17.5 kmh NNW 23.1 mph37.2 kmh 29.21 in989.2 mb 0.00 in0.0 mm 0.00 in0.0 mm 0.00 in0.0 mm
11:59 AM 13.8°F-10.1°C 1.1°F-17.2°C 56% 11.4 mph NNW18.3 kmh NNW 23.1 mph37.2 kmh 29.21 in989.2 mb 0.00 in0.0 mm 0.00 in0.0 mm 0.00 in0.0 mm
11:58 AM 13.8°F-10.1°C 1.1°F-17.2°C 56% 10.6 mph NNW17.1 kmh NNW 23.1 mph37.2 kmh 29.21 in989.2 mb 0.00 in0.0 mm 0.00 in0.0 mm 0.00 in0.0 mm
11:57 AM 14.0°F-10.0°C 1.3°F-17.1°C 56% 10.2 mph NNW16.4 kmh NNW 23.1 mph37.2 kmh 29.21 in989.2 mb 0.00 in0.0 mm 0.00 in0.0 mm 0.00 in0.0 mm
11:56 AM 14.0°F-10.0°C 1.3°F-17.1°C 56% 9.8 mph NNW15.8 kmh NNW 23.1 mph37.2 kmh 29.21 in989.2 mb 0.00 in0.0 mm 0.00 in0.0 mm 0.00 in0.0 mm
11:55 AM 14.0°F-10.0°C 1.3°F-17.1°C 56% 8.7 mph NW14.0 kmh NW 23.1 mph37.2 kmh 29.21 in989.2 mb 0.00 in0.0 mm 0.00 in0.0 mm 0.00 in0.0 mm
11:54 AM 14.0°F-10.0°C 1.7°F-16.8°C 57% 8.7 mph NW14.0 kmh NW 15.9 mph25.6 kmh 29.21 in989.2 mb 0.00 in0.0 mm 0.00 in0.0 mm 0.00 in0.0 mm
11:53 AM 14.0°F-10.0°C 1.3°F-17.1°C 56% 9.0 mph NW14.5 kmh NW 15.9 mph25.6 kmh 29.21 in989.2 mb 0.00 in0.0 mm 0.00 in0.0 mm 0.00 in0.0 mm
11:52 AM 14.0°F-10.0°C 1.3°F-17.1°C 56% 8.7 mph NNW14.0 kmh NNW 15.9 mph25.6 kmh 29.21 in989.2 mb 0.00 in0.0 mm 0.00 in0.0 mm 0.00 in0.0 mm
11:51 AM 14.0°F-10.0°C 1.3°F-17.1°C 56% 8.6 mph NW13.8 kmh NW 15.9 mph25.6 kmh 29.21 in989.2 mb 0.00 in0.0 mm 0.00 in0.0 mm 0.00 in0.0 mm
11:50 AM 14.0°F-10.0°C 1.3°F-17.1°C 56% 8.9 mph NW14.3 kmh NW 15.9 mph25.6 kmh 29.21 in989.2 mb 0.00 in0.0 mm 0.00 in0.0 mm 0.00 in0.0 mm
11:49 AM 13.8°F-10.1°C 1.1°F-17.2°C 56% 9.1 mph NW14.6 kmh NW 15.9 mph25.6 kmh 29.21 in989.2 mb 0.00 in0.0 mm 0.00 in0.0 mm 0.00 in0.0 mm
11:48 AM 13.8°F-10.1°C 1.1°F-17.2°C 56% 9.6 mph NW15.4 kmh NW 15.9 mph25.6 kmh 29.21 in989.2 mb 0.00 in0.0 mm 0.00 in0.0 mm 0.00 in0.0 mm
11:47 AM 13.8°F-10.1°C 1.1°F-17.2°C 56% 10.4 mph NW16.7 kmh NW 15.9 mph25.6 kmh 29.21 in989.2 mb 0.00 in0.0 mm 0.00 in0.0 mm 0.00 in0.0 mm
11:46 AM 13.8°F-10.1°C 1.1°F-17.2°C 56% 10.4 mph NW16.7 kmh NW 15.9 mph25.6 kmh 29.21 in989.2 mb 0.00 in0.0 mm 0.00 in0.0 mm 0.00 in0.0 mm
11:45 AM 14.0°F-10.0°C 1.3°F-17.1°C 56% 9.4 mph NW15.1 kmh NW 15.9 mph25.6 kmh 29.21 in989.2 mb 0.00 in0.0 mm 0.00 in0.0 mm 0.00 in0.0 mm
11:44 AM 13.8°F-10.1°C 1.1°F-17.2°C 56% 8.2 mph NW13.2 kmh NW 15.9 mph25.6 kmh 29.21 in989.2 mb 0.00 in0.0 mm 0.00 in0.0 mm 0.00 in0.0 mm
11:43 AM 13.8°F-10.1°C 1.1°F-17.2°C 56% 8.4 mph NW13.5 kmh NW 15.9 mph25.6 kmh 29.21 in989.2 mb 0.00 in0.0 mm 0.00 in0.0 mm 0.00 in0.0 mm
11:42 AM 13.8°F-10.1°C 1.1°F-17.2°C 56% 8.8 mph NW14.2 kmh NW 15.9 mph25.6 kmh 29.21 in989.2 mb 0.00 in0.0 mm 0.00 in0.0 mm 0.00 in0.0 mm
11:41 AM 14.2°F-9.9°C 1.5°F-16.9°C 56% 9.8 mph NW15.8 kmh NW 15.9 mph25.6 kmh 29.21 in989.2 mb 0.00 in0.0 mm 0.00 in0.0 mm 0.00 in0.0 mm
11:40 AM 14.2°F-9.9°C 1.5°F-16.9°C 56% 9.7 mph NW15.6 kmh NW 15.9 mph25.6 kmh 29.21 in989.2 mb 0.00 in0.0 mm 0.00 in0.0 mm 0.00 in0.0 mm
11:39 AM 14.4°F-9.8°C 1.6°F-16.9°C 56% 10.9 mph NW17.5 kmh NW 15.9 mph25.6 kmh 29.21 in989.2 mb 0.00 in0.0 mm 0.00 in0.0 mm 0.00 in0.0 mm
11:38 AM 14.4°F-9.8°C 2.1°F-16.6°C 57% 11.0 mph NW17.7 kmh NW 15.9 mph25.6 kmh 29.21 in989.2 mb 0.00 in0.0 mm 0.00 in0.0 mm 0.00 in0.0 mm
11:37 AM 14.4°F-9.8°C 2.1°F-16.6°C 57% 8.1 mph NW13.0 kmh NW 15.9 mph25.6 kmh 29.21 in989.2 mb 0.00 in0.0 mm 0.00 in0.0 mm 0.00 in0.0 mm
11:36 AM 14.4°F-9.8°C 2.1°F-16.6°C 57% 8.2 mph NW13.2 kmh NW 15.9 mph25.6 kmh 29.21 in989.2 mb 0.00 in0.0 mm 0.00 in0.0 mm 0.00 in0.0 mm
11:35 AM 14.5°F-9.7°C 2.2°F-16.6°C 57% 10.0 mph NW16.1 kmh NW 15.9 mph25.6 kmh 29.21 in989.2 mb 0.00 in0.0 mm 0.00 in0.0 mm 0.00 in0.0 mm
11:34 AM 14.5°F-9.7°C 2.2°F-16.6°C 57% 10.3 mph NW16.6 kmh NW 15.9 mph25.6 kmh 29.21 in989.2 mb 0.00 in0.0 mm 0.00 in0.0 mm 0.00 in0.0 mm
11:33 AM 14.4°F-9.8°C 2.1°F-16.6°C 57% 10.1 mph NW16.3 kmh NW 17.8 mph28.6 kmh 29.21 in989.2 mb 0.00 in0.0 mm 0.00 in0.0 mm 0.00 in0.0 mm
11:32 AM 14.4°F-9.8°C 2.1°F-16.6°C 57% 9.4 mph WNW15.1 kmh WNW 17.8 mph28.6 kmh 29.21 in989.2 mb 0.00 in0.0 mm 0.00 in0.0 mm 0.00 in0.0 mm
11:31 AM 14.4°F-9.8°C 2.1°F-16.6°C 57% 7.7 mph NW12.4 kmh NW 17.8 mph28.6 kmh 29.21 in989.2 mb 0.00 in0.0 mm 0.00 in0.0 mm 0.00 in0.0 mm
11:30 AM 14.4°F-9.8°C 2.1°F-16.6°C 57% 7.2 mph NW11.6 kmh NW 17.8 mph28.6 kmh 29.21 in989.2 mb 0.00 in0.0 mm 0.00 in0.0 mm 0.00 in0.0 mm
11:29 AM 14.4°F-9.8°C 2.1°F-16.6°C 57% 7.7 mph NW12.4 kmh NW 17.8 mph28.6 kmh 29.21 in989.2 mb 0.00 in0.0 mm 0.00 in0.0 mm 0.00 in0.0 mm
11:28 AM 14.4°F-9.8°C 2.1°F-16.6°C 57% 7.3 mph NW11.7 kmh NW 17.8 mph28.6 kmh 29.21 in989.2 mb 0.00 in0.0 mm 0.00 in0.0 mm 0.00 in0.0 mm
11:27 AM 14.2°F-9.9°C 1.9°F-16.7°C 57% 7.1 mph NW11.4 kmh NW 17.8 mph28.6 kmh 29.21 in989.2 mb 0.00 in0.0 mm 0.00 in0.0 mm 0.00 in0.0 mm
11:26 AM 14.2°F-9.9°C 1.9°F-16.7°C 57% 9.2 mph NW14.8 kmh NW 17.8 mph28.6 kmh 29.21 in989.2 mb 0.00 in0.0 mm 0.00 in0.0 mm 0.00 in0.0 mm
11:25 AM 14.2°F-9.9°C 1.9°F-16.7°C 57% 10.7 mph NW17.2 kmh NW 17.8 mph28.6 kmh 29.21 in989.2 mb 0.00 in0.0 mm 0.00 in0.0 mm 0.00 in0.0 mm
11:24 AM 14.2°F-9.9°C 1.9°F-16.7°C 57% 9.3 mph NW15.0 kmh NW 17.8 mph28.6 kmh 29.21 in989.2 mb 0.00 in0.0 mm 0.00 in0.0 mm 0.00 in0.0 mm
11:23 AM 14.2°F-9.9°C 1.9°F-16.7°C 57% 6.4 mph NW10.3 kmh NW 12.6 mph20.3 kmh 29.21 in989.2 mb 0.00 in0.0 mm 0.00 in0.0 mm 0.00 in0.0 mm
11:22 AM 14.2°F-9.9°C 1.9°F-16.7°C 57% 6.6 mph NW10.6 kmh NW 12.6 mph20.3 kmh 29.21 in989.2 mb 0.00 in0.0 mm 0.00 in0.0 mm 0.00 in0.0 mm
11:21 AM 14.2°F-9.9°C 1.9°F-16.7°C 57% 8.0 mph NW12.9 kmh NW 12.6 mph20.3 kmh 29.21 in989.2 mb 0.00 in0.0 mm 0.00 in0.0 mm 0.00 in0.0 mm
11:20 AM 14.2°F-9.9°C 1.9°F-16.7°C 57% 8.7 mph NW14.0 kmh NW 12.6 mph20.3 kmh 29.21 in989.2 mb 0.00 in0.0 mm 0.00 in0.0 mm 0.00 in0.0 mm
11:19 AM 14.4°F-9.8°C 2.1°F-16.6°C 57% 8.7 mph NW14.0 kmh NW 14.6 mph23.5 kmh 29.21 in989.2 mb 0.00 in0.0 mm 0.00 in0.0 mm 0.00 in0.0 mm
11:18 AM 14.2°F-9.9°C 1.9°F-16.7°C 57% 8.4 mph NNW13.5 kmh NNW 14.6 mph23.5 kmh 29.21 in989.2 mb 0.00 in0.0 mm 0.00 in0.0 mm 0.00 in0.0 mm
11:17 AM 14.4°F-9.8°C 2.5°F-16.4°C 59% 8.0 mph NNW12.9 kmh NNW 14.6 mph23.5 kmh 29.21 in989.2 mb 0.00 in0.0 mm 0.00 in0.0 mm 0.00 in0.0 mm
11:16 AM 14.4°F-9.8°C 2.5°F-16.4°C 59% 8.2 mph NW13.2 kmh NW 14.6 mph23.5 kmh 29.21 in989.2 mb 0.00 in0.0 mm 0.00 in0.0 mm 0.00 in0.0 mm
11:15 AM 14.4°F-9.8°C 2.5°F-16.4°C 59% 8.8 mph NNW14.2 kmh NNW 14.6 mph23.5 kmh 29.21 in989.2 mb 0.00 in0.0 mm 0.00 in0.0 mm 0.00 in0.0 mm
11:14 AM 14.4°F-9.8°C 2.5°F-16.4°C 59% 8.6 mph NNW13.8 kmh NNW 14.6 mph23.5 kmh 29.21 in989.2 mb 0.00 in0.0 mm 0.00 in0.0 mm 0.00 in0.0 mm
11:13 AM 14.4°F-9.8°C 2.5°F-16.4°C 59% 8.2 mph NNW13.2 kmh NNW 14.6 mph23.5 kmh 29.21 in989.2 mb 0.00 in0.0 mm 0.00 in0.0 mm 0.00 in0.0 mm
11:12 AM 14.2°F-9.9°C 2.3°F-16.5°C 59% 8.9 mph NW14.3 kmh NW 15.2 mph24.5 kmh 29.21 in989.2 mb 0.00 in0.0 mm 0.00 in0.0 mm 0.00 in0.0 mm
11:11 AM 14.2°F-9.9°C 2.3°F-16.5°C 59% 9.2 mph NW14.8 kmh NW 15.2 mph24.5 kmh 29.21 in989.2 mb 0.00 in0.0 mm 0.00 in0.0 mm 0.00 in0.0 mm
11:10 AM 14.2°F-9.9°C 2.3°F-16.5°C 59% 8.4 mph NW13.5 kmh NW 15.9 mph25.6 kmh 29.21 in989.2 mb 0.00 in0.0 mm 0.00 in0.0 mm 0.00 in0.0 mm
11:09 AM 14.2°F-9.9°C 2.3°F-16.5°C 59% 7.4 mph NW11.9 kmh NW 15.9 mph25.6 kmh 29.21 in989.2 mb 0.00 in0.0 mm 0.00 in0.0 mm 0.00 in0.0 mm
11:08 AM 14.2°F-9.9°C 2.3°F-16.5°C 59% 8.3 mph NW13.4 kmh NW 22.3 mph35.9 kmh 29.21 in989.2 mb 0.00 in0.0 mm 0.00 in0.0 mm 0.00 in0.0 mm
11:07 AM 14.2°F-9.9°C 2.3°F-16.5°C 59% 8.9 mph NW14.3 kmh NW 22.3 mph35.9 kmh 29.21 in989.2 mb 0.00 in0.0 mm 0.00 in0.0 mm 0.00 in0.0 mm
11:06 AM 14.2°F-9.9°C 2.3°F-16.5°C 59% 8.9 mph NW14.3 kmh NW 22.3 mph35.9 kmh 29.21 in989.2 mb 0.00 in0.0 mm 0.00 in0.0 mm 0.00 in0.0 mm
11:05 AM 14.2°F-9.9°C 2.3°F-16.5°C 59% 9.3 mph NW15.0 kmh NW 22.3 mph35.9 kmh 29.21 in989.2 mb 0.00 in0.0 mm 0.00 in0.0 mm 0.00 in0.0 mm
11:04 AM 14.2°F-9.9°C 2.3°F-16.5°C 59% 10.3 mph NW16.6 kmh NW 22.3 mph35.9 kmh 29.21 in989.2 mb 0.00 in0.0 mm 0.00 in0.0 mm 0.00 in0.0 mm
11:03 AM 14.0°F-10.0°C 2.6°F-16.3°C 60% 10.5 mph NW16.9 kmh NW 22.3 mph35.9 kmh 29.21 in989.2 mb 0.00 in0.0 mm 0.00 in0.0 mm 0.00 in0.0 mm
11:02 AM 13.8°F-10.1°C 2.4°F-16.4°C 60% 9.8 mph NW15.8 kmh NW 22.3 mph35.9 kmh 29.21 in989.2 mb 0.00 in0.0 mm 0.00 in0.0 mm 0.00 in0.0 mm
11:01 AM 13.8°F-10.1°C 2.4°F-16.4°C 60% 9.8 mph NW15.8 kmh NW 22.3 mph35.9 kmh 29.21 in989.2 mb 0.00 in0.0 mm 0.00 in0.0 mm 0.00 in0.0 mm
11:00 AM 13.8°F-10.1°C 2.4°F-16.4°C 60% 9.7 mph NW15.6 kmh NW 22.3 mph35.9 kmh 29.21 in989.2 mb 0.00 in0.0 mm 0.00 in0.0 mm 0.00 in0.0 mm
10:59 AM 14.0°F-10.0°C 2.6°F-16.3°C 60% 9.8 mph NW15.8 kmh NW 22.3 mph35.9 kmh 29.21 in989.2 mb 0.00 in0.0 mm 0.00 in0.0 mm 0.00 in0.0 mm
10:58 AM 14.2°F-9.9°C 2.8°F-16.2°C 60% 10.1 mph NNW16.3 kmh NNW 15.2 mph24.5 kmh 29.21 in989.2 mb 0.00 in0.0 mm 0.00 in0.0 mm 0.00 in0.0 mm
10:57 AM 14.2°F-9.9°C 2.8°F-16.2°C 60% 9.9 mph NNW15.9 kmh NNW 15.2 mph24.5 kmh 29.21 in989.2 mb 0.00 in0.0 mm 0.00 in0.0 mm 0.00 in0.0 mm
10:56 AM 14.2°F-9.9°C 2.8°F-16.2°C 60% 10.4 mph NW16.7 kmh NW 15.2 mph24.5 kmh 29.21 in989.2 mb 0.00 in0.0 mm 0.00 in0.0 mm 0.00 in0.0 mm
10:55 AM 14.2°F-9.9°C 3.2°F-16.0°C 61% 10.6 mph NW17.1 kmh NW 15.2 mph24.5 kmh 29.21 in989.2 mb 0.00 in0.0 mm 0.00 in0.0 mm 0.00 in0.0 mm
10:54 AM 14.0°F-10.0°C 3.0°F-16.1°C 61% 10.2 mph NW16.4 kmh NW 15.2 mph24.5 kmh 29.21 in989.2 mb 0.00 in0.0 mm 0.00 in0.0 mm 0.00 in0.0 mm
10:53 AM 13.8°F-10.1°C 3.7°F-15.7°C 63% 10.3 mph NW16.6 kmh NW 17.8 mph28.6 kmh 29.21 in989.2 mb 0.00 in0.0 mm 0.00 in0.0 mm 0.00 in0.0 mm
10:52 AM 13.8°F-10.1°C 3.7°F-15.7°C 63% 9.8 mph NW15.8 kmh NW 17.8 mph28.6 kmh 29.21 in989.2 mb 0.00 in0.0 mm 0.00 in0.0 mm 0.00 in0.0 mm
10:51 AM 13.8°F-10.1°C 3.7°F-15.7°C 63% 8.3 mph NW13.4 kmh NW 17.8 mph28.6 kmh 29.21 in989.2 mb 0.00 in0.0 mm 0.00 in0.0 mm 0.00 in0.0 mm
10:50 AM 13.6°F-10.2°C 3.5°F-15.8°C 63% 7.7 mph NNW12.4 kmh NNW 17.8 mph28.6 kmh 29.21 in989.2 mb 0.00 in0.0 mm 0.00 in0.0 mm 0.00 in0.0 mm
10:49 AM 13.6°F-10.2°C 3.5°F-15.8°C 63% 8.3 mph NW13.4 kmh NW 17.8 mph28.6 kmh 29.21 in989.2 mb 0.00 in0.0 mm 0.00 in0.0 mm 0.00 in0.0 mm
10:48 AM 13.5°F-10.3°C 3.4°F-15.9°C 63% 8.6 mph NW13.8 kmh NW 17.8 mph28.6 kmh 29.21 in989.2 mb 0.00 in0.0 mm 0.00 in0.0 mm 0.00 in0.0 mm
10:47 AM 13.5°F-10.3°C 3.4°F-15.9°C 63% 8.9 mph NW14.3 kmh NW 17.8 mph28.6 kmh 29.21 in989.2 mb 0.00 in0.0 mm 0.00 in0.0 mm 0.00 in0.0 mm
10:46 AM 13.3°F-10.4°C 3.2°F-16.0°C 63% 9.7 mph NW15.6 kmh NW 20.4 mph32.8 kmh 29.21 in989.2 mb 0.00 in0.0 mm 0.00 in0.0 mm 0.00 in0.0 mm
10:45 AM 13.3°F-10.4°C 3.2°F-16.0°C 63% 9.7 mph WNW15.6 kmh WNW 20.4 mph32.8 kmh 29.21 in989.2 mb 0.00 in0.0 mm 0.00 in0.0 mm 0.00 in0.0 mm
10:44 AM 13.1°F-10.5°C 3.0°F-16.1°C 63% 9.3 mph NW15.0 kmh NW 20.4 mph32.8 kmh 29.21 in989.2 mb 0.00 in0.0 mm 0.00 in0.0 mm 0.00 in0.0 mm
10:43 AM 12.9°F-10.6°C 2.8°F-16.2°C 63% 8.9 mph NW14.3 kmh NW 20.4 mph32.8 kmh 29.21 in989.2 mb 0.00 in0.0 mm 0.00 in0.0 mm 0.00 in0.0 mm
10:42 AM 12.9°F-10.6°C 2.8°F-16.2°C 63% 9.2 mph NW14.8 kmh NW 20.4 mph32.8 kmh 29.21 in989.2 mb 0.00 in0.0 mm 0.00 in0.0 mm 0.00 in0.0 mm
10:41 AM 12.7°F-10.7°C 2.6°F-16.3°C 63% 8.1 mph NW13.0 kmh NW 20.4 mph32.8 kmh 29.21 in989.2 mb 0.00 in0.0 mm 0.00 in0.0 mm 0.00 in0.0 mm
10:40 AM 12.7°F-10.7°C 2.6°F-16.3°C 63% 9.2 mph NW14.8 kmh NW 20.4 mph32.8 kmh 29.21 in989.2 mb 0.00 in0.0 mm 0.00 in0.0 mm 0.00 in0.0 mm
10:39 AM 12.7°F-10.7°C 2.6°F-16.3°C 63% 11.6 mph NW18.7 kmh NW 20.4 mph32.8 kmh 29.21 in989.2 mb 0.00 in0.0 mm 0.00 in0.0 mm 0.00 in0.0 mm
10:38 AM 12.7°F-10.7°C 2.6°F-16.3°C 63% 11.8 mph NW19.0 kmh NW 20.4 mph32.8 kmh 29.18 in988.1 mb 0.00 in0.0 mm 0.00 in0.0 mm 0.00 in0.0 mm
10:37 AM 12.7°F-10.7°C 2.6°F-16.3°C 63% 9.6 mph NW15.4 kmh NW 20.4 mph32.8 kmh 29.18 in988.1 mb 0.00 in0.0 mm 0.00 in0.0 mm 0.00 in0.0 mm
10:36 AM 12.7°F-10.7°C 2.6°F-16.3°C 63% 9.9 mph NW15.9 kmh NW 20.4 mph32.8 kmh 29.18 in988.1 mb 0.00 in0.0 mm 0.00 in0.0 mm 0.00 in0.0 mm
10:35 AM 12.7°F-10.7°C 2.6°F-16.3°C 63% 10.6 mph NW17.1 kmh NW 20.4 mph32.8 kmh 29.18 in988.1 mb 0.00 in0.0 mm 0.00 in0.0 mm 0.00 in0.0 mm
10:34 AM 12.7°F-10.7°C 2.6°F-16.3°C 63% 11.0 mph NW17.7 kmh NW 20.4 mph32.8 kmh 29.18 in988.1 mb 0.00 in0.0 mm 0.00 in0.0 mm 0.00 in0.0 mm
10:33 AM 12.7°F-10.7°C 2.6°F-16.3°C 63% 12.2 mph NW19.6 kmh NW 20.4 mph32.8 kmh 29.18 in988.1 mb 0.00 in0.0 mm 0.00 in0.0 mm 0.00 in0.0 mm
10:32 AM 12.7°F-10.7°C 2.6°F-16.3°C 63% 13.7 mph NW22.0 kmh NW 20.4 mph32.8 kmh 29.18 in988.1 mb 0.00 in0.0 mm 0.00 in0.0 mm 0.00 in0.0 mm
10:31 AM 12.7°F-10.7°C 2.6°F-16.3°C 63% 14.4 mph NW23.2 kmh NW 20.4 mph32.8 kmh 29.18 in988.1 mb 0.00 in0.0 mm 0.00 in0.0 mm 0.00 in0.0 mm
10:30 AM 12.7°F-10.7°C 2.6°F-16.3°C 63% 14.4 mph WNW23.2 kmh WNW 20.4 mph32.8 kmh 29.18 in988.1 mb 0.00 in0.0 mm 0.00 in0.0 mm 0.00 in0.0 mm
10:29 AM 12.9°F-10.6°C 2.8°F-16.2°C 63% 14.7 mph WNW23.7 kmh WNW 19.1 mph30.7 kmh 29.18 in988.1 mb 0.00 in0.0 mm 0.00 in0.0 mm 0.00 in0.0 mm
10:28 AM 12.9°F-10.6°C 2.8°F-16.2°C 63% 14.2 mph NW22.9 kmh NW 19.1 mph30.7 kmh 29.18 in988.1 mb 0.00 in0.0 mm 0.00 in0.0 mm 0.00 in0.0 mm
10:26 AM 13.1°F-10.5°C 3.0°F-16.1°C 63% 10.6 mph NW17.1 kmh NW 16.5 mph26.6 kmh 29.18 in988.1 mb 0.00 in0.0 mm 0.00 in0.0 mm 0.00 in0.0 mm
10:25 AM 13.3°F-10.4°C 3.2°F-16.0°C 63% 10.1 mph NW16.3 kmh NW 16.5 mph26.6 kmh 29.18 in988.1 mb 0.00 in0.0 mm 0.00 in0.0 mm 0.00 in0.0 mm
10:24 AM 13.3°F-10.4°C 3.2°F-16.0°C 63% 11.1 mph NW17.9 kmh NW 16.5 mph26.6 kmh 29.18 in988.1 mb 0.00 in0.0 mm 0.00 in0.0 mm 0.00 in0.0 mm
10:23 AM 13.1°F-10.5°C 3.0°F-16.1°C 63% 11.2 mph WNW18.0 kmh WNW 16.5 mph26.6 kmh 29.18 in988.1 mb 0.00 in0.0 mm 0.00 in0.0 mm 0.00 in0.0 mm
10:22 AM 13.1°F-10.5°C 3.0°F-16.1°C 63% 10.9 mph WNW17.5 kmh WNW 16.5 mph26.6 kmh 29.18 in988.1 mb 0.00 in0.0 mm 0.00 in0.0 mm 0.00 in0.0 mm
10:21 AM 13.3°F-10.4°C 3.2°F-16.0°C 63% 11.2 mph NW18.0 kmh NW 16.5 mph26.6 kmh 29.18 in988.1 mb 0.00 in0.0 mm 0.00 in0.0 mm 0.00 in0.0 mm
10:20 AM 13.3°F-10.4°C 3.2°F-16.0°C 63% 12.2 mph WNW19.6 kmh WNW 16.5 mph26.6 kmh 29.18 in988.1 mb 0.00 in0.0 mm 0.00 in0.0 mm 0.00 in0.0 mm
10:19 AM 13.1°F-10.5°C 3.0°F-16.1°C 63% 11.7 mph WNW18.8 kmh WNW 16.5 mph26.6 kmh 29.18 in988.1 mb 0.00 in0.0 mm 0.00 in0.0 mm 0.00 in0.0 mm
10:18 AM 13.1°F-10.5°C 3.0°F-16.1°C 63% 10.5 mph WNW16.9 kmh WNW 16.5 mph26.6 kmh 29.18 in988.1 mb 0.00 in0.0 mm 0.00 in0.0 mm 0.00 in0.0 mm
10:17 AM 13.3°F-10.4°C 3.2°F-16.0°C 63% 7.5 mph NW12.1 kmh NW 16.5 mph26.6 kmh 29.18 in988.1 mb 0.00 in0.0 mm 0.00 in0.0 mm 0.00 in0.0 mm
10:14 AM 13.3°F-10.4°C 3.2°F-16.0°C 63% 9.0 mph NW14.5 kmh NW 15.2 mph24.5 kmh 29.18 in988.1 mb 0.00 in0.0 mm 0.00 in0.0 mm 0.00 in0.0 mm
10:13 AM 13.3°F-10.4°C 3.2°F-16.0°C 63% 9.3 mph NW15.0 kmh NW 15.2 mph24.5 kmh 29.18 in988.1 mb 0.00 in0.0 mm 0.00 in0.0 mm 0.00 in0.0 mm
10:12 AM 13.3°F-10.4°C 3.2°F-16.0°C 63% 8.8 mph WNW14.2 kmh WNW 15.2 mph24.5 kmh 29.18 in988.1 mb 0.00 in0.0 mm 0.00 in0.0 mm 0.00 in0.0 mm
10:11 AM 13.3°F-10.4°C 3.2°F-16.0°C 63% 9.0 mph WNW14.5 kmh WNW 13.3 mph21.4 kmh 29.18 in988.1 mb 0.00 in0.0 mm 0.00 in0.0 mm 0.00 in0.0 mm
10:10 AM 13.3°F-10.4°C 3.2°F-16.0°C 63% 9.0 mph NW14.5 kmh NW 15.2 mph24.5 kmh 29.18 in988.1 mb 0.00 in0.0 mm 0.00 in0.0 mm 0.00 in0.0 mm
10:09 AM 13.3°F-10.4°C 3.2°F-16.0°C 63% 8.9 mph WNW14.3 kmh WNW 15.2 mph24.5 kmh 29.18 in988.1 mb 0.00 in0.0 mm 0.00 in0.0 mm 0.00 in0.0 mm
10:08 AM 13.3°F-10.4°C 3.2°F-16.0°C 63% 8.3 mph WNW13.4 kmh WNW 15.2 mph24.5 kmh 29.18 in988.1 mb 0.00 in0.0 mm 0.00 in0.0 mm 0.00 in0.0 mm
10:07 AM 13.3°F-10.4°C 3.1°F-16.1°C 63% 6.9 mph NW11.1 kmh NW 15.2 mph24.5 kmh 29.18 in988.1 mb 0.00 in0.0 mm 0.00 in0.0 mm 0.00 in0.0 mm
10:06 AM 13.3°F-10.4°C 3.1°F-16.1°C 63% 6.0 mph NW9.7 kmh NW 15.2 mph24.5 kmh 29.18 in988.1 mb 0.00 in0.0 mm 0.00 in0.0 mm 0.00 in0.0 mm
10:05 AM 13.1°F-10.5°C 3.0°F-16.1°C 63% 6.8 mph NW10.9 kmh NW 15.2 mph24.5 kmh 29.18 in988.1 mb 0.00 in0.0 mm 0.00 in0.0 mm 0.00 in0.0 mm
10:04 AM 13.1°F-10.5°C 3.0°F-16.1°C 63% 8.2 mph NW13.2 kmh NW 15.2 mph24.5 kmh 29.18 in988.1 mb 0.00 in0.0 mm 0.00 in0.0 mm 0.00 in0.0 mm
10:03 AM 13.1°F-10.5°C 3.0°F-16.1°C 63% 9.1 mph NW14.6 kmh NW 15.2 mph24.5 kmh 29.18 in988.1 mb 0.00 in0.0 mm 0.00 in0.0 mm 0.00 in0.0 mm
10:02 AM 13.1°F-10.5°C 3.0°F-16.1°C 63% 10.9 mph NW17.5 kmh NW 15.2 mph24.5 kmh 29.18 in988.1 mb 0.00 in0.0 mm 0.00 in0.0 mm 0.00 in0.0 mm
10:01 AM 13.1°F-10.5°C 3.0°F-16.1°C 63% 12.0 mph NW19.3 kmh NW 15.2 mph24.5 kmh 29.18 in988.1 mb 0.00 in0.0 mm 0.00 in0.0 mm 0.00 in0.0 mm
10:00 AM 13.1°F-10.5°C 3.0°F-16.1°C 63% 11.3 mph NW18.2 kmh NW 15.2 mph24.5 kmh 29.18 in988.1 mb 0.00 in0.0 mm 0.00 in0.0 mm 0.00 in0.0 mm
09:59 AM 13.1°F-10.5°C 3.0°F-16.1°C 63% 9.8 mph WNW15.8 kmh WNW 14.6 mph23.5 kmh 29.18 in988.1 mb 0.00 in0.0 mm 0.00 in0.0 mm 0.00 in0.0 mm
09:58 AM 13.3°F-10.4°C 3.1°F-16.1°C 63% 8.5 mph NW13.7 kmh NW 14.6 mph23.5 kmh 29.18 in988.1 mb 0.00 in0.0 mm 0.00 in0.0 mm 0.00 in0.0 mm
09:57 AM 13.1°F-10.5°C 3.0°F-16.1°C 63% 7.7 mph NW12.4 kmh NW 13.3 mph21.4 kmh 29.18 in988.1 mb 0.00 in0.0 mm 0.00 in0.0 mm 0.00 in0.0 mm
09:56 AM 13.1°F-10.5°C 2.9°F-16.2°C 63% 7.3 mph NW11.7 kmh NW 13.3 mph21.4 kmh 29.18 in988.1 mb 0.00 in0.0 mm 0.00 in0.0 mm 0.00 in0.0 mm
09:55 AM 12.9°F-10.6°C 2.8°F-16.2°C 63% 8.6 mph NW13.8 kmh NW 13.3 mph21.4 kmh 29.18 in988.1 mb 0.00 in0.0 mm 0.00 in0.0 mm 0.00 in0.0 mm
09:54 AM 12.9°F-10.6°C 2.8°F-16.2°C 63% 8.9 mph NW14.3 kmh NW 13.3 mph21.4 kmh 29.18 in988.1 mb 0.00 in0.0 mm 0.00 in0.0 mm 0.00 in0.0 mm
09:53 AM 12.9°F-10.6°C 2.8°F-16.2°C 63% 8.4 mph NW13.5 kmh NW 13.3 mph21.4 kmh 29.18 in988.1 mb 0.00 in0.0 mm 0.00 in0.0 mm 0.00 in0.0 mm
09:52 AM 12.7°F-10.7°C 2.6°F-16.3°C 63% 8.9 mph NW14.3 kmh NW 13.3 mph21.4 kmh 29.18 in988.1 mb 0.00 in0.0 mm 0.00 in0.0 mm 0.00 in0.0 mm
09:51 AM 12.7°F-10.7°C 2.6°F-16.3°C 63% 9.8 mph NW15.8 kmh NW 13.3 mph21.4 kmh 29.18 in988.1 mb 0.00 in0.0 mm 0.00 in0.0 mm 0.00 in0.0 mm
09:50 AM 12.6°F-10.8°C 2.5°F-16.4°C 63% 9.1 mph NW14.6 kmh NW 13.3 mph21.4 kmh 29.18 in988.1 mb 0.00 in0.0 mm 0.00 in0.0 mm 0.00 in0.0 mm
09:49 AM 12.6°F-10.8°C 2.5°F-16.4°C 63% 7.5 mph NW12.1 kmh NW 13.3 mph21.4 kmh 29.18 in988.1 mb 0.00 in0.0 mm 0.00 in0.0 mm 0.00 in0.0 mm
09:48 AM 12.4°F-10.9°C 2.3°F-16.5°C 63% 7.2 mph NW11.6 kmh NW 12.0 mph19.3 kmh 29.18 in988.1 mb 0.00 in0.0 mm 0.00 in0.0 mm 0.00 in0.0 mm
09:47 AM 12.4°F-10.9°C 2.3°F-16.5°C 63% 7.8 mph NNW12.6 kmh NNW 12.0 mph19.3 kmh 29.18 in988.1 mb 0.00 in0.0 mm 0.00 in0.0 mm 0.00 in0.0 mm
09:46 AM 12.4°F-10.9°C 2.3°F-16.5°C 63% 8.3 mph NNW13.4 kmh NNW 12.0 mph19.3 kmh 29.18 in988.1 mb 0.00 in0.0 mm 0.00 in0.0 mm 0.00 in0.0 mm
09:45 AM 12.4°F-10.9°C 2.3°F-16.5°C 63% 8.2 mph NW13.2 kmh NW 12.0 mph19.3 kmh 29.18 in988.1 mb 0.00 in0.0 mm 0.00 in0.0 mm 0.00 in0.0 mm
09:44 AM 12.2°F-11.0°C 2.1°F-16.6°C 63% 7.7 mph NW12.4 kmh NW 12.0 mph19.3 kmh 29.18 in988.1 mb 0.00 in0.0 mm 0.00 in0.0 mm 0.00 in0.0 mm
09:43 AM 12.2°F-11.0°C 2.1°F-16.6°C 63% 7.0 mph NW11.3 kmh NW 12.0 mph19.3 kmh 29.18 in988.1 mb 0.00 in0.0 mm 0.00 in0.0 mm 0.00 in0.0 mm
09:42 AM 12.0°F-11.1°C 1.9°F-16.7°C 63% 6.7 mph NW10.8 kmh NW 11.7 mph18.8 kmh 29.18 in988.1 mb 0.00 in0.0 mm 0.00 in0.0 mm 0.00 in0.0 mm
09:41 AM 12.0°F-11.1°C 1.9°F-16.7°C 63% 6.4 mph NW10.3 kmh NW 11.7 mph18.8 kmh 29.18 in988.1 mb 0.00 in0.0 mm 0.00 in0.0 mm 0.00 in0.0 mm
09:40 AM 11.8°F-11.2°C 1.7°F-16.8°C 63% 6.1 mph NW9.8 kmh NW 11.7 mph18.8 kmh 29.18 in988.1 mb 0.00 in0.0 mm 0.00 in0.0 mm 0.00 in0.0 mm
09:39 AM 11.8°F-11.2°C 1.7°F-16.8°C 63% 6.5 mph NW10.5 kmh NW 11.7 mph18.8 kmh 29.18 in988.1 mb 0.00 in0.0 mm 0.00 in0.0 mm 0.00 in0.0 mm
09:38 AM 11.7°F-11.3°C 1.6°F-16.9°C 63% 6.8 mph NW10.9 kmh NW 11.7 mph18.8 kmh 29.18 in988.1 mb 0.00 in0.0 mm 0.00 in0.0 mm 0.00 in0.0 mm
09:37 AM 11.7°F-11.3°C 1.6°F-16.9°C 63% 6.2 mph NW10.0 kmh NW 11.7 mph18.8 kmh 29.18 in988.1 mb 0.00 in0.0 mm 0.00 in0.0 mm 0.00 in0.0 mm
09:36 AM 11.7°F-11.3°C 1.6°F-16.9°C 63% 5.5 mph NW8.9 kmh NW 9.7 mph15.6 kmh 29.18 in988.1 mb 0.00 in0.0 mm 0.00 in0.0 mm 0.00 in0.0 mm
09:35 AM 11.7°F-11.3°C 1.6°F-16.9°C 63% 4.8 mph NW7.7 kmh NW 9.7 mph15.6 kmh 29.18 in988.1 mb 0.00 in0.0 mm 0.00 in0.0 mm 0.00 in0.0 mm
09:34 AM 11.7°F-11.3°C 1.6°F-16.9°C 63% 4.7 mph NW7.6 kmh NW 9.7 mph15.6 kmh 29.18 in988.1 mb 0.00 in0.0 mm 0.00 in0.0 mm 0.00 in0.0 mm
09:33 AM 11.7°F-11.3°C 1.6°F-16.9°C 63% 5.2 mph NW8.4 kmh NW 9.7 mph15.6 kmh 29.18 in988.1 mb 0.00 in0.0 mm 0.00 in0.0 mm 0.00 in0.0 mm
09:32 AM 11.5°F-11.4°C 1.4°F-17.0°C 63% 5.7 mph NW9.2 kmh NW 9.7 mph15.6 kmh 29.18 in988.1 mb 0.00 in0.0 mm 0.00 in0.0 mm 0.00 in0.0 mm
09:31 AM 11.3°F-11.5°C 1.2°F-17.1°C 63% 5.6 mph NW9.0 kmh NW 9.1 mph14.6 kmh 29.18 in988.1 mb 0.00 in0.0 mm 0.00 in0.0 mm 0.00 in0.0 mm
09:30 AM 11.3°F-11.5°C 1.2°F-17.1°C 63% 5.5 mph NW8.9 kmh NW 9.1 mph14.6 kmh 29.18 in988.1 mb 0.00 in0.0 mm 0.00 in0.0 mm 0.00 in0.0 mm
09:29 AM 11.3°F-11.5°C 1.2°F-17.1°C 63% 6.2 mph NW10.0 kmh NW 11.7 mph18.8 kmh 29.18 in988.1 mb 0.00 in0.0 mm 0.00 in0.0 mm 0.00 in0.0 mm
09:28 AM 11.3°F-11.5°C 1.2°F-17.1°C 63% 7.3 mph NW11.7 kmh NW 11.7 mph18.8 kmh 29.18 in988.1 mb 0.00 in0.0 mm 0.00 in0.0 mm 0.00 in0.0 mm
09:27 AM 11.3°F-11.5°C 1.2°F-17.1°C 63% 7.2 mph NW11.6 kmh NW 11.7 mph18.8 kmh 29.18 in988.1 mb 0.00 in0.0 mm 0.00 in0.0 mm 0.00 in0.0 mm
09:26 AM 11.3°F-11.5°C 1.2°F-17.1°C 63% 5.5 mph NW8.9 kmh NW 11.7 mph18.8 kmh 29.18 in988.1 mb 0.00 in0.0 mm 0.00 in0.0 mm 0.00 in0.0 mm
09:25 AM 11.3°F-11.5°C 1.2°F-17.1°C 63% 3.8 mph NW6.1 kmh NW 11.7 mph18.8 kmh 29.18 in988.1 mb 0.00 in0.0 mm 0.00 in0.0 mm 0.00 in0.0 mm
09:24 AM 11.3°F-11.5°C 1.2°F-17.1°C 63% 3.8 mph NW6.1 kmh NW 12.0 mph19.3 kmh 29.18 in988.1 mb 0.00 in0.0 mm 0.00 in0.0 mm 0.00 in0.0 mm
09:23 AM 11.1°F-11.6°C 1.0°F-17.2°C 63% 3.9 mph NW6.3 kmh NW 12.0 mph19.3 kmh 29.18 in988.1 mb 0.00 in0.0 mm 0.00 in0.0 mm 0.00 in0.0 mm
09:22 AM 11.1°F-11.6°C 1.0°F-17.2°C 63% 4.2 mph NW6.8 kmh NW 12.6 mph20.3 kmh 29.18 in988.1 mb 0.00 in0.0 mm 0.00 in0.0 mm 0.00 in0.0 mm
09:21 AM 11.1°F-11.6°C 1.0°F-17.2°C 63% 6.2 mph NW10.0 kmh NW 12.6 mph20.3 kmh 29.18 in988.1 mb 0.00 in0.0 mm 0.00 in0.0 mm 0.00 in0.0 mm
09:20 AM 11.1°F-11.6°C 1.0°F-17.2°C 63% 7.3 mph NW11.7 kmh NW 12.6 mph20.3 kmh 29.18 in988.1 mb 0.00 in0.0 mm 0.00 in0.0 mm 0.00 in0.0 mm
09:19 AM 11.1°F-11.6°C 1.0°F-17.2°C 63% 6.9 mph NW11.1 kmh NW 12.6 mph20.3 kmh 29.18 in988.1 mb 0.00 in0.0 mm 0.00 in0.0 mm 0.00 in0.0 mm
09:18 AM 10.9°F-11.7°C 0.8°F-17.3°C 63% 6.1 mph NW9.8 kmh NW 12.6 mph20.3 kmh 29.18 in988.1 mb 0.00 in0.0 mm 0.00 in0.0 mm 0.00 in0.0 mm
09:17 AM 10.9°F-11.7°C 0.8°F-17.3°C 63% 6.1 mph NW9.8 kmh NW 12.6 mph20.3 kmh 29.18 in988.1 mb 0.00 in0.0 mm 0.00 in0.0 mm 0.00 in0.0 mm
09:16 AM 10.9°F-11.7°C 0.8°F-17.3°C 63% 8.1 mph NW13.0 kmh NW 13.3 mph21.4 kmh 29.18 in988.1 mb 0.00 in0.0 mm 0.00 in0.0 mm 0.00 in0.0 mm
09:15 AM 10.8°F-11.8°C 0.7°F-17.4°C 63% 9.1 mph NW14.6 kmh NW 13.9 mph22.4 kmh 29.18 in988.1 mb 0.00 in0.0 mm 0.00 in0.0 mm 0.00 in0.0 mm
09:14 AM 10.8°F-11.8°C 0.7°F-17.4°C 63% 7.7 mph WNW12.4 kmh WNW 13.9 mph22.4 kmh 29.18 in988.1 mb 0.00 in0.0 mm 0.00 in0.0 mm 0.00 in0.0 mm
09:13 AM 10.8°F-11.8°C 0.7°F-17.4°C 63% 8.0 mph NW12.9 kmh NW 13.9 mph22.4 kmh 29.18 in988.1 mb 0.00 in0.0 mm 0.00 in0.0 mm 0.00 in0.0 mm
09:12 AM 10.8°F-11.8°C 0.7°F-17.4°C 63% 9.4 mph NW15.1 kmh NW 13.9 mph22.4 kmh 29.18 in988.1 mb 0.00 in0.0 mm 0.00 in0.0 mm 0.00 in0.0 mm
09:11 AM 10.8°F-11.8°C 0.7°F-17.4°C 63% 9.4 mph NW15.1 kmh NW 13.9 mph22.4 kmh 29.18 in988.1 mb 0.00 in0.0 mm 0.00 in0.0 mm 0.00 in0.0 mm
09:10 AM 10.6°F-11.9°C 0.5°F-17.5°C 63% 9.5 mph WNW15.3 kmh WNW 15.9 mph25.6 kmh 29.18 in988.1 mb 0.00 in0.0 mm 0.00 in0.0 mm 0.00 in0.0 mm
09:09 AM 10.6°F-11.9°C 0.5°F-17.5°C 63% 9.5 mph WNW15.3 kmh WNW 15.9 mph25.6 kmh 29.15 in987.1 mb 0.00 in0.0 mm 0.00 in0.0 mm 0.00 in0.0 mm
09:08 AM 10.6°F-11.9°C 0.5°F-17.5°C 63% 8.8 mph NW14.2 kmh NW 15.9 mph25.6 kmh 29.15 in987.1 mb 0.00 in0.0 mm 0.00 in0.0 mm 0.00 in0.0 mm
09:07 AM 10.4°F-12.0°C 0.3°F-17.6°C 63% 8.0 mph NW12.9 kmh NW 15.9 mph25.6 kmh 29.15 in987.1 mb 0.00 in0.0 mm 0.00 in0.0 mm 0.00 in0.0 mm
09:06 AM 10.4°F-12.0°C 0.3°F-17.6°C 63% 7.8 mph NW12.6 kmh NW 15.9 mph25.6 kmh 29.15 in987.1 mb 0.00 in0.0 mm 0.00 in0.0 mm 0.00 in0.0 mm
09:05 AM 10.4°F-12.0°C 0.3°F-17.6°C 63% 8.4 mph WNW13.5 kmh WNW 15.9 mph25.6 kmh 29.15 in987.1 mb 0.00 in0.0 mm 0.00 in0.0 mm 0.00 in0.0 mm
09:04 AM 10.4°F-12.0°C 0.3°F-17.6°C 63% 10.0 mph WNW16.1 kmh WNW 15.9 mph25.6 kmh 29.15 in987.1 mb 0.00 in0.0 mm 0.00 in0.0 mm 0.00 in0.0 mm
09:03 AM 10.2°F-12.1°C 0.1°F-17.7°C 63% 10.9 mph NW17.5 kmh NW 15.9 mph25.6 kmh 29.15 in987.1 mb 0.00 in0.0 mm 0.00 in0.0 mm 0.00 in0.0 mm
09:02 AM 10.2°F-12.1°C 0.1°F-17.7°C 63% 10.8 mph NW17.4 kmh NW 15.9 mph25.6 kmh 29.15 in987.1 mb 0.00 in0.0 mm 0.00 in0.0 mm 0.00 in0.0 mm
09:01 AM 10.2°F-12.1°C 0.1°F-17.7°C 63% 9.3 mph NW15.0 kmh NW 15.9 mph25.6 kmh 29.15 in987.1 mb 0.00 in0.0 mm 0.00 in0.0 mm 0.00 in0.0 mm
09:00 AM 10.2°F-12.1°C 0.1°F-17.7°C 63% 7.4 mph NW11.9 kmh NW 14.6 mph23.5 kmh 29.15 in987.1 mb 0.00 in0.0 mm 0.00 in0.0 mm 0.00 in0.0 mm
08:59 AM 10.0°F-12.2°C -0.1°F-17.8°C 63% 7.1 mph WNW11.4 kmh WNW 14.6 mph23.5 kmh 29.15 in987.1 mb 0.00 in0.0 mm 0.00 in0.0 mm 0.00 in0.0 mm
08:58 AM 10.0°F-12.2°C -0.1°F-17.8°C 63% 7.8 mph WNW12.6 kmh WNW 14.6 mph23.5 kmh 29.15 in987.1 mb 0.00 in0.0 mm 0.00 in0.0 mm 0.00 in0.0 mm
08:57 AM 10.0°F-12.2°C -0.1°F-17.8°C 63% 8.3 mph WNW13.4 kmh WNW 14.6 mph23.5 kmh 29.15 in987.1 mb 0.00 in0.0 mm 0.00 in0.0 mm 0.00 in0.0 mm
08:56 AM 9.9°F-12.3°C -0.2°F-17.9°C 63% 8.1 mph WNW13.0 kmh WNW 14.6 mph23.5 kmh 29.15 in987.1 mb 0.00 in0.0 mm 0.00 in0.0 mm 0.00 in0.0 mm
08:55 AM 9.7°F-12.4°C -0.4°F-18.0°C 63% 8.2 mph WNW13.2 kmh WNW 14.6 mph23.5 kmh 29.15 in987.1 mb 0.00 in0.0 mm 0.00 in0.0 mm 0.00 in0.0 mm
08:54 AM 9.7°F-12.4°C -0.4°F-18.0°C 63% 8.4 mph NW13.5 kmh NW 17.8 mph28.6 kmh 29.15 in987.1 mb 0.00 in0.0 mm 0.00 in0.0 mm 0.00 in0.0 mm
08:53 AM 9.7°F-12.4°C -0.4°F-18.0°C 63% 8.8 mph NW14.2 kmh NW 17.8 mph28.6 kmh 29.15 in987.1 mb 0.00 in0.0 mm 0.00 in0.0 mm 0.00 in0.0 mm
08:52 AM 9.7°F-12.4°C -0.4°F-18.0°C 63% 9.2 mph WNW14.8 kmh WNW 17.8 mph28.6 kmh 29.15 in987.1 mb 0.00 in0.0 mm 0.00 in0.0 mm 0.00 in0.0 mm
08:51 AM 9.5°F-12.5°C -0.5°F-18.1°C 63% 8.5 mph WNW13.7 kmh WNW 17.8 mph28.6 kmh 29.15 in987.1 mb 0.00 in0.0 mm 0.00 in0.0 mm 0.00 in0.0 mm
08:50 AM 9.5°F-12.5°C -0.5°F-18.1°C 63% 7.4 mph NW11.9 kmh NW 17.8 mph28.6 kmh 29.15 in987.1 mb 0.00 in0.0 mm 0.00 in0.0 mm 0.00 in0.0 mm
08:49 AM 9.5°F-12.5°C -0.6°F-18.1°C 63% 7.9 mph NW12.7 kmh NW 17.8 mph28.6 kmh 29.15 in987.1 mb 0.00 in0.0 mm 0.00 in0.0 mm 0.00 in0.0 mm
08:48 AM 9.5°F-12.5°C -0.6°F-18.1°C 63% 8.2 mph NW13.2 kmh NW 17.8 mph28.6 kmh 29.15 in987.1 mb 0.00 in0.0 mm 0.00 in0.0 mm 0.00 in0.0 mm
08:47 AM 9.5°F-12.5°C -0.6°F-18.1°C 63% 8.8 mph WNW14.2 kmh WNW 17.8 mph28.6 kmh 29.15 in987.1 mb 0.00 in0.0 mm 0.00 in0.0 mm 0.00 in0.0 mm
08:46 AM 9.3°F-12.6°C -0.7°F-18.2°C 63% 10.0 mph WNW16.1 kmh WNW 17.8 mph28.6 kmh 29.15 in987.1 mb 0.00 in0.0 mm 0.00 in0.0 mm 0.00 in0.0 mm
08:45 AM 9.3°F-12.6°C -0.7°F-18.2°C 63% 10.5 mph WNW16.9 kmh WNW 17.8 mph28.6 kmh 29.15 in987.1 mb 0.00 in0.0 mm 0.00 in0.0 mm 0.00 in0.0 mm
08:44 AM 9.3°F-12.6°C -0.7°F-18.2°C 63% 10.3 mph NW16.6 kmh NW 17.8 mph28.6 kmh 29.15 in987.1 mb 0.00 in0.0 mm 0.00 in0.0 mm 0.00 in0.0 mm
08:43 AM 9.3°F-12.6°C -0.7°F-18.2°C 63% 10.7 mph NW17.2 kmh NW 15.9 mph25.6 kmh 29.15 in987.1 mb 0.00 in0.0 mm 0.00 in0.0 mm 0.00 in0.0 mm
08:42 AM 9.3°F-12.6°C -0.8°F-18.2°C 63% 9.5 mph WNW15.3 kmh WNW 15.9 mph25.6 kmh 29.15 in987.1 mb 0.00 in0.0 mm 0.00 in0.0 mm 0.00 in0.0 mm
08:41 AM 9.1°F-12.7°C -0.9°F-18.3°C 63% 8.4 mph WNW13.5 kmh WNW 15.2 mph24.5 kmh 29.15 in987.1 mb 0.00 in0.0 mm 0.00 in0.0 mm 0.00 in0.0 mm
08:40 AM 9.1°F-12.7°C -0.9°F-18.3°C 63% 7.8 mph WNW12.6 kmh WNW 15.2 mph24.5 kmh 29.15 in987.1 mb 0.00 in0.0 mm 0.00 in0.0 mm 0.00 in0.0 mm
08:39 AM 9.1°F-12.7°C -0.9°F-18.3°C 63% 8.4 mph WNW13.5 kmh WNW 15.2 mph24.5 kmh 29.15 in987.1 mb 0.00 in0.0 mm 0.00 in0.0 mm 0.00 in0.0 mm
08:38 AM 9.1°F-12.7°C -0.9°F-18.3°C 63% 9.7 mph WNW15.6 kmh WNW 15.2 mph24.5 kmh 29.15 in987.1 mb 0.00 in0.0 mm 0.00 in0.0 mm 0.00 in0.0 mm
08:37 AM 9.1°F-12.7°C -0.9°F-18.3°C 63% 10.4 mph NW16.7 kmh NW 15.2 mph24.5 kmh 29.15 in987.1 mb 0.00 in0.0 mm 0.00 in0.0 mm 0.00 in0.0 mm
08:36 AM 9.1°F-12.7°C -0.9°F-18.3°C 63% 9.9 mph NW15.9 kmh NW 15.2 mph24.5 kmh 29.15 in987.1 mb 0.00 in0.0 mm 0.00 in0.0 mm 0.00 in0.0 mm
08:35 AM 9.0°F-12.8°C -1.0°F-18.3°C 63% 9.7 mph WNW15.6 kmh WNW 15.2 mph24.5 kmh 29.15 in987.1 mb 0.00 in0.0 mm 0.00 in0.0 mm 0.00 in0.0 mm
08:34 AM 9.0°F-12.8°C -1.0°F-18.3°C 63% 10.0 mph WNW16.1 kmh WNW 15.2 mph24.5 kmh 29.15 in987.1 mb 0.00 in0.0 mm 0.00 in0.0 mm 0.00 in0.0 mm
08:33 AM 9.0°F-12.8°C -1.0°F-18.3°C 63% 9.9 mph WNW15.9 kmh WNW 15.2 mph24.5 kmh 29.15 in987.1 mb 0.00 in0.0 mm 0.00 in0.0 mm 0.00 in0.0 mm
08:32 AM 9.0°F-12.8°C -1.0°F-18.3°C 63% 9.8 mph WNW15.8 kmh WNW 14.6 mph23.5 kmh 29.15 in987.1 mb 0.00 in0.0 mm 0.00 in0.0 mm 0.00 in0.0 mm
08:31 AM 8.8°F-12.9°C -1.2°F-18.4°C 63% 10.2 mph NW16.4 kmh NW 14.6 mph23.5 kmh 29.15 in987.1 mb 0.00 in0.0 mm 0.00 in0.0 mm 0.00 in0.0 mm
08:30 AM 8.8°F-12.9°C -1.2°F-18.4°C 63% 10.2 mph WNW16.4 kmh WNW 14.6 mph23.5 kmh 29.15 in987.1 mb 0.00 in0.0 mm 0.00 in0.0 mm 0.00 in0.0 mm
08:29 AM 8.8°F-12.9°C -1.2°F-18.4°C 63% 10.1 mph WNW16.3 kmh WNW 14.6 mph23.5 kmh 29.15 in987.1 mb 0.00 in0.0 mm 0.00 in0.0 mm 0.00 in0.0 mm
08:28 AM 8.8°F-12.9°C -1.2°F-18.4°C 63% 9.0 mph WNW14.5 kmh WNW 14.6 mph23.5 kmh 29.15 in987.1 mb 0.00 in0.0 mm 0.00 in0.0 mm 0.00 in0.0 mm
08:27 AM 8.8°F-12.9°C -1.2°F-18.4°C 63% 7.7 mph WNW12.4 kmh WNW 13.3 mph21.4 kmh 29.15 in987.1 mb 0.00 in0.0 mm 0.00 in0.0 mm 0.00 in0.0 mm
08:26 AM 8.8°F-12.9°C -1.2°F-18.4°C 63% 7.1 mph WNW11.4 kmh WNW 13.3 mph21.4 kmh 29.15 in987.1 mb 0.00 in0.0 mm 0.00 in0.0 mm 0.00 in0.0 mm
08:25 AM 8.8°F-12.9°C -1.2°F-18.4°C 63% 7.9 mph WNW12.7 kmh WNW 13.3 mph21.4 kmh 29.15 in987.1 mb 0.00 in0.0 mm 0.00 in0.0 mm 0.00 in0.0 mm
08:24 AM 8.6°F-13.0°C -1.4°F-18.6°C 63% 8.8 mph WNW14.2 kmh WNW 13.3 mph21.4 kmh 29.15 in987.1 mb 0.00 in0.0 mm 0.00 in0.0 mm 0.00 in0.0 mm
08:23 AM 8.6°F-13.0°C -1.4°F-18.6°C 63% 9.1 mph WNW14.6 kmh WNW 15.9 mph25.6 kmh 29.15 in987.1 mb 0.00 in0.0 mm 0.00 in0.0 mm 0.00 in0.0 mm
08:22 AM 8.6°F-13.0°C -1.4°F-18.6°C 63% 9.2 mph WNW14.8 kmh WNW 15.9 mph25.6 kmh 29.15 in987.1 mb 0.00 in0.0 mm 0.00 in0.0 mm 0.00 in0.0 mm
08:21 AM 8.6°F-13.0°C -1.4°F-18.6°C 63% 9.0 mph WNW14.5 kmh WNW 15.9 mph25.6 kmh 29.15 in987.1 mb 0.00 in0.0 mm 0.00 in0.0 mm 0.00 in0.0 mm
08:20 AM 8.6°F-13.0°C -1.4°F-18.6°C 63% 8.6 mph WNW13.8 kmh WNW 15.9 mph25.6 kmh 29.15 in987.1 mb 0.00 in0.0 mm 0.00 in0.0 mm 0.00 in0.0 mm
08:19 AM 8.6°F-13.0°C -1.4°F-18.6°C 63% 8.7 mph WNW14.0 kmh WNW 15.9 mph25.6 kmh 29.15 in987.1 mb 0.00 in0.0 mm 0.00 in0.0 mm 0.00 in0.0 mm
08:18 AM 8.6°F-13.0°C -1.4°F-18.6°C 63% 9.3 mph WNW15.0 kmh WNW 15.9 mph25.6 kmh 29.15 in987.1 mb 0.00 in0.0 mm 0.00 in0.0 mm 0.00 in0.0 mm
08:17 AM 8.6°F-13.0°C -1.5°F-18.6°C 63% 8.8 mph WNW14.2 kmh WNW 15.9 mph25.6 kmh 29.15 in987.1 mb 0.00 in0.0 mm 0.00 in0.0 mm 0.00 in0.0 mm
08:16 AM 8.6°F-13.0°C -1.5°F-18.6°C 63% 9.1 mph WNW14.6 kmh WNW 15.9 mph25.6 kmh 29.15 in987.1 mb 0.00 in0.0 mm 0.00 in0.0 mm 0.00 in0.0 mm
08:15 AM 8.4°F-13.1°C -1.6°F-18.7°C 63% 10.6 mph WNW17.1 kmh WNW 15.9 mph25.6 kmh 29.15 in987.1 mb 0.00 in0.0 mm 0.00 in0.0 mm 0.00 in0.0 mm
08:14 AM 8.4°F-13.1°C -1.6°F-18.7°C 63% 9.9 mph WNW15.9 kmh WNW 15.9 mph25.6 kmh 29.15 in987.1 mb 0.00 in0.0 mm 0.00 in0.0 mm 0.00 in0.0 mm
08:13 AM 8.4°F-13.1°C -1.6°F-18.7°C 63% 9.2 mph WNW14.8 kmh WNW 15.9 mph25.6 kmh 29.15 in987.1 mb 0.00 in0.0 mm 0.00 in0.0 mm 0.00 in0.0 mm
08:12 AM 8.4°F-13.1°C -1.6°F-18.7°C 63% 9.2 mph WNW14.8 kmh WNW 14.6 mph23.5 kmh 29.15 in987.1 mb 0.00 in0.0 mm 0.00 in0.0 mm 0.00 in0.0 mm
08:11 AM 8.4°F-13.1°C -1.7°F-18.7°C 63% 8.7 mph WNW14.0 kmh WNW 14.6 mph23.5 kmh 29.15 in987.1 mb 0.00 in0.0 mm 0.00 in0.0 mm 0.00 in0.0 mm
08:10 AM 8.4°F-13.1°C -1.7°F-18.7°C 63% 8.3 mph WNW13.4 kmh WNW 15.9 mph25.6 kmh 29.15 in987.1 mb 0.00 in0.0 mm 0.00 in0.0 mm 0.00 in0.0 mm
08:09 AM 8.4°F-13.1°C -1.7°F-18.7°C 63% 9.1 mph WNW14.6 kmh WNW 15.9 mph25.6 kmh 29.15 in987.1 mb 0.00 in0.0 mm 0.00 in0.0 mm 0.00 in0.0 mm
08:08 AM 8.4°F-13.1°C -1.7°F-18.7°C 63% 9.6 mph W15.4 kmh W 15.9 mph25.6 kmh 29.15 in987.1 mb 0.00 in0.0 mm 0.00 in0.0 mm 0.00 in0.0 mm
08:07 AM 8.4°F-13.1°C -1.7°F-18.7°C 63% 8.3 mph W13.4 kmh W 15.9 mph25.6 kmh 29.15 in987.1 mb 0.00 in0.0 mm 0.00 in0.0 mm 0.00 in0.0 mm
08:06 AM 8.4°F-13.1°C -1.7°F-18.7°C 63% 7.5 mph W12.1 kmh W 15.9 mph25.6 kmh 29.15 in987.1 mb 0.00 in0.0 mm 0.00 in0.0 mm 0.00 in0.0 mm
08:05 AM 8.4°F-13.1°C -1.7°F-18.7°C 63% 8.2 mph W13.2 kmh W 15.9 mph25.6 kmh 29.15 in987.1 mb 0.00 in0.0 mm 0.00 in0.0 mm 0.00 in0.0 mm
08:04 AM 8.4°F-13.1°C -1.7°F-18.7°C 63% 9.2 mph W14.8 kmh W 15.9 mph25.6 kmh 29.15 in987.1 mb 0.00 in0.0 mm 0.00 in0.0 mm 0.00 in0.0 mm
08:03 AM 8.2°F-13.2°C -1.9°F-18.8°C 63% 9.9 mph W15.9 kmh W 15.9 mph25.6 kmh 29.15 in987.1 mb 0.00 in0.0 mm 0.00 in0.0 mm 0.00 in0.0 mm
08:02 AM 8.2°F-13.2°C -1.9°F-18.8°C 63% 10.3 mph WNW16.6 kmh WNW 15.9 mph25.6 kmh 29.15 in987.1 mb 0.00 in0.0 mm 0.00 in0.0 mm 0.00 in0.0 mm
08:01 AM 8.2°F-13.2°C -1.9°F-18.8°C 63% 10.2 mph W16.4 kmh W 15.9 mph25.6 kmh 29.15 in987.1 mb 0.00 in0.0 mm 0.00 in0.0 mm 0.00 in0.0 mm
08:00 AM 8.2°F-13.2°C -1.9°F-18.8°C 63% 9.8 mph W15.8 kmh W 15.9 mph25.6 kmh 29.15 in987.1 mb 0.00 in0.0 mm 0.00 in0.0 mm 0.00 in0.0 mm
07:59 AM 8.1°F-13.3°C -2.0°F-18.9°C 63% 9.6 mph W15.4 kmh W 15.9 mph25.6 kmh 29.15 in987.1 mb 0.00 in0.0 mm 0.00 in0.0 mm 0.00 in0.0 mm
07:58 AM 8.1°F-13.3°C -2.0°F-18.9°C 63% 9.5 mph W15.3 kmh W 15.9 mph25.6 kmh 29.15 in987.1 mb 0.00 in0.0 mm 0.00 in0.0 mm 0.00 in0.0 mm
07:57 AM 8.1°F-13.3°C -2.0°F-18.9°C 63% 10.6 mph WNW17.1 kmh WNW 15.9 mph25.6 kmh 29.15 in987.1 mb 0.00 in0.0 mm 0.00 in0.0 mm 0.00 in0.0 mm
07:56 AM 8.1°F-13.3°C -2.0°F-18.9°C 63% 11.7 mph WNW18.8 kmh WNW 15.9 mph25.6 kmh 29.15 in987.1 mb 0.00 in0.0 mm 0.00 in0.0 mm 0.00 in0.0 mm
07:55 AM 8.1°F-13.3°C -2.0°F-18.9°C 63% 11.3 mph WNW18.2 kmh WNW 15.9 mph25.6 kmh 29.15 in987.1 mb 0.00 in0.0 mm 0.00 in0.0 mm 0.00 in0.0 mm
07:54 AM 8.1°F-13.3°C -2.0°F-18.9°C 63% 11.1 mph WNW17.9 kmh WNW 15.9 mph25.6 kmh 29.12 in986.1 mb 0.00 in0.0 mm 0.00 in0.0 mm 0.00 in0.0 mm
07:53 AM 8.1°F-13.3°C -2.0°F-18.9°C 63% 12.0 mph WNW19.3 kmh WNW 15.9 mph25.6 kmh 29.12 in986.1 mb 0.00 in0.0 mm 0.00 in0.0 mm 0.00 in0.0 mm
07:52 AM 7.9°F-13.4°C -2.2°F-19.0°C 63% 12.1 mph WNW19.5 kmh WNW 15.9 mph25.6 kmh 29.12 in986.1 mb 0.00 in0.0 mm 0.00 in0.0 mm 0.00 in0.0 mm
07:51 AM 7.9°F-13.4°C -2.2°F-19.0°C 63% 11.7 mph WNW18.8 kmh WNW 15.9 mph25.6 kmh 29.12 in986.1 mb 0.00 in0.0 mm 0.00 in0.0 mm 0.00 in0.0 mm
07:50 AM 7.9°F-13.4°C -2.2°F-19.0°C 63% 11.2 mph WNW18.0 kmh WNW 15.9 mph25.6 kmh 29.12 in986.1 mb 0.00 in0.0 mm 0.00 in0.0 mm 0.00 in0.0 mm
07:49 AM 7.9°F-13.4°C -2.2°F-19.0°C 63% 11.0 mph WNW17.7 kmh WNW 15.9 mph25.6 kmh 29.12 in986.1 mb 0.00 in0.0 mm 0.00 in0.0 mm 0.00 in0.0 mm
07:48 AM 7.9°F-13.4°C -2.2°F-19.0°C 63% 10.6 mph WNW17.1 kmh WNW 15.9 mph25.6 kmh 29.12 in986.1 mb 0.00 in0.0 mm 0.00 in0.0 mm 0.00 in0.0 mm
07:47 AM 7.9°F-13.4°C -2.2°F-19.0°C 63% 10.3 mph W16.6 kmh W 15.9 mph25.6 kmh 29.12 in986.1 mb 0.00 in0.0 mm 0.00 in0.0 mm 0.00 in0.0 mm
07:46 AM 7.9°F-13.4°C -2.2°F-19.0°C 63% 9.9 mph W15.9 kmh W 15.9 mph25.6 kmh 29.12 in986.1 mb 0.00 in0.0 mm 0.00 in0.0 mm 0.00 in0.0 mm
07:45 AM 7.9°F-13.4°C -2.2°F-19.0°C 63% 10.7 mph WNW17.2 kmh WNW 15.9 mph25.6 kmh 29.12 in986.1 mb 0.00 in0.0 mm 0.00 in0.0 mm 0.00 in0.0 mm
07:44 AM 7.7°F-13.5°C -2.4°F-19.1°C 63% 11.8 mph WNW19.0 kmh WNW 15.9 mph25.6 kmh 29.12 in986.1 mb 0.00 in0.0 mm 0.00 in0.0 mm 0.00 in0.0 mm
07:43 AM 7.7°F-13.5°C -2.4°F-19.1°C 63% 11.8 mph WNW19.0 kmh WNW 15.9 mph25.6 kmh 29.12 in986.1 mb 0.00 in0.0 mm 0.00 in0.0 mm 0.00 in0.0 mm
07:42 AM 7.7°F-13.5°C -2.4°F-19.1°C 63% 10.8 mph WNW17.4 kmh WNW 15.9 mph25.6 kmh 29.12 in986.1 mb 0.00 in0.0 mm 0.00 in0.0 mm 0.00 in0.0 mm
07:41 AM 7.7°F-13.5°C -2.4°F-19.1°C 63% 8.7 mph WNW14.0 kmh WNW 15.2 mph24.5 kmh 29.12 in986.1 mb 0.00 in0.0 mm 0.00 in0.0 mm 0.00 in0.0 mm
07:40 AM 7.7°F-13.5°C -2.4°F-19.1°C 63% 7.3 mph W11.7 kmh W 15.2 mph24.5 kmh 29.12 in986.1 mb 0.00 in0.0 mm 0.00 in0.0 mm 0.00 in0.0 mm
07:39 AM 7.7°F-13.5°C -2.4°F-19.1°C 63% 7.0 mph W11.3 kmh W 14.6 mph23.5 kmh 29.12 in986.1 mb 0.00 in0.0 mm 0.00 in0.0 mm 0.00 in0.0 mm
07:38 AM 7.7°F-13.5°C -2.4°F-19.1°C 63% 7.2 mph W11.6 kmh W 14.6 mph23.5 kmh 29.12 in986.1 mb 0.00 in0.0 mm 0.00 in0.0 mm 0.00 in0.0 mm
07:37 AM 7.7°F-13.5°C -2.4°F-19.1°C 63% 6.8 mph W10.9 kmh W 14.6 mph23.5 kmh 29.12 in986.1 mb 0.00 in0.0 mm 0.00 in0.0 mm 0.00 in0.0 mm
07:36 AM 7.7°F-13.5°C -2.4°F-19.1°C 63% 6.8 mph W10.9 kmh W 15.2 mph24.5 kmh 29.12 in986.1 mb 0.00 in0.0 mm 0.00 in0.0 mm 0.00 in0.0 mm
07:35 AM 7.7°F-13.5°C -2.4°F-19.1°C 63% 7.9 mph W12.7 kmh W 15.2 mph24.5 kmh 29.12 in986.1 mb 0.00 in0.0 mm 0.00 in0.0 mm 0.00 in0.0 mm
07:34 AM 7.7°F-13.5°C -2.4°F-19.1°C 63% 9.8 mph W15.8 kmh W 15.2 mph24.5 kmh 29.12 in986.1 mb 0.00 in0.0 mm 0.00 in0.0 mm 0.00 in0.0 mm
07:33 AM 7.7°F-13.5°C -2.4°F-19.1°C 63% 11.0 mph W17.7 kmh W 15.2 mph24.5 kmh 29.12 in986.1 mb 0.00 in0.0 mm 0.00 in0.0 mm 0.00 in0.0 mm
07:32 AM 7.7°F-13.5°C -2.4°F-19.1°C 63% 11.2 mph W18.0 kmh W 15.2 mph24.5 kmh 29.12 in986.1 mb 0.00 in0.0 mm 0.00 in0.0 mm 0.00 in0.0 mm
07:31 AM 7.5°F-13.6°C -2.6°F-19.2°C 63% 10.7 mph W17.2 kmh W 15.2 mph24.5 kmh 29.12 in986.1 mb 0.00 in0.0 mm 0.00 in0.0 mm 0.00 in0.0 mm
07:30 AM 7.5°F-13.6°C -2.6°F-19.2°C 63% 10.8 mph W17.4 kmh W 15.2 mph24.5 kmh 29.12 in986.1 mb 0.00 in0.0 mm 0.00 in0.0 mm 0.00 in0.0 mm
07:29 AM 7.5°F-13.6°C -2.6°F-19.2°C 63% 11.6 mph W18.7 kmh W 15.2 mph24.5 kmh 29.12 in986.1 mb 0.00 in0.0 mm 0.00 in0.0 mm 0.00 in0.0 mm
07:28 AM 7.5°F-13.6°C -2.6°F-19.2°C 63% 11.2 mph W18.0 kmh W 15.2 mph24.5 kmh 29.12 in986.1 mb 0.00 in0.0 mm 0.00 in0.0 mm 0.00 in0.0 mm
07:27 AM 7.5°F-13.6°C -2.6°F-19.2°C 63% 9.9 mph W15.9 kmh W 15.2 mph24.5 kmh 29.12 in986.1 mb 0.00 in0.0 mm 0.00 in0.0 mm 0.00 in0.0 mm
07:26 AM 7.3°F-13.7°C -2.8°F-19.3°C 63% 8.9 mph W14.3 kmh W 15.2 mph24.5 kmh 29.12 in986.1 mb 0.00 in0.0 mm 0.00 in0.0 mm 0.00 in0.0 mm
07:25 AM 7.3°F-13.7°C -2.8°F-19.3°C 63% 9.6 mph W15.4 kmh W 14.6 mph23.5 kmh 29.12 in986.1 mb 0.00 in0.0 mm 0.00 in0.0 mm 0.00 in0.0 mm
07:24 AM 7.2°F-13.8°C -2.9°F-19.4°C 63% 9.6 mph W15.4 kmh W 14.6 mph23.5 kmh 29.12 in986.1 mb 0.00 in0.0 mm 0.00 in0.0 mm 0.00 in0.0 mm
07:23 AM 7.2°F-13.8°C -2.9°F-19.4°C 63% 9.3 mph W15.0 kmh W 15.2 mph24.5 kmh 29.12 in986.1 mb 0.00 in0.0 mm 0.00 in0.0 mm 0.00 in0.0 mm
07:22 AM 7.2°F-13.8°C -2.9°F-19.4°C 63% 9.2 mph W14.8 kmh W 15.2 mph24.5 kmh 29.12 in986.1 mb 0.00 in0.0 mm 0.00 in0.0 mm 0.00 in0.0 mm
07:21 AM 7.2°F-13.8°C -2.9°F-19.4°C 63% 9.1 mph W14.6 kmh W 15.2 mph24.5 kmh 29.12 in986.1 mb 0.00 in0.0 mm 0.00 in0.0 mm 0.00 in0.0 mm
07:19 AM 7.0°F-13.9°C -3.1°F-19.5°C 63% 10.1 mph W16.3 kmh W 15.2 mph24.5 kmh 29.12 in986.1 mb 0.00 in0.0 mm 0.00 in0.0 mm 0.00 in0.0 mm
07:18 AM 7.0°F-13.9°C -3.1°F-19.5°C 63% 9.6 mph W15.4 kmh W 15.2 mph24.5 kmh 29.12 in986.1 mb 0.00 in0.0 mm 0.00 in0.0 mm 0.00 in0.0 mm
07:17 AM 7.0°F-13.9°C -3.1°F-19.5°C 63% 9.1 mph W14.6 kmh W 15.2 mph24.5 kmh 29.12 in986.1 mb 0.00 in0.0 mm 0.00 in0.0 mm 0.00 in0.0 mm
07:16 AM 7.0°F-13.9°C -3.1°F-19.5°C 63% 9.3 mph W15.0 kmh W 15.2 mph24.5 kmh 29.12 in986.1 mb 0.00 in0.0 mm 0.00 in0.0 mm 0.00 in0.0 mm
07:15 AM 7.0°F-13.9°C -3.1°F-19.5°C 63% 9.7 mph W15.6 kmh W 15.2 mph24.5 kmh 29.12 in986.1 mb 0.00 in0.0 mm 0.00 in0.0 mm 0.00 in0.0 mm
07:14 AM 6.8°F-14.0°C -3.3°F-19.6°C 63% 10.0 mph W16.1 kmh W 15.2 mph24.5 kmh 29.12 in986.1 mb 0.00 in0.0 mm 0.00 in0.0 mm 0.00 in0.0 mm
07:13 AM 6.8°F-14.0°C -3.3°F-19.6°C 63% 9.7 mph W15.6 kmh W 13.9 mph22.4 kmh 29.12 in986.1 mb 0.00 in0.0 mm 0.00 in0.0 mm 0.00 in0.0 mm
07:12 AM 6.8°F-14.0°C -3.3°F-19.6°C 63% 8.9 mph W14.3 kmh W 13.9 mph22.4 kmh 29.12 in986.1 mb 0.00 in0.0 mm 0.00 in0.0 mm 0.00 in0.0 mm
07:11 AM 6.8°F-14.0°C -3.3°F-19.6°C 63% 8.7 mph W14.0 kmh W 13.9 mph22.4 kmh 29.12 in986.1 mb 0.00 in0.0 mm 0.00 in0.0 mm 0.00 in0.0 mm
07:10 AM 6.8°F-14.0°C -3.3°F-19.6°C 63% 8.4 mph W13.5 kmh W 13.9 mph22.4 kmh 29.12 in986.1 mb 0.00 in0.0 mm 0.00 in0.0 mm 0.00 in0.0 mm
07:09 AM 6.8°F-14.0°C -3.3°F-19.6°C 63% 7.3 mph W11.7 kmh W 13.9 mph22.4 kmh 29.12 in986.1 mb 0.00 in0.0 mm 0.00 in0.0 mm 0.00 in0.0 mm
07:08 AM 6.6°F-14.1°C -3.5°F-19.7°C 63% 8.3 mph W13.4 kmh W 13.9 mph22.4 kmh 29.12 in986.1 mb 0.00 in0.0 mm 0.00 in0.0 mm 0.00 in0.0 mm
07:07 AM 6.6°F-14.1°C -3.5°F-19.7°C 63% 9.2 mph W14.8 kmh W 13.9 mph22.4 kmh 29.12 in986.1 mb 0.00 in0.0 mm 0.00 in0.0 mm 0.00 in0.0 mm
07:06 AM 6.6°F-14.1°C -3.5°F-19.7°C 63% 9.1 mph W14.6 kmh W 13.9 mph22.4 kmh 29.12 in986.1 mb 0.00 in0.0 mm 0.00 in0.0 mm 0.00 in0.0 mm
07:05 AM 6.6°F-14.1°C -3.5°F-19.7°C 62% 8.7 mph W14.0 kmh W 13.9 mph22.4 kmh 29.12 in986.1 mb 0.00 in0.0 mm 0.00 in0.0 mm 0.00 in0.0 mm
07:04 AM 6.6°F-14.1°C -3.5°F-19.7°C 62% 8.1 mph W13.0 kmh W 12.6 mph20.3 kmh 29.12 in986.1 mb 0.00 in0.0 mm 0.00 in0.0 mm 0.00 in0.0 mm
07:03 AM 6.6°F-14.1°C -3.5°F-19.7°C 62% 8.1 mph W13.0 kmh W 12.6 mph20.3 kmh 29.12 in986.1 mb 0.00 in0.0 mm 0.00 in0.0 mm 0.00 in0.0 mm
07:02 AM 6.6°F-14.1°C -3.5°F-19.7°C 62% 8.2 mph W13.2 kmh W 12.0 mph19.3 kmh 29.12 in986.1 mb 0.00 in0.0 mm 0.00 in0.0 mm 0.00 in0.0 mm
07:01 AM 6.6°F-14.1°C -3.5°F-19.7°C 62% 7.7 mph W12.4 kmh W 12.0 mph19.3 kmh 29.12 in986.1 mb 0.00 in0.0 mm 0.00 in0.0 mm 0.00 in0.0 mm
07:00 AM 6.6°F-14.1°C -3.5°F-19.7°C 62% 8.2 mph W13.2 kmh W 12.0 mph19.3 kmh 29.12 in986.1 mb 0.00 in0.0 mm 0.00 in0.0 mm 0.00 in0.0 mm
06:59 AM 6.6°F-14.1°C -3.5°F-19.7°C 62% 8.7 mph W14.0 kmh W 12.0 mph19.3 kmh 29.12 in986.1 mb 0.00 in0.0 mm 0.00 in0.0 mm 0.00 in0.0 mm
06:58 AM 6.8°F-14.0°C -3.3°F-19.6°C 62% 8.7 mph W14.0 kmh W 12.0 mph19.3 kmh 29.12 in986.1 mb 0.00 in0.0 mm 0.00 in0.0 mm 0.00 in0.0 mm
06:57 AM 6.8°F-14.0°C -3.3°F-19.6°C 62% 9.2 mph W14.8 kmh W 12.0 mph19.3 kmh 29.12 in986.1 mb 0.00 in0.0 mm 0.00 in0.0 mm 0.00 in0.0 mm
06:56 AM 6.8°F-14.0°C -3.3°F-19.6°C 62% 8.8 mph W14.2 kmh W 12.0 mph19.3 kmh 29.12 in986.1 mb 0.00 in0.0 mm 0.00 in0.0 mm 0.00 in0.0 mm
06:55 AM 6.8°F-14.0°C -3.3°F-19.6°C 62% 7.7 mph W12.4 kmh W 12.0 mph19.3 kmh 29.12 in986.1 mb 0.00 in0.0 mm 0.00 in0.0 mm 0.00 in0.0 mm
06:54 AM 6.8°F-14.0°C -3.3°F-19.6°C 62% 7.5 mph W12.1 kmh W 12.0 mph19.3 kmh 29.12 in986.1 mb 0.00 in0.0 mm 0.00 in0.0 mm 0.00 in0.0 mm
06:53 AM 7.0°F-13.9°C -3.1°F-19.5°C 62% 8.0 mph W12.9 kmh W 11.7 mph18.8 kmh 29.12 in986.1 mb 0.00 in0.0 mm 0.00 in0.0 mm 0.00 in0.0 mm
06:52 AM 7.0°F-13.9°C -3.1°F-19.5°C 62% 7.6 mph W12.2 kmh W 11.7 mph18.8 kmh 29.12 in986.1 mb 0.00 in0.0 mm 0.00 in0.0 mm 0.00 in0.0 mm
06:51 AM 7.0°F-13.9°C -3.1°F-19.5°C 62% 6.4 mph W10.3 kmh W 11.0 mph17.7 kmh 29.12 in986.1 mb 0.00 in0.0 mm 0.00 in0.0 mm 0.00 in0.0 mm
06:50 AM 7.0°F-13.9°C -3.1°F-19.5°C 62% 6.1 mph W9.8 kmh W 11.0 mph17.7 kmh 29.12 in986.1 mb 0.00 in0.0 mm 0.00 in0.0 mm 0.00 in0.0 mm
06:49 AM 7.2°F-13.8°C -2.9°F-19.4°C 62% 6.6 mph W10.6 kmh W 11.7 mph18.8 kmh 29.12 in986.1 mb 0.00 in0.0 mm 0.00 in0.0 mm 0.00 in0.0 mm
06:48 AM 7.2°F-13.8°C -2.9°F-19.4°C 62% 6.8 mph W10.9 kmh W 11.7 mph18.8 kmh 29.12 in986.1 mb 0.00 in0.0 mm 0.00 in0.0 mm 0.00 in0.0 mm
06:47 AM 7.2°F-13.8°C -2.9°F-19.4°C 62% 7.2 mph W11.6 kmh W 12.0 mph19.3 kmh 29.12 in986.1 mb 0.00 in0.0 mm 0.00 in0.0 mm 0.00 in0.0 mm
06:46 AM 7.2°F-13.8°C -2.9°F-19.4°C 62% 7.4 mph W11.9 kmh W 12.6 mph20.3 kmh 29.12 in986.1 mb 0.00 in0.0 mm 0.00 in0.0 mm 0.00 in0.0 mm
06:45 AM 7.2°F-13.8°C -2.9°F-19.4°C 62% 7.4 mph W11.9 kmh W 12.6 mph20.3 kmh 29.12 in986.1 mb 0.00 in0.0 mm 0.00 in0.0 mm 0.00 in0.0 mm
06:44 AM 7.2°F-13.8°C -2.9°F-19.4°C 62% 7.5 mph W12.1 kmh W 12.6 mph20.3 kmh 29.12 in986.1 mb 0.00 in0.0 mm 0.00 in0.0 mm 0.00 in0.0 mm
06:43 AM 7.3°F-13.7°C -2.8°F-19.3°C 62% 7.8 mph W12.6 kmh W 12.6 mph20.3 kmh 29.12 in986.1 mb 0.00 in0.0 mm 0.00 in0.0 mm 0.00 in0.0 mm
06:42 AM 7.3°F-13.7°C -2.8°F-19.3°C 62% 7.9 mph W12.7 kmh W 12.6 mph20.3 kmh 29.12 in986.1 mb 0.00 in0.0 mm 0.00 in0.0 mm 0.00 in0.0 mm
06:41 AM 7.5°F-13.6°C -2.7°F-19.3°C 62% 8.2 mph W13.2 kmh W 12.6 mph20.3 kmh 29.12 in986.1 mb 0.00 in0.0 mm 0.00 in0.0 mm 0.00 in0.0 mm
06:40 AM 7.5°F-13.6°C -2.7°F-19.3°C 62% 8.5 mph WNW13.7 kmh WNW 12.6 mph20.3 kmh 29.12 in986.1 mb 0.00 in0.0 mm 0.00 in0.0 mm 0.00 in0.0 mm
06:39 AM 7.5°F-13.6°C -2.7°F-19.3°C 62% 9.1 mph W14.6 kmh W 12.6 mph20.3 kmh 29.12 in986.1 mb 0.00 in0.0 mm 0.00 in0.0 mm 0.00 in0.0 mm
06:38 AM 7.5°F-13.6°C -2.7°F-19.3°C 62% 9.4 mph W15.1 kmh W 12.6 mph20.3 kmh 29.12 in986.1 mb 0.00 in0.0 mm 0.00 in0.0 mm 0.00 in0.0 mm
06:37 AM 7.7°F-13.5°C -2.5°F-19.2°C 62% 8.7 mph WNW14.0 kmh WNW 12.6 mph20.3 kmh 29.12 in986.1 mb 0.00 in0.0 mm 0.00 in0.0 mm 0.00 in0.0 mm
06:36 AM 7.7°F-13.5°C -2.5°F-19.2°C 62% 7.7 mph W12.4 kmh W 12.6 mph20.3 kmh 29.12 in986.1 mb 0.00 in0.0 mm 0.00 in0.0 mm 0.00 in0.0 mm
06:35 AM 7.7°F-13.5°C -2.5°F-19.2°C 62% 7.8 mph W12.6 kmh W 12.6 mph20.3 kmh 29.12 in986.1 mb 0.00 in0.0 mm 0.00 in0.0 mm 0.00 in0.0 mm
06:34 AM 7.9°F-13.4°C -2.3°F-19.1°C 62% 8.0 mph W12.9 kmh W 12.6 mph20.3 kmh 29.12 in986.1 mb 0.00 in0.0 mm 0.00 in0.0 mm 0.00 in0.0 mm
06:33 AM 7.9°F-13.4°C -2.3°F-19.1°C 62% 7.5 mph W12.1 kmh W 12.6 mph20.3 kmh 29.12 in986.1 mb 0.00 in0.0 mm 0.00 in0.0 mm 0.00 in0.0 mm
06:32 AM 7.9°F-13.4°C -2.3°F-19.1°C 62% 7.4 mph W11.9 kmh W 12.6 mph20.3 kmh 29.12 in986.1 mb 0.00 in0.0 mm 0.00 in0.0 mm 0.00 in0.0 mm
06:31 AM 7.9°F-13.4°C -2.3°F-19.1°C 62% 7.8 mph W12.6 kmh W 12.6 mph20.3 kmh 29.12 in986.1 mb 0.00 in0.0 mm 0.00 in0.0 mm 0.00 in0.0 mm
06:30 AM 7.9°F-13.4°C -2.3°F-19.1°C 62% 8.2 mph W13.2 kmh W 12.6 mph20.3 kmh 29.12 in986.1 mb 0.00 in0.0 mm 0.00 in0.0 mm 0.00 in0.0 mm
06:29 AM 8.1°F-13.3°C -2.1°F-18.9°C 62% 8.4 mph W13.5 kmh W 12.6 mph20.3 kmh 29.12 in986.1 mb 0.00 in0.0 mm 0.00 in0.0 mm 0.00 in0.0 mm
06:28 AM 8.1°F-13.3°C -2.1°F-18.9°C 62% 9.2 mph WNW14.8 kmh WNW 13.3 mph21.4 kmh 29.12 in986.1 mb 0.00 in0.0 mm 0.00 in0.0 mm 0.00 in0.0 mm
06:27 AM 8.1°F-13.3°C -2.1°F-18.9°C 62% 9.7 mph WNW15.6 kmh WNW 13.3 mph21.4 kmh 29.12 in986.1 mb 0.00 in0.0 mm 0.00 in0.0 mm 0.00 in0.0 mm
06:26 AM 8.2°F-13.2°C -2.0°F-18.9°C 62% 8.8 mph WNW14.2 kmh WNW 13.3 mph21.4 kmh 29.12 in986.1 mb 0.00 in0.0 mm 0.00 in0.0 mm 0.00 in0.0 mm
06:25 AM 8.4°F-13.1°C -1.8°F-18.8°C 62% 7.9 mph WNW12.7 kmh WNW 13.3 mph21.4 kmh 29.12 in986.1 mb 0.00 in0.0 mm 0.00 in0.0 mm 0.00 in0.0 mm
06:24 AM 8.4°F-13.1°C -1.8°F-18.8°C 62% 7.8 mph WNW12.6 kmh WNW 13.3 mph21.4 kmh 29.09 in985.1 mb 0.00 in0.0 mm 0.00 in0.0 mm 0.00 in0.0 mm
06:23 AM 8.4°F-13.1°C -1.8°F-18.8°C 62% 7.7 mph W12.4 kmh W 13.3 mph21.4 kmh 29.09 in985.1 mb 0.00 in0.0 mm 0.00 in0.0 mm 0.00 in0.0 mm
06:22 AM 8.4°F-13.1°C -1.8°F-18.8°C 62% 7.4 mph W11.9 kmh W 13.3 mph21.4 kmh 29.09 in985.1 mb 0.00 in0.0 mm 0.00 in0.0 mm 0.00 in0.0 mm
06:21 AM 8.4°F-13.1°C -1.8°F-18.8°C 62% 8.2 mph W13.2 kmh W 13.3 mph21.4 kmh 29.09 in985.1 mb 0.00 in0.0 mm 0.00 in0.0 mm 0.00 in0.0 mm
06:20 AM 8.4°F-13.1°C -1.8°F-18.8°C 62% 10.3 mph W16.6 kmh W 13.3 mph21.4 kmh 29.09 in985.1 mb 0.00 in0.0 mm 0.00 in0.0 mm 0.00 in0.0 mm
06:19 AM 8.4°F-13.1°C -1.8°F-18.8°C 62% 10.3 mph W16.6 kmh W 13.3 mph21.4 kmh 29.09 in985.1 mb 0.00 in0.0 mm 0.00 in0.0 mm 0.00 in0.0 mm
06:18 AM 8.4°F-13.1°C -1.8°F-18.8°C 62% 9.0 mph W14.5 kmh W 12.0 mph19.3 kmh 29.09 in985.1 mb 0.00 in0.0 mm 0.00 in0.0 mm 0.00 in0.0 mm
06:17 AM 8.4°F-13.1°C -1.8°F-18.8°C 62% 7.0 mph W11.3 kmh W 12.6 mph20.3 kmh 29.09 in985.1 mb 0.00 in0.0 mm 0.00 in0.0 mm 0.00 in0.0 mm
06:16 AM 8.4°F-13.1°C -1.8°F-18.8°C 62% 7.5 mph W12.1 kmh W 12.6 mph20.3 kmh 29.09 in985.1 mb 0.00 in0.0 mm 0.00 in0.0 mm 0.00 in0.0 mm
06:15 AM 8.4°F-13.1°C -1.8°F-18.8°C 62% 9.1 mph WSW14.6 kmh WSW 12.6 mph20.3 kmh 29.09 in985.1 mb 0.00 in0.0 mm 0.00 in0.0 mm 0.00 in0.0 mm
06:14 AM 8.4°F-13.1°C -1.8°F-18.8°C 62% 9.3 mph W15.0 kmh W 12.6 mph20.3 kmh 29.09 in985.1 mb 0.00 in0.0 mm 0.00 in0.0 mm 0.00 in0.0 mm
06:13 AM 8.4°F-13.1°C -1.8°F-18.8°C 62% 9.0 mph W14.5 kmh W 12.6 mph20.3 kmh 29.09 in985.1 mb 0.00 in0.0 mm 0.00 in0.0 mm 0.00 in0.0 mm
06:12 AM 8.4°F-13.1°C -1.8°F-18.8°C 62% 9.3 mph WNW15.0 kmh WNW 12.6 mph20.3 kmh 29.09 in985.1 mb 0.00 in0.0 mm 0.00 in0.0 mm 0.00 in0.0 mm
06:11 AM 8.4°F-13.1°C -1.8°F-18.8°C 62% 10.2 mph WNW16.4 kmh WNW 12.6 mph20.3 kmh 29.09 in985.1 mb 0.00 in0.0 mm 0.00 in0.0 mm 0.00 in0.0 mm
06:10 AM 8.4°F-13.1°C -1.8°F-18.8°C 62% 9.8 mph WNW15.8 kmh WNW 12.6 mph20.3 kmh 29.09 in985.1 mb 0.00 in0.0 mm 0.00 in0.0 mm 0.00 in0.0 mm
06:09 AM 8.4°F-13.1°C -1.8°F-18.8°C 62% 8.3 mph WNW13.4 kmh WNW 12.6 mph20.3 kmh 29.09 in985.1 mb 0.00 in0.0 mm 0.00 in0.0 mm 0.00 in0.0 mm
06:08 AM 8.4°F-13.1°C -1.8°F-18.8°C 62% 7.9 mph WNW12.7 kmh WNW 12.6 mph20.3 kmh 29.09 in985.1 mb 0.00 in0.0 mm 0.00 in0.0 mm 0.00 in0.0 mm
06:07 AM 8.4°F-13.1°C -1.8°F-18.8°C 62% 8.2 mph WNW13.2 kmh WNW 12.6 mph20.3 kmh 29.09 in985.1 mb 0.00 in0.0 mm 0.00 in0.0 mm 0.00 in0.0 mm
06:06 AM 8.2°F-13.2°C -2.0°F-18.9°C 62% 9.5 mph WNW15.3 kmh WNW 12.6 mph20.3 kmh 29.09 in985.1 mb 0.00 in0.0 mm 0.00 in0.0 mm 0.00 in0.0 mm
06:05 AM 8.2°F-13.2°C -2.0°F-18.9°C 62% 9.4 mph WNW15.1 kmh WNW 12.6 mph20.3 kmh 29.09 in985.1 mb 0.00 in0.0 mm 0.00 in0.0 mm 0.00 in0.0 mm
06:04 AM 8.1°F-13.3°C -2.1°F-18.9°C 62% 8.5 mph WNW13.7 kmh WNW 12.6 mph20.3 kmh 29.09 in985.1 mb 0.00 in0.0 mm 0.00 in0.0 mm 0.00 in0.0 mm
06:03 AM 8.1°F-13.3°C -2.1°F-18.9°C 62% 8.3 mph WNW13.4 kmh WNW 12.6 mph20.3 kmh 29.09 in985.1 mb 0.00 in0.0 mm 0.00 in0.0 mm 0.00 in0.0 mm
06:02 AM 8.1°F-13.3°C -2.0°F-18.9°C 62% 8.9 mph WNW14.3 kmh WNW 12.6 mph20.3 kmh 29.09 in985.1 mb 0.00 in0.0 mm 0.00 in0.0 mm 0.00 in0.0 mm
06:01 AM 8.1°F-13.3°C -2.0°F-18.9°C 62% 9.3 mph W15.0 kmh W 12.6 mph20.3 kmh 29.09 in985.1 mb 0.00 in0.0 mm 0.00 in0.0 mm 0.00 in0.0 mm
06:00 AM 8.1°F-13.3°C -2.0°F-18.9°C 62% 9.4 mph W15.1 kmh W 12.6 mph20.3 kmh 29.09 in985.1 mb 0.00 in0.0 mm 0.00 in0.0 mm 0.00 in0.0 mm
05:59 AM 8.1°F-13.3°C -2.0°F-18.9°C 62% 9.3 mph W15.0 kmh W 12.6 mph20.3 kmh 29.09 in985.1 mb 0.00 in0.0 mm 0.00 in0.0 mm 0.00 in0.0 mm
05:58 AM 8.1°F-13.3°C -2.0°F-18.9°C 62% 9.0 mph W14.5 kmh W 12.6 mph20.3 kmh 29.09 in985.1 mb 0.00 in0.0 mm 0.00 in0.0 mm 0.00 in0.0 mm
05:57 AM 8.1°F-13.3°C -2.0°F-18.9°C 63% 8.1 mph W13.0 kmh W 12.6 mph20.3 kmh 29.09 in985.1 mb 0.00 in0.0 mm 0.00 in0.0 mm 0.00 in0.0 mm
05:56 AM 8.1°F-13.3°C -2.0°F-18.9°C 63% 8.1 mph W13.0 kmh W 12.6 mph20.3 kmh 29.09 in985.1 mb 0.00 in0.0 mm 0.00 in0.0 mm 0.00 in0.0 mm
05:55 AM 8.1°F-13.3°C -2.0°F-18.9°C 63% 8.4 mph W13.5 kmh W 12.6 mph20.3 kmh 29.09 in985.1 mb 0.00 in0.0 mm 0.00 in0.0 mm 0.00 in0.0 mm
05:54 AM 8.1°F-13.3°C -2.0°F-18.9°C 63% 8.9 mph W14.3 kmh W 12.6 mph20.3 kmh 29.09 in985.1 mb 0.00 in0.0 mm 0.00 in0.0 mm 0.00 in0.0 mm
05:53 AM 8.1°F-13.3°C -2.0°F-18.9°C 63% 8.9 mph W14.3 kmh W 12.6 mph20.3 kmh 29.09 in985.1 mb 0.00 in0.0 mm 0.00 in0.0 mm 0.00 in0.0 mm
05:52 AM 8.1°F-13.3°C -2.0°F-18.9°C 63% 8.0 mph W12.9 kmh W 12.6 mph20.3 kmh 29.09 in985.1 mb 0.00 in0.0 mm 0.00 in0.0 mm 0.00 in0.0 mm
05:51 AM 8.1°F-13.3°C -2.0°F-18.9°C 63% 7.5 mph W12.1 kmh W 12.6 mph20.3 kmh 29.09 in985.1 mb 0.00 in0.0 mm 0.00 in0.0 mm 0.00 in0.0 mm
05:50 AM 8.1°F-13.3°C -2.0°F-18.9°C 63% 6.9 mph W11.1 kmh W 12.6 mph20.3 kmh 29.09 in985.1 mb 0.00 in0.0 mm 0.00 in0.0 mm 0.00 in0.0 mm
05:49 AM 8.1°F-13.3°C -2.0°F-18.9°C 63% 6.2 mph W10.0 kmh W 11.0 mph17.7 kmh 29.09 in985.1 mb 0.00 in0.0 mm 0.00 in0.0 mm 0.00 in0.0 mm
05:48 AM 8.1°F-13.3°C -2.0°F-18.9°C 63% 6.3 mph W10.1 kmh W 11.0 mph17.7 kmh 29.09 in985.1 mb 0.00 in0.0 mm 0.00 in0.0 mm 0.00 in0.0 mm
05:47 AM 8.1°F-13.3°C -2.0°F-18.9°C 63% 6.6 mph W10.6 kmh W 11.0 mph17.7 kmh 29.09 in985.1 mb 0.00 in0.0 mm 0.00 in0.0 mm 0.00 in0.0 mm
05:46 AM 8.1°F-13.3°C -2.0°F-18.9°C 63% 6.2 mph WSW10.0 kmh WSW 11.0 mph17.7 kmh 29.09 in985.1 mb 0.00 in0.0 mm 0.00 in0.0 mm 0.00 in0.0 mm
05:45 AM 7.9°F-13.4°C -2.2°F-19.0°C 63% 5.7 mph WSW9.2 kmh WSW 11.0 mph17.7 kmh 29.09 in985.1 mb 0.00 in0.0 mm 0.00 in0.0 mm 0.00 in0.0 mm
05:44 AM 7.9°F-13.4°C -2.2°F-19.0°C 63% 5.8 mph W9.3 kmh W 11.0 mph17.7 kmh 29.09 in985.1 mb 0.00 in0.0 mm 0.00 in0.0 mm 0.00 in0.0 mm
05:43 AM 7.9°F-13.4°C -2.2°F-19.0°C 63% 6.4 mph W10.3 kmh W 11.0 mph17.7 kmh 29.09 in985.1 mb 0.00 in0.0 mm 0.00 in0.0 mm 0.00 in0.0 mm
05:42 AM 7.9°F-13.4°C -2.2°F-19.0°C 63% 7.1 mph W11.4 kmh W 11.0 mph17.7 kmh 29.09 in985.1 mb 0.00 in0.0 mm 0.00 in0.0 mm 0.00 in0.0 mm
05:41 AM 7.9°F-13.4°C -2.2°F-19.0°C 63% 7.1 mph W11.4 kmh W 11.0 mph17.7 kmh 29.09 in985.1 mb 0.00 in0.0 mm 0.00 in0.0 mm 0.00 in0.0 mm
05:40 AM 7.7°F-13.5°C -2.4°F-19.1°C 63% 6.9 mph W11.1 kmh W 11.0 mph17.7 kmh 29.09 in985.1 mb 0.00 in0.0 mm 0.00 in0.0 mm 0.00 in0.0 mm
05:39 AM 7.7°F-13.5°C -2.4°F-19.1°C 63% 6.9 mph W11.1 kmh W 11.0 mph17.7 kmh 29.09 in985.1 mb 0.00 in0.0 mm 0.00 in0.0 mm 0.00 in0.0 mm
05:38 AM 7.7°F-13.5°C -2.4°F-19.1°C 63% 7.2 mph W11.6 kmh W 11.7 mph18.8 kmh 29.09 in985.1 mb 0.00 in0.0 mm 0.00 in0.0 mm 0.00 in0.0 mm
05:37 AM 7.7°F-13.5°C -2.4°F-19.1°C 63% 6.6 mph W10.6 kmh W 11.7 mph18.8 kmh 29.09 in985.1 mb 0.00 in0.0 mm 0.00 in0.0 mm 0.00 in0.0 mm
05:36 AM 7.7°F-13.5°C -2.4°F-19.1°C 63% 6.4 mph W10.3 kmh W 12.0 mph19.3 kmh 29.09 in985.1 mb 0.00 in0.0 mm 0.00 in0.0 mm 0.00 in0.0 mm
05:35 AM 7.5°F-13.6°C -2.6°F-19.2°C 63% 7.3 mph W11.7 kmh W 12.6 mph20.3 kmh 29.09 in985.1 mb 0.00 in0.0 mm 0.00 in0.0 mm 0.00 in0.0 mm
05:34 AM 7.5°F-13.6°C -2.6°F-19.2°C 63% 8.0 mph W12.9 kmh W 12.6 mph20.3 kmh 29.09 in985.1 mb 0.00 in0.0 mm 0.00 in0.0 mm 0.00 in0.0 mm
05:33 AM 7.5°F-13.6°C -2.6°F-19.2°C 63% 7.7 mph WSW12.4 kmh WSW 12.6 mph20.3 kmh 29.09 in985.1 mb 0.00 in0.0 mm 0.00 in0.0 mm 0.00 in0.0 mm
05:32 AM 7.5°F-13.6°C -2.6°F-19.2°C 63% 7.5 mph W12.1 kmh W 12.6 mph20.3 kmh 29.09 in985.1 mb 0.00 in0.0 mm 0.00 in0.0 mm 0.00 in0.0 mm
05:31 AM 7.5°F-13.6°C -2.6°F-19.2°C 63% 7.9 mph W12.7 kmh W 12.6 mph20.3 kmh 29.09 in985.1 mb 0.00 in0.0 mm 0.00 in0.0 mm 0.00 in0.0 mm
05:30 AM 7.3°F-13.7°C -2.8°F-19.3°C 63% 8.2 mph W13.2 kmh W 12.6 mph20.3 kmh 29.09 in985.1 mb 0.00 in0.0 mm 0.00 in0.0 mm 0.00 in0.0 mm
05:29 AM 7.3°F-13.7°C -2.8°F-19.3°C 63% 8.1 mph W13.0 kmh W 12.6 mph20.3 kmh 29.09 in985.1 mb 0.00 in0.0 mm 0.00 in0.0 mm 0.00 in0.0 mm
05:28 AM 7.3°F-13.7°C -2.7°F-19.3°C 63% 8.3 mph W13.4 kmh W 12.6 mph20.3 kmh 29.09 in985.1 mb 0.00 in0.0 mm 0.00 in0.0 mm 0.00 in0.0 mm
05:27 AM 7.3°F-13.7°C -2.7°F-19.3°C 63% 8.1 mph W13.0 kmh W 12.6 mph20.3 kmh 29.09 in985.1 mb 0.00 in0.0 mm 0.00 in0.0 mm 0.00 in0.0 mm
05:26 AM 7.2°F-13.8°C -2.8°F-19.3°C 63% 7.4 mph W11.9 kmh W 12.6 mph20.3 kmh 29.09 in985.1 mb 0.00 in0.0 mm 0.00 in0.0 mm 0.00 in0.0 mm
05:25 AM 7.2°F-13.8°C -2.8°F-19.3°C 63% 7.1 mph W11.4 kmh W 11.0 mph17.7 kmh 29.09 in985.1 mb 0.00 in0.0 mm 0.00 in0.0 mm 0.00 in0.0 mm
05:24 AM 7.2°F-13.8°C -2.8°F-19.3°C 63% 6.7 mph W10.8 kmh W 10.4 mph16.7 kmh 29.06 in984.1 mb 0.00 in0.0 mm 0.00 in0.0 mm 0.00 in0.0 mm
05:23 AM 7.2°F-13.8°C -2.8°F-19.3°C 63% 6.6 mph W10.6 kmh W 10.4 mph16.7 kmh 29.06 in984.1 mb 0.00 in0.0 mm 0.00 in0.0 mm 0.00 in0.0 mm
05:22 AM 7.2°F-13.8°C -2.8°F-19.3°C 63% 6.7 mph W10.8 kmh W 10.4 mph16.7 kmh 29.06 in984.1 mb 0.00 in0.0 mm 0.00 in0.0 mm 0.00 in0.0 mm
05:21 AM 7.2°F-13.8°C -2.8°F-19.3°C 63% 6.9 mph W11.1 kmh W 10.4 mph16.7 kmh 29.06 in984.1 mb 0.00 in0.0 mm 0.00 in0.0 mm 0.00 in0.0 mm
05:20 AM 7.2°F-13.8°C -2.8°F-19.3°C 63% 7.0 mph W11.3 kmh W 10.4 mph16.7 kmh 29.06 in984.1 mb 0.00 in0.0 mm 0.00 in0.0 mm 0.00 in0.0 mm
05:19 AM 7.2°F-13.8°C -2.8°F-19.3°C 63% 6.5 mph W10.5 kmh W 10.4 mph16.7 kmh 29.06 in984.1 mb 0.00 in0.0 mm 0.00 in0.0 mm 0.00 in0.0 mm
05:18 AM 7.2°F-13.8°C -2.8°F-19.3°C 63% 6.3 mph W10.1 kmh W 10.4 mph16.7 kmh 29.06 in984.1 mb 0.00 in0.0 mm 0.00 in0.0 mm 0.00 in0.0 mm
05:17 AM 7.2°F-13.8°C -2.8°F-19.3°C 63% 6.6 mph W10.6 kmh W 11.0 mph17.7 kmh 29.06 in984.1 mb 0.00 in0.0 mm 0.00 in0.0 mm 0.00 in0.0 mm
05:16 AM 7.2°F-13.8°C -2.8°F-19.3°C 63% 7.1 mph W11.4 kmh W 11.0 mph17.7 kmh 29.06 in984.1 mb 0.00 in0.0 mm 0.00 in0.0 mm 0.00 in0.0 mm
05:15 AM 7.0°F-13.9°C -3.0°F-19.4°C 63% 7.0 mph W11.3 kmh W 11.0 mph17.7 kmh 29.06 in984.1 mb 0.00 in0.0 mm 0.00 in0.0 mm 0.00 in0.0 mm
05:14 AM 7.0°F-13.9°C -3.0°F-19.4°C 63% 6.4 mph W10.3 kmh W 11.0 mph17.7 kmh 29.06 in984.1 mb 0.00 in0.0 mm 0.00 in0.0 mm 0.00 in0.0 mm
05:13 AM 7.0°F-13.9°C -3.0°F-19.4°C 63% 5.5 mph W8.9 kmh W 11.0 mph17.7 kmh 29.06 in984.1 mb 0.00 in0.0 mm 0.00 in0.0 mm 0.00 in0.0 mm
05:12 AM 7.0°F-13.9°C -3.0°F-19.4°C 63% 5.5 mph W8.9 kmh W 11.0 mph17.7 kmh 29.06 in984.1 mb 0.00 in0.0 mm 0.00 in0.0 mm 0.00 in0.0 mm
05:11 AM 7.0°F-13.9°C -3.0°F-19.4°C 63% 5.8 mph W9.3 kmh W 11.0 mph17.7 kmh 29.06 in984.1 mb 0.00 in0.0 mm 0.00 in0.0 mm 0.00 in0.0 mm
05:10 AM 7.0°F-13.9°C -3.0°F-19.4°C 63% 5.8 mph W9.3 kmh W 11.0 mph17.7 kmh 29.06 in984.1 mb 0.00 in0.0 mm 0.00 in0.0 mm 0.00 in0.0 mm
05:09 AM 7.0°F-13.9°C -3.0°F-19.4°C 63% 6.5 mph W10.5 kmh W 11.0 mph17.7 kmh 29.06 in984.1 mb 0.00 in0.0 mm 0.00 in0.0 mm 0.00 in0.0 mm
05:08 AM 7.0°F-13.9°C -3.0°F-19.4°C 63% 7.1 mph W11.4 kmh W 11.0 mph17.7 kmh 29.06 in984.1 mb 0.00 in0.0 mm 0.00 in0.0 mm 0.00 in0.0 mm
05:07 AM 7.0°F-13.9°C -3.0°F-19.4°C 63% 6.4 mph W10.3 kmh W 11.0 mph17.7 kmh 29.06 in984.1 mb 0.00 in0.0 mm 0.00 in0.0 mm 0.00 in0.0 mm
05:06 AM 7.0°F-13.9°C -3.0°F-19.4°C 63% 5.5 mph W8.9 kmh W 11.0 mph17.7 kmh 29.06 in984.1 mb 0.00 in0.0 mm 0.00 in0.0 mm 0.00 in0.0 mm
05:05 AM 7.0°F-13.9°C -3.0°F-19.4°C 63% 6.0 mph W9.7 kmh W 11.0 mph17.7 kmh 29.06 in984.1 mb 0.00 in0.0 mm 0.00 in0.0 mm 0.00 in0.0 mm
05:04 AM 7.0°F-13.9°C -3.0°F-19.4°C 63% 7.0 mph W11.3 kmh W 11.0 mph17.7 kmh 29.06 in984.1 mb 0.00 in0.0 mm 0.00 in0.0 mm 0.00 in0.0 mm
05:03 AM 7.0°F-13.9°C -3.0°F-19.4°C 63% 7.7 mph W12.4 kmh W 11.0 mph17.7 kmh 29.06 in984.1 mb 0.00 in0.0 mm 0.00 in0.0 mm 0.00 in0.0 mm
05:02 AM 7.0°F-13.9°C -3.0°F-19.4°C 63% 7.7 mph W12.4 kmh W 11.0 mph17.7 kmh 29.06 in984.1 mb 0.00 in0.0 mm 0.00 in0.0 mm 0.00 in0.0 mm
05:01 AM 7.0°F-13.9°C -3.0°F-19.4°C 63% 7.3 mph W11.7 kmh W 11.0 mph17.7 kmh 29.06 in984.1 mb 0.00 in0.0 mm 0.00 in0.0 mm 0.00 in0.0 mm
05:00 AM 7.0°F-13.9°C -3.0°F-19.4°C 63% 7.6 mph W12.2 kmh W 11.0 mph17.7 kmh 29.06 in984.1 mb 0.00 in0.0 mm 0.00 in0.0 mm 0.00 in0.0 mm
04:59 AM 7.0°F-13.9°C -3.0°F-19.4°C 63% 7.1 mph W11.4 kmh W 11.0 mph17.7 kmh 29.06 in984.1 mb 0.00 in0.0 mm 0.00 in0.0 mm 0.00 in0.0 mm
04:58 AM 7.2°F-13.8°C -2.8°F-19.3°C 63% 6.5 mph W10.5 kmh W 11.0 mph17.7 kmh 29.06 in984.1 mb 0.00 in0.0 mm 0.00 in0.0 mm 0.00 in0.0 mm
04:57 AM 7.2°F-13.8°C -2.8°F-19.3°C 63% 6.6 mph W10.6 kmh W 11.0 mph17.7 kmh 29.06 in984.1 mb 0.00 in0.0 mm 0.00 in0.0 mm 0.00 in0.0 mm
04:56 AM 7.2°F-13.8°C -2.8°F-19.3°C 63% 6.8 mph W10.9 kmh W 11.0 mph17.7 kmh 29.06 in984.1 mb 0.00 in0.0 mm 0.00 in0.0 mm 0.00 in0.0 mm
04:55 AM 7.2°F-13.8°C -2.8°F-19.3°C 63% 7.2 mph W11.6 kmh W 11.7 mph18.8 kmh 29.06 in984.1 mb 0.00 in0.0 mm 0.00 in0.0 mm 0.00 in0.0 mm
04:54 AM 7.2°F-13.8°C -2.8°F-19.3°C 63% 7.4 mph W11.9 kmh W 11.7 mph18.8 kmh 29.06 in984.1 mb 0.00 in0.0 mm 0.00 in0.0 mm 0.00 in0.0 mm
04:53 AM 7.2°F-13.8°C -2.8°F-19.3°C 63% 6.8 mph W10.9 kmh W 11.7 mph18.8 kmh 29.06 in984.1 mb 0.00 in0.0 mm 0.00 in0.0 mm 0.00 in0.0 mm
04:52 AM 7.2°F-13.8°C -2.8°F-19.3°C 63% 6.2 mph W10.0 kmh W 11.7 mph18.8 kmh 29.06 in984.1 mb 0.00 in0.0 mm 0.00 in0.0 mm 0.00 in0.0 mm
04:51 AM 7.2°F-13.8°C -2.8°F-19.3°C 63% 6.2 mph W10.0 kmh W 11.7 mph18.8 kmh 29.06 in984.1 mb 0.00 in0.0 mm 0.00 in0.0 mm 0.00 in0.0 mm
04:50 AM 7.2°F-13.8°C -2.8°F-19.3°C 63% 6.2 mph W10.0 kmh W 11.7 mph18.8 kmh 29.06 in984.1 mb 0.00 in0.0 mm 0.00 in0.0 mm 0.00 in0.0 mm
04:49 AM 7.2°F-13.8°C -2.8°F-19.3°C 63% 6.3 mph W10.1 kmh W 11.7 mph18.8 kmh 29.06 in984.1 mb 0.00 in0.0 mm 0.00 in0.0 mm 0.00 in0.0 mm
04:48 AM 7.2°F-13.8°C -2.8°F-19.3°C 63% 6.9 mph W11.1 kmh W 11.7 mph18.8 kmh 29.06 in984.1 mb 0.00 in0.0 mm 0.00 in0.0 mm 0.00 in0.0 mm
04:47 AM 7.2°F-13.8°C -2.8°F-19.3°C 63% 7.2 mph W11.6 kmh W 11.7 mph18.8 kmh 29.06 in984.1 mb 0.00 in0.0 mm 0.00 in0.0 mm 0.00 in0.0 mm
04:46 AM 7.2°F-13.8°C -2.8°F-19.3°C 63% 6.7 mph W10.8 kmh W 11.7 mph18.8 kmh 29.06 in984.1 mb 0.00 in0.0 mm 0.00 in0.0 mm 0.00 in0.0 mm
04:45 AM 7.2°F-13.8°C -2.8°F-19.3°C 63% 6.7 mph W10.8 kmh W 11.7 mph18.8 kmh 29.06 in984.1 mb 0.00 in0.0 mm 0.00 in0.0 mm 0.00 in0.0 mm
04:44 AM 7.0°F-13.9°C -3.0°F-19.4°C 63% 6.8 mph W10.9 kmh W 11.7 mph18.8 kmh 29.06 in984.1 mb 0.00 in0.0 mm 0.00 in0.0 mm 0.00 in0.0 mm
04:43 AM 7.0°F-13.9°C -3.0°F-19.4°C 63% 6.4 mph W10.3 kmh W 11.7 mph18.8 kmh 29.06 in984.1 mb 0.00 in0.0 mm 0.00 in0.0 mm 0.00 in0.0 mm
04:42 AM 7.0°F-13.9°C -3.0°F-19.4°C 63% 6.4 mph W10.3 kmh W 11.0 mph17.7 kmh 29.06 in984.1 mb 0.00 in0.0 mm 0.00 in0.0 mm 0.00 in0.0 mm
04:41 AM 7.0°F-13.9°C -3.0°F-19.4°C 63% 6.2 mph W10.0 kmh W 11.0 mph17.7 kmh 29.06 in984.1 mb 0.00 in0.0 mm 0.00 in0.0 mm 0.00 in0.0 mm
04:40 AM 7.0°F-13.9°C -3.0°F-19.4°C 63% 6.4 mph W10.3 kmh W 11.0 mph17.7 kmh 29.06 in984.1 mb 0.00 in0.0 mm 0.00 in0.0 mm 0.00 in0.0 mm
04:39 AM 7.0°F-13.9°C -3.0°F-19.4°C 63% 6.5 mph W10.5 kmh W 11.0 mph17.7 kmh 29.06 in984.1 mb 0.00 in0.0 mm 0.00 in0.0 mm 0.00 in0.0 mm
04:38 AM 7.0°F-13.9°C -3.0°F-19.4°C 63% 6.6 mph W10.6 kmh W 11.0 mph17.7 kmh 29.06 in984.1 mb 0.00 in0.0 mm 0.00 in0.0 mm 0.00 in0.0 mm
04:37 AM 7.0°F-13.9°C -2.9°F-19.4°C 63% 6.9 mph W11.1 kmh W 11.0 mph17.7 kmh 29.06 in984.1 mb 0.00 in0.0 mm 0.00 in0.0 mm 0.00 in0.0 mm
04:36 AM 7.0°F-13.9°C -2.9°F-19.4°C 63% 6.7 mph W10.8 kmh W 9.1 mph14.6 kmh 29.06 in984.1 mb 0.00 in0.0 mm 0.00 in0.0 mm 0.00 in0.0 mm
04:35 AM 6.8°F-14.0°C -3.1°F-19.5°C 63% 6.6 mph W10.6 kmh W 9.1 mph14.6 kmh 29.06 in984.1 mb 0.00 in0.0 mm 0.00 in0.0 mm 0.00 in0.0 mm
04:34 AM 6.8°F-14.0°C -3.1°F-19.5°C 63% 6.7 mph W10.8 kmh W 9.1 mph14.6 kmh 29.06 in984.1 mb 0.00 in0.0 mm 0.00 in0.0 mm 0.00 in0.0 mm
04:33 AM 6.8°F-14.0°C -3.1°F-19.5°C 63% 6.4 mph W10.3 kmh W 9.1 mph14.6 kmh 29.06 in984.1 mb 0.00 in0.0 mm 0.00 in0.0 mm 0.00 in0.0 mm
04:32 AM 6.8°F-14.0°C -3.1°F-19.5°C 63% 6.2 mph W10.0 kmh W 9.1 mph14.6 kmh 29.06 in984.1 mb 0.00 in0.0 mm 0.00 in0.0 mm 0.00 in0.0 mm
04:31 AM 6.8°F-14.0°C -3.1°F-19.5°C 63% 6.3 mph W10.1 kmh W 9.1 mph14.6 kmh 29.06 in984.1 mb 0.00 in0.0 mm 0.00 in0.0 mm 0.00 in0.0 mm
04:30 AM 6.8°F-14.0°C -3.1°F-19.5°C 63% 6.4 mph W10.3 kmh W 9.1 mph14.6 kmh 29.06 in984.1 mb 0.00 in0.0 mm 0.00 in0.0 mm 0.00 in0.0 mm
04:29 AM 6.8°F-14.0°C -3.1°F-19.5°C 63% 6.5 mph W10.5 kmh W 9.1 mph14.6 kmh 29.06 in984.1 mb 0.00 in0.0 mm 0.00 in0.0 mm 0.00 in0.0 mm
04:28 AM 6.8°F-14.0°C -3.1°F-19.5°C 63% 6.4 mph W10.3 kmh W 9.1 mph14.6 kmh 29.06 in984.1 mb 0.00 in0.0 mm 0.00 in0.0 mm 0.00 in0.0 mm
04:27 AM 6.8°F-14.0°C -3.1°F-19.5°C 63% 6.1 mph W9.8 kmh W 9.1 mph14.6 kmh 29.06 in984.1 mb 0.00 in0.0 mm 0.00 in0.0 mm 0.00 in0.0 mm
04:26 AM 6.8°F-14.0°C -3.1°F-19.5°C 63% 5.8 mph W9.3 kmh W 9.1 mph14.6 kmh 29.06 in984.1 mb 0.00 in0.0 mm 0.00 in0.0 mm 0.00 in0.0 mm
04:25 AM 6.8°F-14.0°C -3.1°F-19.5°C 63% 5.7 mph W9.2 kmh W 9.1 mph14.6 kmh 29.06 in984.1 mb 0.00 in0.0 mm 0.00 in0.0 mm 0.00 in0.0 mm
04:24 AM 6.8°F-14.0°C -3.1°F-19.5°C 63% 5.4 mph W8.7 kmh W 9.1 mph14.6 kmh 29.06 in984.1 mb 0.00 in0.0 mm 0.00 in0.0 mm 0.00 in0.0 mm
04:23 AM 6.8°F-14.0°C -3.1°F-19.5°C 63% 5.3 mph W8.5 kmh W 9.1 mph14.6 kmh 29.06 in984.1 mb 0.00 in0.0 mm 0.00 in0.0 mm 0.00 in0.0 mm
04:22 AM 6.6°F-14.1°C -3.3°F-19.6°C 63% 5.9 mph W9.5 kmh W 9.1 mph14.6 kmh 29.06 in984.1 mb 0.00 in0.0 mm 0.00 in0.0 mm 0.00 in0.0 mm
04:21 AM 6.6°F-14.1°C -3.3°F-19.6°C 63% 6.2 mph W10.0 kmh W 11.7 mph18.8 kmh 29.06 in984.1 mb 0.00 in0.0 mm 0.00 in0.0 mm 0.00 in0.0 mm
04:20 AM 6.6°F-14.1°C -3.3°F-19.6°C 63% 6.0 mph W9.7 kmh W 11.7 mph18.8 kmh 29.06 in984.1 mb 0.00 in0.0 mm 0.00 in0.0 mm 0.00 in0.0 mm
04:19 AM 6.6°F-14.1°C -3.3°F-19.6°C 63% 6.6 mph W10.6 kmh W 11.7 mph18.8 kmh 29.06 in984.1 mb 0.00 in0.0 mm 0.00 in0.0 mm 0.00 in0.0 mm
04:18 AM 6.6°F-14.1°C -3.3°F-19.6°C 63% 6.7 mph W10.8 kmh W 11.7 mph18.8 kmh 29.06 in984.1 mb 0.00 in0.0 mm 0.00 in0.0 mm 0.00 in0.0 mm
04:17 AM 6.4°F-14.2°C -3.5°F-19.7°C 63% 6.0 mph W9.7 kmh W 11.7 mph18.8 kmh 29.06 in984.1 mb 0.00 in0.0 mm 0.00 in0.0 mm 0.00 in0.0 mm
04:16 AM 6.4°F-14.2°C -3.5°F-19.7°C 63% 6.3 mph W10.1 kmh W 11.7 mph18.8 kmh 29.06 in984.1 mb 0.00 in0.0 mm 0.00 in0.0 mm 0.00 in0.0 mm
04:15 AM 6.4°F-14.2°C -3.5°F-19.7°C 63% 6.5 mph W10.5 kmh W 11.7 mph18.8 kmh 29.06 in984.1 mb 0.00 in0.0 mm 0.00 in0.0 mm 0.00 in0.0 mm
04:14 AM 6.4°F-14.2°C -3.5°F-19.7°C 63% 6.8 mph W10.9 kmh W 11.7 mph18.8 kmh 29.06 in984.1 mb 0.00 in0.0 mm 0.00 in0.0 mm 0.00 in0.0 mm
04:13 AM 6.4°F-14.2°C -3.5°F-19.7°C 63% 7.5 mph W12.1 kmh W 11.7 mph18.8 kmh 29.06 in984.1 mb 0.00 in0.0 mm 0.00 in0.0 mm 0.00 in0.0 mm
04:12 AM 6.4°F-14.2°C -3.5°F-19.7°C 63% 7.5 mph W12.1 kmh W 11.7 mph18.8 kmh 29.06 in984.1 mb 0.00 in0.0 mm 0.00 in0.0 mm 0.00 in0.0 mm
04:11 AM 6.3°F-14.3°C -3.6°F-19.8°C 63% 7.1 mph W11.4 kmh W 9.7 mph15.6 kmh 29.06 in984.1 mb 0.00 in0.0 mm 0.00 in0.0 mm 0.00 in0.0 mm
04:10 AM 6.3°F-14.3°C -3.6°F-19.8°C 63% 6.9 mph WSW11.1 kmh WSW 9.7 mph15.6 kmh 29.06 in984.1 mb 0.00 in0.0 mm 0.00 in0.0 mm 0.00 in0.0 mm
04:09 AM 6.3°F-14.3°C -3.6°F-19.8°C 63% 6.6 mph W10.6 kmh W 9.7 mph15.6 kmh 29.06 in984.1 mb 0.00 in0.0 mm 0.00 in0.0 mm 0.00 in0.0 mm
04:08 AM 6.3°F-14.3°C -3.6°F-19.8°C 63% 7.3 mph W11.7 kmh W 9.7 mph15.6 kmh 29.06 in984.1 mb 0.00 in0.0 mm 0.00 in0.0 mm 0.00 in0.0 mm
04:07 AM 6.3°F-14.3°C -3.6°F-19.8°C 63% 7.0 mph WSW11.3 kmh WSW 9.7 mph15.6 kmh 29.06 in984.1 mb 0.00 in0.0 mm 0.00 in0.0 mm 0.00 in0.0 mm
04:06 AM 6.3°F-14.3°C -3.6°F-19.8°C 63% 6.4 mph W10.3 kmh W 9.7 mph15.6 kmh 29.06 in984.1 mb 0.00 in0.0 mm 0.00 in0.0 mm 0.00 in0.0 mm
04:05 AM 6.1°F-14.4°C -3.8°F-19.9°C 63% 6.3 mph W10.1 kmh W 9.1 mph14.6 kmh 29.06 in984.1 mb 0.00 in0.0 mm 0.00 in0.0 mm 0.00 in0.0 mm
04:04 AM 6.1°F-14.4°C -3.8°F-19.9°C 63% 6.7 mph WSW10.8 kmh WSW 9.1 mph14.6 kmh 29.06 in984.1 mb 0.00 in0.0 mm 0.00 in0.0 mm 0.00 in0.0 mm
04:03 AM 6.1°F-14.4°C -3.8°F-19.9°C 63% 7.0 mph WSW11.3 kmh WSW 9.1 mph14.6 kmh 29.06 in984.1 mb 0.00 in0.0 mm 0.00 in0.0 mm 0.00 in0.0 mm
04:02 AM 6.1°F-14.4°C -3.8°F-19.9°C 63% 6.5 mph WSW10.5 kmh WSW 9.1 mph14.6 kmh 29.06 in984.1 mb 0.00 in0.0 mm 0.00 in0.0 mm 0.00 in0.0 mm
04:01 AM 5.9°F-14.5°C -3.9°F-19.9°C 63% 6.0 mph WSW9.7 kmh WSW 9.1 mph14.6 kmh 29.06 in984.1 mb 0.00 in0.0 mm 0.00 in0.0 mm 0.00 in0.0 mm
04:00 AM 5.9°F-14.5°C -3.9°F-19.9°C 63% 5.8 mph WSW9.3 kmh WSW 9.1 mph14.6 kmh 29.06 in984.1 mb 0.00 in0.0 mm 0.00 in0.0 mm 0.00 in0.0 mm
03:59 AM 5.9°F-14.5°C -3.9°F-19.9°C 63% 6.0 mph WSW9.7 kmh WSW 9.1 mph14.6 kmh 29.06 in984.1 mb 0.00 in0.0 mm 0.00 in0.0 mm 0.00 in0.0 mm
03:58 AM 5.7°F-14.6°C -4.1°F-20.1°C 63% 5.9 mph WSW9.5 kmh WSW 9.1 mph14.6 kmh 29.06 in984.1 mb 0.00 in0.0 mm 0.00 in0.0 mm 0.00 in0.0 mm
03:57 AM 5.7°F-14.6°C -4.1°F-20.1°C 63% 5.5 mph WSW8.9 kmh WSW 9.1 mph14.6 kmh 29.06 in984.1 mb 0.00 in0.0 mm 0.00 in0.0 mm 0.00 in0.0 mm
03:56 AM 5.5°F-14.7°C -4.3°F-20.2°C 63% 5.4 mph WSW8.7 kmh WSW 9.1 mph14.6 kmh 29.06 in984.1 mb 0.00 in0.0 mm 0.00 in0.0 mm 0.00 in0.0 mm
03:55 AM 5.5°F-14.7°C -4.3°F-20.2°C 63% 5.9 mph WSW9.5 kmh WSW 9.1 mph14.6 kmh 29.06 in984.1 mb 0.00 in0.0 mm 0.00 in0.0 mm 0.00 in0.0 mm
03:54 AM 5.5°F-14.7°C -4.3°F-20.2°C 63% 6.2 mph WSW10.0 kmh WSW 9.1 mph14.6 kmh 29.06 in984.1 mb 0.00 in0.0 mm 0.00 in0.0 mm 0.00 in0.0 mm
03:53 AM 5.5°F-14.7°C -4.3°F-20.2°C 63% 6.2 mph W10.0 kmh W 9.1 mph14.6 kmh 29.06 in984.1 mb 0.00 in0.0 mm 0.00 in0.0 mm 0.00 in0.0 mm
03:52 AM 5.5°F-14.7°C -4.3°F-20.2°C 63% 6.2 mph W10.0 kmh W 9.1 mph14.6 kmh 29.06 in984.1 mb 0.00 in0.0 mm 0.00 in0.0 mm 0.00 in0.0 mm
03:51 AM 5.4°F-14.8°C -4.4°F-20.2°C 63% 5.6 mph W9.0 kmh W 9.1 mph14.6 kmh 29.06 in984.1 mb 0.00 in0.0 mm 0.00 in0.0 mm 0.00 in0.0 mm
03:50 AM 5.4°F-14.8°C -4.4°F-20.2°C 63% 5.4 mph WSW8.7 kmh WSW 9.1 mph14.6 kmh 29.06 in984.1 mb 0.00 in0.0 mm 0.00 in0.0 mm 0.00 in0.0 mm
03:49 AM 5.4°F-14.8°C -4.4°F-20.2°C 63% 6.0 mph W9.7 kmh W 9.1 mph14.6 kmh 29.06 in984.1 mb 0.00 in0.0 mm 0.00 in0.0 mm 0.00 in0.0 mm
03:48 AM 5.4°F-14.8°C -4.4°F-20.2°C 63% 6.1 mph W9.8 kmh W 9.1 mph14.6 kmh 29.06 in984.1 mb 0.00 in0.0 mm 0.00 in0.0 mm 0.00 in0.0 mm
03:47 AM 5.4°F-14.8°C -4.4°F-20.2°C 63% 5.8 mph W9.3 kmh W 9.1 mph14.6 kmh 29.06 in984.1 mb 0.00 in0.0 mm 0.00 in0.0 mm 0.00 in0.0 mm
03:46 AM 5.4°F-14.8°C -4.4°F-20.2°C 63% 5.4 mph W8.7 kmh W 9.1 mph14.6 kmh 29.06 in984.1 mb 0.00 in0.0 mm 0.00 in0.0 mm 0.00 in0.0 mm
03:45 AM 5.4°F-14.8°C -4.4°F-20.2°C 63% 5.2 mph W8.4 kmh W 9.1 mph14.6 kmh 29.06 in984.1 mb 0.00 in0.0 mm 0.00 in0.0 mm 0.00 in0.0 mm
03:44 AM 5.4°F-14.8°C -4.4°F-20.2°C 63% 5.6 mph W9.0 kmh W 9.1 mph14.6 kmh 29.06 in984.1 mb 0.00 in0.0 mm 0.00 in0.0 mm 0.00 in0.0 mm
03:43 AM 5.4°F-14.8°C -4.4°F-20.2°C 63% 5.6 mph W9.0 kmh W 9.1 mph14.6 kmh 29.06 in984.1 mb 0.00 in0.0 mm 0.00 in0.0 mm 0.00 in0.0 mm
03:42 AM 5.2°F-14.9°C -4.6°F-20.3°C 63% 5.3 mph W8.5 kmh W 9.1 mph14.6 kmh 29.06 in984.1 mb 0.00 in0.0 mm 0.00 in0.0 mm 0.00 in0.0 mm
03:41 AM 5.2°F-14.9°C -4.6°F-20.3°C 63% 5.9 mph W9.5 kmh W 9.1 mph14.6 kmh 29.06 in984.1 mb 0.00 in0.0 mm 0.00 in0.0 mm 0.00 in0.0 mm
03:40 AM 5.2°F-14.9°C -4.6°F-20.3°C 63% 6.6 mph W10.6 kmh W 9.1 mph14.6 kmh 29.06 in984.1 mb 0.00 in0.0 mm 0.00 in0.0 mm 0.00 in0.0 mm
03:39 AM 5.0°F-15.0°C -4.8°F-20.4°C 63% 7.0 mph W11.3 kmh W 9.1 mph14.6 kmh 29.06 in984.1 mb 0.00 in0.0 mm 0.00 in0.0 mm 0.00 in0.0 mm
03:38 AM 5.0°F-15.0°C -4.8°F-20.4°C 63% 7.0 mph W11.3 kmh W 9.1 mph14.6 kmh 29.06 in984.1 mb 0.00 in0.0 mm 0.00 in0.0 mm 0.00 in0.0 mm
03:37 AM 5.0°F-15.0°C -4.8°F-20.4°C 63% 6.4 mph W10.3 kmh W 9.7 mph15.6 kmh 29.06 in984.1 mb 0.00 in0.0 mm 0.00 in0.0 mm 0.00 in0.0 mm
03:36 AM 5.0°F-15.0°C -4.8°F-20.4°C 63% 5.6 mph W9.0 kmh W 9.7 mph15.6 kmh 29.06 in984.1 mb 0.00 in0.0 mm 0.00 in0.0 mm 0.00 in0.0 mm
03:35 AM 5.0°F-15.0°C -4.8°F-20.4°C 63% 5.9 mph W9.5 kmh W 9.7 mph15.6 kmh 29.06 in984.1 mb 0.00 in0.0 mm 0.00 in0.0 mm 0.00 in0.0 mm
03:34 AM 5.0°F-15.0°C -4.8°F-20.4°C 63% 6.2 mph W10.0 kmh W 9.7 mph15.6 kmh 29.06 in984.1 mb 0.00 in0.0 mm 0.00 in0.0 mm 0.00 in0.0 mm
03:33 AM 5.0°F-15.0°C -4.8°F-20.4°C 63% 6.3 mph W10.1 kmh W 9.7 mph15.6 kmh 29.06 in984.1 mb 0.00 in0.0 mm 0.00 in0.0 mm 0.00 in0.0 mm
03:32 AM 4.8°F-15.1°C -4.9°F-20.5°C 63% 6.5 mph W10.5 kmh W 9.7 mph15.6 kmh 29.06 in984.1 mb 0.00 in0.0 mm 0.00 in0.0 mm 0.00 in0.0 mm
03:31 AM 4.8°F-15.1°C -4.9°F-20.5°C 63% 6.5 mph W10.5 kmh W 9.7 mph15.6 kmh 29.06 in984.1 mb 0.00 in0.0 mm 0.00 in0.0 mm 0.00 in0.0 mm
03:30 AM 4.8°F-15.1°C -4.9°F-20.5°C 63% 6.7 mph W10.8 kmh W 9.7 mph15.6 kmh 29.06 in984.1 mb 0.00 in0.0 mm 0.00 in0.0 mm 0.00 in0.0 mm
03:29 AM 4.6°F-15.2°C -5.1°F-20.6°C 63% 7.2 mph W11.6 kmh W 9.7 mph15.6 kmh 29.06 in984.1 mb 0.00 in0.0 mm 0.00 in0.0 mm 0.00 in0.0 mm
03:28 AM 4.6°F-15.2°C -5.1°F-20.6°C 63% 7.4 mph W11.9 kmh W 9.7 mph15.6 kmh 29.06 in984.1 mb 0.00 in0.0 mm 0.00 in0.0 mm 0.00 in0.0 mm
03:27 AM 4.5°F-15.3°C -5.2°F-20.7°C 63% 7.1 mph W11.4 kmh W 9.1 mph14.6 kmh 29.06 in984.1 mb 0.00 in0.0 mm 0.00 in0.0 mm 0.00 in0.0 mm
03:26 AM 4.5°F-15.3°C -5.2°F-20.7°C 63% 6.9 mph W11.1 kmh W 9.1 mph14.6 kmh 29.06 in984.1 mb 0.00 in0.0 mm 0.00 in0.0 mm 0.00 in0.0 mm
03:25 AM 4.5°F-15.3°C -5.2°F-20.7°C 63% 6.7 mph W10.8 kmh W 9.1 mph14.6 kmh 29.06 in984.1 mb 0.00 in0.0 mm 0.00 in0.0 mm 0.00 in0.0 mm
03:24 AM 4.5°F-15.3°C -5.2°F-20.7°C 63% 6.0 mph W9.7 kmh W 9.1 mph14.6 kmh 29.06 in984.1 mb 0.00 in0.0 mm 0.00 in0.0 mm 0.00 in0.0 mm
03:23 AM 4.5°F-15.3°C -5.2°F-20.7°C 63% 5.7 mph W9.2 kmh W 8.4 mph13.5 kmh 29.06 in984.1 mb 0.00 in0.0 mm 0.00 in0.0 mm 0.00 in0.0 mm
03:22 AM 4.3°F-15.4°C -5.4°F-20.8°C 63% 5.8 mph W9.3 kmh W 8.4 mph13.5 kmh 29.06 in984.1 mb 0.00 in0.0 mm 0.00 in0.0 mm 0.00 in0.0 mm
03:21 AM 4.3°F-15.4°C -5.4°F-20.8°C 63% 5.5 mph W8.9 kmh W 8.4 mph13.5 kmh 29.06 in984.1 mb 0.00 in0.0 mm 0.00 in0.0 mm 0.00 in0.0 mm
03:20 AM 4.3°F-15.4°C -5.4°F-20.8°C 63% 6.1 mph W9.8 kmh W 8.4 mph13.5 kmh 29.06 in984.1 mb 0.00 in0.0 mm 0.00 in0.0 mm 0.00 in0.0 mm
03:19 AM 4.1°F-15.5°C -5.6°F-20.9°C 63% 6.7 mph W10.8 kmh W 8.4 mph13.5 kmh 29.06 in984.1 mb 0.00 in0.0 mm 0.00 in0.0 mm 0.00 in0.0 mm
03:18 AM 4.1°F-15.5°C -5.6°F-20.9°C 63% 6.7 mph W10.8 kmh W 9.1 mph14.6 kmh 29.06 in984.1 mb 0.00 in0.0 mm 0.00 in0.0 mm 0.00 in0.0 mm
03:17 AM 4.1°F-15.5°C -5.6°F-20.9°C 63% 6.5 mph W10.5 kmh W 9.1 mph14.6 kmh 29.06 in984.1 mb 0.00 in0.0 mm 0.00 in0.0 mm 0.00 in0.0 mm
03:16 AM 4.1°F-15.5°C -5.6°F-20.9°C 63% 6.2 mph W10.0 kmh W 9.1 mph14.6 kmh 29.06 in984.1 mb 0.00 in0.0 mm 0.00 in0.0 mm 0.00 in0.0 mm
03:15 AM 4.1°F-15.5°C -5.6°F-20.9°C 63% 6.0 mph W9.7 kmh W 9.1 mph14.6 kmh 29.06 in984.1 mb 0.00 in0.0 mm 0.00 in0.0 mm 0.00 in0.0 mm
03:14 AM 3.9°F-15.6°C -5.8°F-21.0°C 63% 6.0 mph W9.7 kmh W 9.1 mph14.6 kmh 29.06 in984.1 mb 0.00 in0.0 mm 0.00 in0.0 mm 0.00 in0.0 mm
03:13 AM 3.9°F-15.6°C -5.8°F-21.0°C 63% 6.3 mph W10.1 kmh W 9.1 mph14.6 kmh 29.06 in984.1 mb 0.00 in0.0 mm 0.00 in0.0 mm 0.00 in0.0 mm
03:12 AM 3.7°F-15.7°C -6.0°F-21.1°C 63% 6.4 mph W10.3 kmh W 9.1 mph14.6 kmh 29.06 in984.1 mb 0.00 in0.0 mm 0.00 in0.0 mm 0.00 in0.0 mm
03:11 AM 3.7°F-15.7°C -6.0°F-21.1°C 63% 6.4 mph W10.3 kmh W 9.1 mph14.6 kmh 29.06 in984.1 mb 0.00 in0.0 mm 0.00 in0.0 mm 0.00 in0.0 mm
03:10 AM 3.7°F-15.7°C -6.0°F-21.1°C 63% 6.2 mph W10.0 kmh W 9.1 mph14.6 kmh 29.06 in984.1 mb 0.00 in0.0 mm 0.00 in0.0 mm 0.00 in0.0 mm
03:09 AM 3.6°F-15.8°C -6.1°F-21.2°C 63% 6.2 mph W10.0 kmh W 9.1 mph14.6 kmh 29.06 in984.1 mb 0.00 in0.0 mm 0.00 in0.0 mm 0.00 in0.0 mm
03:08 AM 3.4°F-15.9°C -6.2°F-21.2°C 63% 6.3 mph W10.1 kmh W 9.1 mph14.6 kmh 29.06 in984.1 mb 0.00 in0.0 mm 0.00 in0.0 mm 0.00 in0.0 mm
03:07 AM 3.4°F-15.9°C -6.2°F-21.2°C 63% 6.4 mph W10.3 kmh W 9.1 mph14.6 kmh 29.06 in984.1 mb 0.00 in0.0 mm 0.00 in0.0 mm 0.00 in0.0 mm
03:06 AM 3.4°F-15.9°C -6.2°F-21.2°C 63% 5.8 mph W9.3 kmh W 9.1 mph14.6 kmh 29.06 in984.1 mb 0.00 in0.0 mm 0.00 in0.0 mm 0.00 in0.0 mm
03:05 AM 3.2°F-16.0°C -6.4°F-21.3°C 63% 5.9 mph W9.5 kmh W 9.1 mph14.6 kmh 29.06 in984.1 mb 0.00 in0.0 mm 0.00 in0.0 mm 0.00 in0.0 mm
03:04 AM 3.2°F-16.0°C -6.4°F-21.3°C 63% 6.5 mph W10.5 kmh W 11.0 mph17.7 kmh 29.06 in984.1 mb 0.00 in0.0 mm 0.00 in0.0 mm 0.00 in0.0 mm
03:03 AM 3.2°F-16.0°C -6.4°F-21.3°C 63% 6.3 mph W10.1 kmh W 11.0 mph17.7 kmh 29.06 in984.1 mb 0.00 in0.0 mm 0.00 in0.0 mm 0.00 in0.0 mm
03:02 AM 3.2°F-16.0°C -6.4°F-21.3°C 63% 6.1 mph W9.8 kmh W 11.0 mph17.7 kmh 29.06 in984.1 mb 0.00 in0.0 mm 0.00 in0.0 mm 0.00 in0.0 mm
03:01 AM 3.2°F-16.0°C -6.4°F-21.3°C 63% 6.7 mph W10.8 kmh W 11.0 mph17.7 kmh 29.06 in984.1 mb 0.00 in0.0 mm 0.00 in0.0 mm 0.00 in0.0 mm
03:00 AM 3.2°F-16.0°C -6.4°F-21.3°C 63% 7.0 mph W11.3 kmh W 11.0 mph17.7 kmh 29.06 in984.1 mb 0.00 in0.0 mm 0.00 in0.0 mm 0.00 in0.0 mm
02:59 AM 3.4°F-15.9°C -6.2°F-21.2°C 63% 6.4 mph W10.3 kmh W 11.0 mph17.7 kmh 29.06 in984.1 mb 0.00 in0.0 mm 0.00 in0.0 mm 0.00 in0.0 mm
02:58 AM 3.4°F-15.9°C -6.2°F-21.2°C 63% 6.3 mph W10.1 kmh W 11.0 mph17.7 kmh 29.06 in984.1 mb 0.00 in0.0 mm 0.00 in0.0 mm 0.00 in0.0 mm
02:57 AM 3.4°F-15.9°C -6.2°F-21.2°C 63% 6.4 mph W10.3 kmh W 11.0 mph17.7 kmh 29.06 in984.1 mb 0.00 in0.0 mm 0.00 in0.0 mm 0.00 in0.0 mm
02:56 AM 3.6°F-15.8°C -6.0°F-21.1°C 63% 5.6 mph W9.0 kmh W 11.0 mph17.7 kmh 29.06 in984.1 mb 0.00 in0.0 mm 0.00 in0.0 mm 0.00 in0.0 mm
02:55 AM 3.7°F-15.7°C -5.9°F-21.1°C 63% 5.1 mph W8.2 kmh W 11.0 mph17.7 kmh 29.06 in984.1 mb 0.00 in0.0 mm 0.00 in0.0 mm 0.00 in0.0 mm
02:54 AM 3.7°F-15.7°C -5.9°F-21.1°C 63% 5.0 mph W8.0 kmh W 9.1 mph14.6 kmh 29.06 in984.1 mb 0.00 in0.0 mm 0.00 in0.0 mm 0.00 in0.0 mm
02:53 AM 3.7°F-15.7°C -5.9°F-21.1°C 63% 4.7 mph W7.6 kmh W 9.1 mph14.6 kmh 29.06 in984.1 mb 0.00 in0.0 mm 0.00 in0.0 mm 0.00 in0.0 mm
02:52 AM 3.9°F-15.6°C -5.8°F-21.0°C 63% 4.7 mph W7.6 kmh W 9.1 mph14.6 kmh 29.06 in984.1 mb 0.00 in0.0 mm 0.00 in0.0 mm 0.00 in0.0 mm
02:51 AM 3.9°F-15.6°C -5.7°F-20.9°C 63% 5.1 mph W8.2 kmh W 9.1 mph14.6 kmh 29.06 in984.1 mb 0.00 in0.0 mm 0.00 in0.0 mm 0.00 in0.0 mm
02:50 AM 4.1°F-15.5°C -5.6°F-20.9°C 63% 5.3 mph W8.5 kmh W 9.1 mph14.6 kmh 29.06 in984.1 mb 0.00 in0.0 mm 0.00 in0.0 mm 0.00 in0.0 mm
02:49 AM 4.1°F-15.5°C -5.6°F-20.9°C 63% 5.7 mph W9.2 kmh W 9.1 mph14.6 kmh 29.06 in984.1 mb 0.00 in0.0 mm 0.00 in0.0 mm 0.00 in0.0 mm
02:48 AM 4.1°F-15.5°C -5.6°F-20.9°C 63% 6.3 mph W10.1 kmh W 9.1 mph14.6 kmh 29.06 in984.1 mb 0.00 in0.0 mm 0.00 in0.0 mm 0.00 in0.0 mm
02:47 AM 4.3°F-15.4°C -5.4°F-20.8°C 63% 6.6 mph W10.6 kmh W 11.0 mph17.7 kmh 29.06 in984.1 mb 0.00 in0.0 mm 0.00 in0.0 mm 0.00 in0.0 mm
02:46 AM 4.3°F-15.4°C -5.4°F-20.8°C 63% 6.4 mph W10.3 kmh W 11.0 mph17.7 kmh 29.06 in984.1 mb 0.00 in0.0 mm 0.00 in0.0 mm 0.00 in0.0 mm
02:45 AM 4.3°F-15.4°C -5.4°F-20.8°C 63% 6.6 mph W10.6 kmh W 11.0 mph17.7 kmh 29.06 in984.1 mb 0.00 in0.0 mm 0.00 in0.0 mm 0.00 in0.0 mm
02:44 AM 4.3°F-15.4°C -5.4°F-20.8°C 63% 6.9 mph W11.1 kmh W 11.0 mph17.7 kmh 29.06 in984.1 mb 0.00 in0.0 mm 0.00 in0.0 mm 0.00 in0.0 mm
02:43 AM 4.3°F-15.4°C -5.4°F-20.8°C 63% 7.1 mph W11.4 kmh W 11.0 mph17.7 kmh 29.06 in984.1 mb 0.00 in0.0 mm 0.00 in0.0 mm 0.00 in0.0 mm
02:42 AM 4.5°F-15.3°C -5.2°F-20.7°C 63% 7.1 mph W11.4 kmh W 11.7 mph18.8 kmh 29.06 in984.1 mb 0.00 in0.0 mm 0.00 in0.0 mm 0.00 in0.0 mm
02:41 AM 4.5°F-15.3°C -5.2°F-20.7°C 63% 6.9 mph W11.1 kmh W 11.7 mph18.8 kmh 29.06 in984.1 mb 0.00 in0.0 mm 0.00 in0.0 mm 0.00 in0.0 mm
02:40 AM 4.5°F-15.3°C -5.2°F-20.7°C 63% 7.3 mph W11.7 kmh W 11.7 mph18.8 kmh 29.06 in984.1 mb 0.00 in0.0 mm 0.00 in0.0 mm 0.00 in0.0 mm
02:39 AM 4.5°F-15.3°C -5.2°F-20.7°C 63% 8.1 mph W13.0 kmh W 11.7 mph18.8 kmh 29.06 in984.1 mb 0.00 in0.0 mm 0.00 in0.0 mm 0.00 in0.0 mm
02:38 AM 4.5°F-15.3°C -5.2°F-20.7°C 63% 8.3 mph W13.4 kmh W 11.7 mph18.8 kmh 29.06 in984.1 mb 0.00 in0.0 mm 0.00 in0.0 mm 0.00 in0.0 mm
02:37 AM 4.5°F-15.3°C -5.2°F-20.7°C 63% 8.6 mph W13.8 kmh W 11.7 mph18.8 kmh 29.06 in984.1 mb 0.00 in0.0 mm 0.00 in0.0 mm 0.00 in0.0 mm
02:36 AM 4.5°F-15.3°C -5.2°F-20.7°C 63% 8.5 mph W13.7 kmh W 11.7 mph18.8 kmh 29.06 in984.1 mb 0.00 in0.0 mm 0.00 in0.0 mm 0.00 in0.0 mm
02:35 AM 4.5°F-15.3°C -5.2°F-20.7°C 63% 8.4 mph WNW13.5 kmh WNW 11.7 mph18.8 kmh 29.06 in984.1 mb 0.00 in0.0 mm 0.00 in0.0 mm 0.00 in0.0 mm
02:34 AM 4.5°F-15.3°C -5.2°F-20.7°C 63% 8.9 mph WNW14.3 kmh WNW 11.7 mph18.8 kmh 29.06 in984.1 mb 0.00 in0.0 mm 0.00 in0.0 mm 0.00 in0.0 mm
02:33 AM 4.5°F-15.3°C -5.2°F-20.7°C 63% 9.0 mph WNW14.5 kmh WNW 11.7 mph18.8 kmh 29.06 in984.1 mb 0.00 in0.0 mm 0.00 in0.0 mm 0.00 in0.0 mm
02:32 AM 4.5°F-15.3°C -5.2°F-20.7°C 63% 8.8 mph WNW14.2 kmh WNW 11.7 mph18.8 kmh 29.06 in984.1 mb 0.00 in0.0 mm 0.00 in0.0 mm 0.00 in0.0 mm
02:31 AM 4.5°F-15.3°C -5.2°F-20.7°C 63% 8.5 mph WNW13.7 kmh WNW 12.0 mph19.3 kmh 29.06 in984.1 mb 0.00 in0.0 mm 0.00 in0.0 mm 0.00 in0.0 mm
02:30 AM 4.5°F-15.3°C -5.2°F-20.7°C 63% 8.5 mph WNW13.7 kmh WNW 12.0 mph19.3 kmh 29.06 in984.1 mb 0.00 in0.0 mm 0.00 in0.0 mm 0.00 in0.0 mm
02:29 AM 4.5°F-15.3°C -5.2°F-20.7°C 63% 9.0 mph WNW14.5 kmh WNW 12.0 mph19.3 kmh 29.06 in984.1 mb 0.00 in0.0 mm 0.00 in0.0 mm 0.00 in0.0 mm
02:28 AM 4.6°F-15.2°C -5.1°F-20.6°C 63% 8.7 mph WNW14.0 kmh WNW 12.6 mph20.3 kmh 29.06 in984.1 mb 0.00 in0.0 mm 0.00 in0.0 mm 0.00 in0.0 mm
02:27